Provisional Data: Portage Creek near Emporium, PA


Please select a monitoring station.
Please select start date.
Please select start date.

Toggle Unit: C/F Toggle Unit: C/F
Sample Time Temperature (C) Temperature (F) Specific Conductivity (mS/cm) pH   Turbidity (NTU+) DO (mg/L)
8/9/2021 12:00:00 AM 21.72 71.096 0.082 7.29 6.85 7.59
8/9/2021 12:15:00 AM 21.63 70.934 0.082 7.3 6.83 7.63
8/9/2021 12:30:00 AM 21.52 70.736 0.082 7.31 7.85 7.64
8/9/2021 12:45:00 AM 21.43 70.574 0.082 7.31 6.87 7.67
8/9/2021 1:00:00 AM 21.33 70.394 0.083 7.3 6.91 7.68
8/9/2021 1:15:00 AM 21.24 70.232 0.082 7.31 6.85 7.72
8/9/2021 1:30:00 AM 21.15 70.07 0.083 7.31 6.59 7.74
8/9/2021 1:45:00 AM 21.06 69.908 0.083 7.3 7.18 7.72
8/9/2021 2:00:00 AM 20.98 69.764 0.083 7.3 6.86 7.75
8/9/2021 2:15:00 AM 20.89 69.602 0.083 7.28 11.62 7.74
8/9/2021 2:30:00 AM 20.81 69.458 0.083 7.3 6.49 7.76
8/9/2021 2:45:00 AM 20.73 69.314 0.083 7.3 6.67 7.81
8/9/2021 3:00:00 AM 20.66 69.188 0.083 7.29 6.95 7.79
8/9/2021 3:15:00 AM 20.58 69.044 0.083 7.3 6.43 7.87
8/9/2021 3:30:00 AM 20.52 68.936 0.084 7.29 7 7.82
8/9/2021 3:45:00 AM 20.45 68.81 0.084 7.3 8.18 7.85
8/9/2021 4:00:00 AM 20.38 68.684 0.084 7.3 7.76 7.87
8/9/2021 4:15:00 AM 20.32 68.576 0.084 7.3 6.75 7.86
8/9/2021 4:30:00 AM 20.27 68.486 0.084 7.29 6.6 7.94
8/9/2021 4:45:00 AM 20.22 68.396 0.084 7.29 6.44 7.94
8/9/2021 5:00:00 AM 20.17 68.306 0.084 7.29 6.68 7.97
8/9/2021 5:15:00 AM 20.13 68.234 0.083 7.27 9.98 7.86
8/9/2021 5:30:00 AM 20.08 68.144 0.083 7.29 9.34 7.91
8/9/2021 5:45:00 AM 20.04 68.07201 0.083 7.28 10.43 7.97
8/9/2021 6:00:00 AM 20 68 0.083 7.27 14.62 7.95
8/9/2021 6:15:00 AM 19.95 67.91 0.083 7.28 10.18 7.89
8/9/2021 6:30:00 AM 19.91 67.838 0.083 7.29 9.71 7.97
8/9/2021 6:45:00 AM 19.87 67.766 0.084 7.29 9.57 7.9
8/9/2021 7:00:00 AM 19.84 67.712 0.083 7.3 9.8 8.01
8/9/2021 7:15:00 AM 19.82 67.676 0.084 7.3 10.94 8.05
8/9/2021 7:30:00 AM 19.8 67.64 0.083 7.33 10.31 8.18
8/9/2021 7:45:00 AM 19.79 67.622 0.083 7.33 10.14 8.24
8/9/2021 8:00:00 AM 19.79 67.622 0.083 7.37 10 8.41
8/9/2021 8:15:00 AM 19.81 67.658 0.083 7.4 10.33 8.49
8/9/2021 8:30:00 AM 19.83 67.694 0.083 7.39 9.94 8.55
8/9/2021 8:45:00 AM 19.83 67.694 0.083 7.45 15.63 8.68
8/9/2021 9:00:00 AM 19.86 67.748 0.083 7.48 15.61 8.72
8/9/2021 9:15:00 AM 19.91 67.838 0.083 7.5 15.59 8.74
8/9/2021 9:30:00 AM 19.97 67.946 0.083 7.54 18.47 8.8
8/9/2021 9:45:00 AM 20.05 68.09 0.083 7.6 17.89 8.94
8/9/2021 10:00:00 AM 20.2 68.36 0.082 7.63 17.55 8.98
8/9/2021 10:15:00 AM 20.36 68.648 0.082 7.74 17.8 9.18
8/9/2021 10:30:00 AM 20.51 68.918 0.082 7.81 12.61 9.21
8/9/2021 10:45:00 AM 20.77 69.386 0.081 7.91 14.84 9.28
8/9/2021 11:00:00 AM 20.93 69.674 0.081 7.96 11.42 9.23
8/9/2021 11:15:00 AM 21.17 70.106 0.081 8.04 11.73 9.21
8/9/2021 11:30:00 AM 21.35 70.43 0.081 8.09 11.33 9.16
8/9/2021 11:45:00 AM 21.57 70.826 0.081 8.14 11.01 9.1
8/9/2021 12:00:00 PM 21.79 71.222 0.081 8.16 12.39 9.05
8/9/2021 12:15:00 PM 22.07 71.726 0.08 8.27 11.25 9.04
8/9/2021 12:30:00 PM 22.38 72.284 0.08 8.33 11.4 9.09
8/9/2021 12:45:00 PM 22.74 72.932 0.08 8.37 12.57 9
8/9/2021 1:00:00 PM 23 73.4 0.08 8.55 12.54 9.01
8/9/2021 1:15:00 PM 23.23 73.814 0.08 8.51 12.3 8.95
8/9/2021 1:30:00 PM 23.51 74.318 0.08 8.56 11.25 8.83
8/9/2021 1:45:00 PM 23.84 74.912 0.08 8.6 12.5 8.77
8/9/2021 2:00:00 PM 24.21 75.578 0.08 8.61 11.84 8.71
8/9/2021 2:15:00 PM 24.65 76.37 0.08 8.68 12.45 8.64
8/9/2021 2:30:00 PM 25.08 77.144 0.08 8.75 12.35 8.68
8/9/2021 2:45:00 PM 25.41 77.738 0.08 8.73 11.28 8.49
8/9/2021 3:00:00 PM 25.64 78.152 0.08 8.81 10.61 8.49
8/9/2021 3:15:00 PM 25.79 78.422 0.08 8.79 11.06 8.33
8/9/2021 3:30:00 PM 25.93 78.674 0.08 8.76 10.68 8.3
8/9/2021 3:45:00 PM 26.02 78.836 0.08 8.8 10.53 8.21
8/9/2021 4:00:00 PM 26.07 78.926 0.08 8.8 10.56 8.17
8/9/2021 4:15:00 PM 26.09 78.962 0.08 8.74 11.78 8.07
8/9/2021 4:30:00 PM 26.14 79.052 0.081 8.75 10.85 8.02
8/9/2021 4:45:00 PM 26.16 79.088 0.081 8.73 10.71 7.93
8/9/2021 5:00:00 PM 26.19 79.142 0.081 8.72 10.67 7.92
8/9/2021 5:15:00 PM 26.2 79.16 0.082 8.61 10.81 7.77
8/9/2021 5:30:00 PM 26.2 79.16 0.081 8.62 15.26 7.77
8/9/2021 5:45:00 PM 26.15 79.07 0.081 8.47 10.89 7.68
8/9/2021 6:00:00 PM 26.06 78.908 0.081 8.4 10.7 7.62
8/9/2021 6:15:00 PM 25.95 78.71 0.081 8.24 10.77 7.52
8/9/2021 6:30:00 PM 25.83 78.494 0.081 8.05 10.5 7.45
8/9/2021 6:45:00 PM 25.69 78.242 0.082 7.92 10.07 7.4
8/9/2021 7:00:00 PM 25.55 77.99 0.082 7.8 10.2 7.38
8/9/2021 7:15:00 PM 25.42 77.756 0.082 7.73 9.86 7.32
8/9/2021 7:30:00 PM 25.29 77.522 0.083 7.63 9.97 7.25
8/9/2021 7:45:00 PM 25.17 77.306 0.083 7.59 11.14 7.19
8/9/2021 8:00:00 PM 25.06 77.108 0.083 7.52 9.57 7.16
8/9/2021 8:15:00 PM 24.96 76.92799 0.084 7.48 9.45 7.07
8/9/2021 8:30:00 PM 24.86 76.748 0.084 7.43 9.15 7.03
8/9/2021 8:45:00 PM 24.77 76.586 0.085 7.42 9.83 7
8/9/2021 9:00:00 PM 24.68 76.424 0.085 7.39 9.49 6.97
8/9/2021 9:15:00 PM 24.59 76.262 0.086 7.38 8.97 6.97
8/9/2021 9:30:00 PM 24.49 76.082 0.086 7.33 9.77 6.88
8/9/2021 9:45:00 PM 24.4 75.92 0.087 7.35 9.83 6.95
8/9/2021 10:00:00 PM 24.31 75.758 0.087 7.32 10.95 6.9
8/9/2021 10:15:00 PM 24.2 75.56 0.088 7.33 10.33 6.97
8/9/2021 10:30:00 PM 24.1 75.38 0.088 7.32 10.34 6.98
8/9/2021 10:45:00 PM 23.99 75.182 0.088 7.33 16.76 7
8/9/2021 11:00:00 PM 23.89 75.002 0.089 7.3 10.28 6.95
8/9/2021 11:15:00 PM 23.79 74.82201 0.089 7.31 11.28 6.99
8/9/2021 11:30:00 PM 23.69 74.642 0.09 7.29 9.65 7.01
8/9/2021 11:45:00 PM 23.58 74.444 0.09 7.31 10.88 7.06
8/10/2021 12:00:00 AM 23.48 74.264 0.091 7.31 9.26 7.02
8/10/2021 12:15:00 AM 23.38 74.084 0.091 7.32 9.88 7.15
8/10/2021 12:30:00 AM 23.28 73.904 0.091 7.32 9.64 7.11
8/10/2021 12:45:00 AM 23.19 73.742 0.092 7.33 9.98 7.18
8/10/2021 1:00:00 AM 23.1 73.58 0.092 7.31 9.22 7.19
8/10/2021 1:15:00 AM 23.01 73.418 0.092 7.32 9.08 7.17
8/10/2021 1:30:00 AM 22.91 73.238 0.092 7.31 9.39 7.23
8/10/2021 1:45:00 AM 22.82 73.076 0.092 7.33 10.01 7.22
8/10/2021 2:00:00 AM 22.72 72.896 0.092 7.31 12.47 7.24
8/10/2021 2:15:00 AM 22.62 72.716 0.092 7.33 11.95 7.37
8/10/2021 2:30:00 AM 22.54 72.57201 0.092 7.32 11.39 7.33
8/10/2021 2:45:00 AM 22.46 72.42799 0.092 7.31 11.34 7.34
8/10/2021 3:00:00 AM 22.37 72.266 0.093 7.32 11.24 7.34
8/10/2021 3:15:00 AM 22.28 72.104 0.093 7.32 11.04 7.35
8/10/2021 3:30:00 AM 22.2 71.96 0.093 7.31 11.17 7.34
8/10/2021 3:45:00 AM 22.12 71.816 0.093 7.31 11.24 7.36
8/10/2021 4:00:00 AM 22.04 71.672 0.093 7.31 11.32 7.35
8/10/2021 4:15:00 AM 21.96 71.528 0.092 7.31 11.15 7.38
8/10/2021 4:30:00 AM 21.89 71.402 0.092 7.32 11.01 7.44
8/10/2021 4:45:00 AM 21.81 71.258 0.092 7.3 10.74 7.48
8/10/2021 5:00:00 AM 21.74 71.132 0.092 7.3 11.25 7.43
8/10/2021 5:15:00 AM 21.67 71.006 0.092 7.3 11.13 7.46
8/10/2021 5:30:00 AM 21.6 70.88 0.092 7.3 11.14 7.48
8/10/2021 5:45:00 AM 21.53 70.754 0.092 7.29 12.39 7.45
8/10/2021 6:00:00 AM 21.46 70.628 0.092 7.27 21.21 7.43
8/10/2021 6:15:00 AM 21.38 70.484 0.092 7.29 11.98 7.49
8/10/2021 6:30:00 AM 21.32 70.376 0.091 7.29 12.15 7.52
8/10/2021 6:45:00 AM 21.26 70.268 0.091 7.29 12.37 7.55
8/10/2021 7:00:00 AM 21.22 70.196 0.091 7.3 12.28 7.63
8/10/2021 7:15:00 AM 21.18 70.124 0.091 7.31 12.46 7.68
8/10/2021 7:30:00 AM 21.15 70.07 0.091 7.34 12.34 7.78
8/10/2021 7:45:00 AM 21.12 70.016 0.091 7.35 12.49 7.82
8/10/2021 8:00:00 AM 21.11 69.998 0.091 7.33 12.56 7.89
8/10/2021 8:15:00 AM 21.1 69.98 0.091 7.37 12.32 7.95
8/10/2021 8:30:00 AM 21.09 69.962 0.091 7.4 12.21 8.09
8/10/2021 8:45:00 AM 21.11 69.998 0.091 7.41 12.09 8.22
8/10/2021 9:00:00 AM 21.14 70.052 0.09 7.48 12.19 8.31
8/10/2021 9:15:00 AM 21.19 70.142 0.09 7.51 12.72 8.44
8/10/2021 9:30:00 AM 21.24 70.232 0.09 7.51 12.73 8.51
8/10/2021 9:45:00 AM 21.28 70.304 0.09 7.58 12.55 8.54
8/10/2021 10:00:00 AM 21.31 70.358 0.09 7.57 12.41 8.55
8/10/2021 10:15:00 AM 21.34 70.412 0.09 7.59 12.25 8.51
8/10/2021 10:30:00 AM 21.36 70.448 0.089 7.59 12.86 8.47
8/10/2021 10:45:00 AM 21.42 70.556 0.089 7.61 12.37 8.48
8/10/2021 11:00:00 AM 21.52 70.736 0.089 7.68 12.45 8.67
8/10/2021 11:15:00 AM 21.72 71.096 0.089 7.76 12.32 8.74
8/10/2021 11:30:00 AM 21.9 71.42 0.089 7.81 12.5 8.89
8/10/2021 11:45:00 AM 21.98 71.564 0.089 7.9 11.78 8.85
8/10/2021 12:00:00 PM 22.11 71.798 0.09 7.97 11.89 8.85
8/10/2021 12:15:00 PM 22.23 72.014 0.089 8.01 11.52 8.93
8/10/2021 12:30:00 PM 22.36 72.248 0.089 8.03 11.83 8.92
8/10/2021 12:45:00 PM 22.46 72.42799 0.089 8.12 12.23 8.86
8/10/2021 1:00:00 PM 22.52 72.536 0.088 8.09 11.65 8.75
8/10/2021 1:15:00 PM 22.57 72.626 0.088 8.05 11.58 8.64
8/10/2021 1:30:00 PM 22.64 72.752 0.088 8.08 12.4 8.7
8/10/2021 1:45:00 PM 22.64 72.752 0.087 7.97 12.36 8.49
8/10/2021 2:00:00 PM 22.69 72.842 0.086 7.96 13.18 8.48
8/10/2021 2:15:00 PM 22.75 72.95 0.086 7.97 12.55 8.56
8/10/2021 2:30:00 PM 22.82 73.076 0.086 8 13.47 8.53
8/10/2021 2:45:00 PM 23.05 73.49 0.086 8.06 13.65 8.62
8/10/2021 3:00:00 PM 23.26 73.868 0.086 8.23 13.48 8.72
8/10/2021 3:15:00 PM 23.41 74.138 0.086 8.31 13.55 8.68
8/10/2021 3:30:00 PM 23.52 74.336 0.086 8.39 13.95 8.71
8/10/2021 3:45:00 PM 23.58 74.444 0.085 8.34 11.26 8.65
8/10/2021 4:00:00 PM 23.62 74.516 0.085 8.31 10.8 8.61
8/10/2021 4:15:00 PM 23.66 74.588 0.084 8.3 10.96 8.52
8/10/2021 4:30:00 PM 23.69 74.642 0.084 8.29 11.2 8.5
8/10/2021 4:45:00 PM 23.72 74.696 0.084 8.28 14.3 8.49
8/10/2021 5:00:00 PM 23.72 74.696 0.084 8.25 15.76 8.38
8/10/2021 5:15:00 PM 23.72 74.696 0.084 8.17 12.67 8.34
8/10/2021 5:30:00 PM 23.71 74.67799 0.084 8.1 16.97 8.2
8/10/2021 5:45:00 PM 23.72 74.696 0.084 7.98 15.27 8.13
8/10/2021 6:00:00 PM 23.72 74.696 0.084 7.88 15.17 8.02
8/10/2021 6:15:00 PM 23.7 74.66 0.085 7.8 15 7.9
8/10/2021 6:30:00 PM 23.69 74.642 0.085 7.73 15.96 7.78
8/10/2021 6:45:00 PM 23.68 74.624 0.085 7.65 16.54 7.73
8/10/2021 7:00:00 PM 23.65 74.57 0.085 7.65 17.25 7.72
8/10/2021 7:15:00 PM 23.62 74.516 0.085 7.58 14.04 7.63
8/10/2021 7:30:00 PM 23.57 74.426 0.086 7.58 13.54 7.62
8/10/2021 7:45:00 PM 23.53 74.354 0.086 7.54 13.38 7.53
8/10/2021 8:00:00 PM 23.48 74.264 0.087 7.47 13.02 7.4
8/10/2021 8:15:00 PM 23.43 74.174 0.088 7.44 13.86 7.3
8/10/2021 8:30:00 PM 23.38 74.084 0.088 7.42 14.23 7.3
8/10/2021 8:45:00 PM 23.33 73.994 0.089 7.4 13.08 7.08
8/10/2021 9:00:00 PM 23.28 73.904 0.089 7.38 12.01 7.26
8/10/2021 9:15:00 PM 23.23 73.814 0.089 7.35 11.97 7.2
8/10/2021 9:30:00 PM 23.16 73.688 0.089 7.36 12.61 7.17
8/10/2021 9:45:00 PM 23.09 73.562 0.089 7.34 12.92 7.18
8/10/2021 10:00:00 PM 23.02 73.436 0.089 7.34 12.38 7.23
8/10/2021 10:15:00 PM 22.95 73.31 0.089 7.34 13.08 7.23
8/10/2021 10:30:00 PM 22.89 73.202 0.089 7.34 12.73 7.27
8/10/2021 10:45:00 PM 22.82 73.076 0.089 7.33 13.16 7.26
8/10/2021 11:00:00 PM 22.75 72.95 0.09 7.34 13.63 7.26
8/10/2021 11:15:00 PM 22.68 72.824 0.09 7.34 13.22 7.31
8/10/2021 11:30:00 PM 22.61 72.698 0.09 7.32 12.92 7.28
8/10/2021 11:45:00 PM 22.55 72.59 0.09 7.34 13.59 7.27
8/11/2021 12:00:00 AM 22.48 72.464 0.09 7.33 13.33 7.31
8/11/2021 12:15:00 AM 22.41 72.338 0.091 7.34 12.95 7.36
8/11/2021 12:30:00 AM 22.34 72.212 0.091 7.34 13.02 7.34
8/11/2021 12:45:00 AM 22.28 72.104 0.091 7.35 13.03 7.37
8/11/2021 1:00:00 AM 22.21 71.978 0.091 7.32 13.04 7.41
8/11/2021 1:15:00 AM 22.15 71.87 0.091 7.34 13.6 7.39
8/11/2021 1:30:00 AM 22.08 71.744 0.091 7.35 12.86 7.42
8/11/2021 1:45:00 AM 22.01 71.618 0.092 7.34 12.87 7.44
8/11/2021 2:00:00 AM 21.95 71.51 0.092 7.35 12.73 7.44
8/11/2021 2:15:00 AM 21.89 71.402 0.092 7.34 13.22 7.42
8/11/2021 2:30:00 AM 21.82 71.276 0.092 7.35 13.22 7.5
8/11/2021 2:45:00 AM 21.76 71.168 0.092 7.34 13.4 7.45
8/11/2021 3:00:00 AM 21.7 71.06 0.092 7.34 13.05 7.47
8/11/2021 3:15:00 AM 21.64 70.952 0.092 7.32 13.05 7.5
8/11/2021 3:30:00 AM 21.59 70.862 0.092 7.33 13.02 7.52
8/11/2021 3:45:00 AM 21.53 70.754 0.092 7.33 13.08 7.45
8/11/2021 4:00:00 AM 21.47 70.646 0.092 7.34 13.18 7.55
8/11/2021 4:15:00 AM 21.43 70.574 0.092 7.34 13.41 7.55
8/11/2021 4:30:00 AM 21.39 70.502 0.092 7.33 13.12 7.58
8/11/2021 4:45:00 AM 21.34 70.412 0.092 7.33 13.35 7.51
8/11/2021 5:00:00 AM 21.3 70.34 0.092 7.33 13.62 7.59
8/11/2021 5:15:00 AM 21.26 70.268 0.093 7.33 13.04 7.57
8/11/2021 5:30:00 AM 21.22 70.196 0.093 7.32 13.4 7.59
8/11/2021 5:45:00 AM 21.18 70.124 0.093 7.33 17.16 7.57
8/11/2021 6:00:00 AM 21.15 70.07 0.093 7.33 14.39 7.58
8/11/2021 6:15:00 AM 21.12 70.016 0.093 7.32 15.01 7.59
8/11/2021 6:30:00 AM 21.09 69.962 0.093 7.32 14.92 7.62
8/11/2021 6:45:00 AM 21.06 69.908 0.093 7.32 15.65 7.65
8/11/2021 7:00:00 AM 21.04 69.872 0.093 7.33 20.32 7.61
8/11/2021 7:15:00 AM 21.02 69.836 0.093 7.32 14.93 7.74
8/11/2021 7:30:00 AM 21 69.8 0.093 7.33 14.88 7.74
8/11/2021 7:45:00 AM 20.99 69.782 0.093 7.35 14.96 7.78
8/11/2021 8:00:00 AM 20.97 69.746 0.093 7.35 15.09 7.82
8/11/2021 8:15:00 AM 20.97 69.746 0.092 7.35 14.55 7.87
8/11/2021 8:30:00 AM 20.96 69.728 0.093 7.37 15.27 7.92
8/11/2021 8:45:00 AM 20.96 69.728 0.093 7.36 14.97 7.91
8/11/2021 9:00:00 AM 20.96 69.728 0.093 7.38 15.06 7.97
8/11/2021 9:15:00 AM 20.99 69.782 0.092 7.39 15.11 8.08
8/11/2021 9:30:00 AM 21.05 69.89 0.092 7.44 14.4 8.29
8/11/2021 9:45:00 AM 21.12 70.016 0.092 7.47 15.13 8.41
8/11/2021 10:00:00 AM 21.16 70.088 0.092 7.49 14.66 8.42
8/11/2021 10:15:00 AM 21.19 70.142 0.092 7.5 15.26 8.42
8/11/2021 10:30:00 AM 21.22 70.196 0.092 7.51 15.07 8.4
8/11/2021 10:45:00 AM 21.28 70.304 0.092 7.55 14.78 8.47
8/11/2021 11:00:00 AM 21.33 70.394 0.092 7.56 14.71 8.52
8/11/2021 11:15:00 AM 21.39 70.502 0.093 7.6 14.77 8.55
8/11/2021 11:30:00 AM 21.42 70.556 0.093 7.61 14.52 8.57
8/11/2021 11:45:00 AM 21.45 70.61 0.093 7.61 15.01 8.51
8/11/2021 12:00:00 PM 21.47 70.646 0.093 7.6 14.49 8.48
8/11/2021 12:15:00 PM 21.64 70.952 0.093 7.62 14.68 8.53
8/11/2021 12:30:00 PM 21.89 71.402 0.092 7.7 15.25 8.7
8/11/2021 12:45:00 PM 22.09 71.762 0.092 7.81 15.13 8.84
8/11/2021 1:00:00 PM 22.29 72.122 0.091 7.87 14.8 8.84
8/11/2021 1:15:00 PM 22.55 72.59 0.091 7.97 15.3 8.92
8/11/2021 1:30:00 PM 22.88 73.184 0.091 8.02 15.29 8.86
8/11/2021 1:45:00 PM 23.32 73.976 0.091 8.12 14.92 8.88
8/11/2021 2:00:00 PM 23.77 74.786 0.09 8.21 15.12 8.86
8/11/2021 2:15:00 PM 24.04 75.272 0.09 8.25 16.75 8.8
8/11/2021 2:30:00 PM 24.35 75.83 0.09 8.29 14.83 8.7
8/11/2021 2:45:00 PM 24.65 76.37 0.09 8.43 14.89 8.77
8/11/2021 3:00:00 PM 24.96 76.92799 0.089 8.5 14.84 8.69
8/11/2021 3:15:00 PM 25.12 77.216 0.089 8.52 14.7 8.57
8/11/2021 3:30:00 PM 25.24 77.432 0.088 8.5 14.68 8.46
8/11/2021 3:45:00 PM 25.28 77.504 0.088 8.48 14.78 8.33
8/11/2021 4:00:00 PM 25.32 77.576 0.088 8.48 14.62 8.29
8/11/2021 4:15:00 PM 25.33 77.594 0.088 8.49 14.55 8.22
8/11/2021 4:30:00 PM 25.37 77.666 0.088 8.5 14.39 8.14
8/11/2021 4:45:00 PM 25.41 77.738 0.088 8.47 14.42 8.01
8/11/2021 5:00:00 PM 25.47 77.846 0.088 8.48 14.31 8.04
8/11/2021 5:15:00 PM 25.51 77.918 0.088 8.46 14.58 8
8/11/2021 5:30:00 PM 25.55 77.99 0.088 8.4 15.45 7.92
8/11/2021 5:45:00 PM 25.56 78.008 0.088 8.28 14.92 7.78
8/11/2021 6:00:00 PM 25.55 77.99 0.088 8.22 15.77 7.73
8/11/2021 6:15:00 PM 25.49 77.882 0.089 8.06 16.67 7.59
8/11/2021 6:30:00 PM 25.42 77.756 0.089 7.93 15.27 7.5
8/11/2021 6:45:00 PM 25.31 77.558 0.09 7.84 15.24 7.45
8/11/2021 7:00:00 PM 25.18 77.324 0.09 7.73 15.51 7.32
8/11/2021 7:15:00 PM 25.04 77.07201 0.091 7.65 15.38 7.23
8/11/2021 7:30:00 PM 24.89 76.802 0.092 7.58 15.49 7.17
8/11/2021 7:45:00 PM 24.75 76.55 0.092 7.54 15.85 7.15
8/11/2021 8:00:00 PM 24.61 76.298 0.092 7.5 15 7.09
8/11/2021 8:15:00 PM 24.48 76.064 0.092 7.47 15.07 7.06
8/11/2021 8:30:00 PM 24.35 75.83 0.092 7.42 17.48 7.02
8/11/2021 8:45:00 PM 24.24 75.632 0.092 7.42 15.82 7
8/11/2021 9:00:00 PM 24.14 75.452 0.093 7.39 15.69 7.01
8/11/2021 9:15:00 PM 24.05 75.29 0.093 7.38 15.83 7.03
8/11/2021 9:30:00 PM 23.95 75.11 0.093 7.38 15.47 7.01
8/11/2021 9:45:00 PM 23.86 74.948 0.094 7.37 16.02 7.05
8/11/2021 10:00:00 PM 23.75 74.75 0.094 7.35 16.29 7.02
8/11/2021 10:15:00 PM 23.65 74.57 0.094 7.35 16.28 7.03
8/11/2021 10:30:00 PM 23.54 74.372 0.095 7.37 16.45 7.07
8/11/2021 10:45:00 PM 23.45 74.21 0.095 7.36 16.32 7.06
8/11/2021 11:00:00 PM 23.36 74.048 0.095 7.35 15.9 7.07
8/11/2021 11:15:00 PM 23.27 73.886 0.096 7.35 15.61 7.11
8/11/2021 11:30:00 PM 23.18 73.724 0.096 7.36 16.01 7.12
8/11/2021 11:45:00 PM 23.1 73.58 0.096 7.35 15.68 7.17
8/12/2021 12:00:00 AM 23.02 73.436 0.096 7.34 16.18 7.14
8/12/2021 12:15:00 AM 22.94 73.292 0.097 7.33 16.22 7.16
8/12/2021 12:30:00 AM 22.85 73.13 0.097 7.35 16.18 7.23
8/12/2021 12:45:00 AM 22.76 72.968 0.097 7.35 16.07 7.21
8/12/2021 1:00:00 AM 22.66 72.788 0.097 7.34 16.26 7.28
8/12/2021 1:15:00 AM 22.56 72.608 0.097 7.36 16.53 7.34
8/12/2021 1:30:00 AM 22.45 72.41 0.097 7.37 16.52 7.36
8/12/2021 1:45:00 AM 22.35 72.23 0.098 7.35 16.53 7.36
8/12/2021 2:00:00 AM 22.25 72.05 0.098 7.35 16.56 7.39
8/12/2021 2:15:00 AM 22.16 71.888 0.098 7.35 16.59 7.39
8/12/2021 2:30:00 AM 22.06 71.708 0.099 7.35 16.32 7.42
8/12/2021 2:45:00 AM 21.99 71.582 0.099 7.35 16.37 7.43
8/12/2021 3:00:00 AM 21.91 71.438 0.099 7.36 16.6 7.46
8/12/2021 3:15:00 AM 21.84 71.312 0.099 7.34 16.4 7.49
8/12/2021 3:30:00 AM 21.77 71.186 0.098 7.34 17.05 7.46
8/12/2021 3:45:00 AM 21.7 71.06 0.098 7.35 16.94 7.47
8/12/2021 4:00:00 AM 21.62 70.916 0.098 7.33 16.8 7.5
8/12/2021 4:15:00 AM 21.55 70.79 0.098 7.34 16.98 7.49
8/12/2021 4:30:00 AM 21.48 70.664 0.098 7.32 17.16 7.52
8/12/2021 4:45:00 AM 21.42 70.556 0.098 7.34 17.16 7.52
8/12/2021 5:00:00 AM 21.34 70.412 0.098 7.33 16.63 7.56
8/12/2021 5:15:00 AM 21.27 70.286 0.098 7.32 17.05 7.56
8/12/2021 5:30:00 AM 21.2 70.16 0.098 7.33 16.86 7.55
8/12/2021 5:45:00 AM 21.13 70.034 0.098 7.32 17.8 7.58
8/12/2021 6:00:00 AM 21.07 69.926 0.098 7.32 36.48 7.52
8/12/2021 6:15:00 AM 21 69.8 0.097 7.32 15.5 7.58
8/12/2021 6:30:00 AM 20.95 69.71 0.097 7.33 15.65 7.63
8/12/2021 6:45:00 AM 20.89 69.602 0.097 7.32 15.36 7.64
8/12/2021 7:00:00 AM 20.84 69.512 0.097 7.33 16.04 7.66
8/12/2021 7:15:00 AM 20.8 69.44 0.097 7.35 16.52 7.75
8/12/2021 7:30:00 AM 20.76 69.368 0.097 7.37 15.69 7.89
8/12/2021 7:45:00 AM 20.74 69.332 0.097 7.37 15.91 7.92
8/12/2021 8:00:00 AM 20.74 69.332 0.096 7.4 15.99 8.02
8/12/2021 8:15:00 AM 20.75 69.35 0.096 7.43 15.86 8.17
8/12/2021 8:30:00 AM 20.76 69.368 0.096 7.42 15.88 8.16
8/12/2021 8:45:00 AM 20.78 69.404 0.096 7.47 16.52 8.17
8/12/2021 9:00:00 AM 20.81 69.458 0.095 7.48 15.8 8.36
8/12/2021 9:15:00 AM 20.88 69.584 0.095 7.52 15.78 8.34
8/12/2021 9:30:00 AM 20.99 69.782 0.095 7.55 16 8.55
8/12/2021 9:45:00 AM 21.13 70.034 0.095 7.6 16.23 8.65
8/12/2021 10:00:00 AM 21.21 70.17799 0.095 7.63 16.56 8.68
8/12/2021 10:15:00 AM 21.28 70.304 0.094 7.62 16.49 8.63
8/12/2021 10:30:00 AM 21.42 70.556 0.094 7.66 17.97 8.6
8/12/2021 10:45:00 AM 21.51 70.718 0.094 7.7 17.4 8.7
8/12/2021 11:00:00 AM 21.61 70.898 0.094 7.74 17.89 8.72
8/12/2021 11:15:00 AM 21.67 71.006 0.093 7.71 18.89 8.64
8/12/2021 11:30:00 AM 21.83 71.294 0.093 7.74 16.82 8.72
8/12/2021 11:45:00 AM 21.97 71.546 0.093 7.82 16.01 8.73
8/12/2021 12:00:00 PM 22.19 71.942 0.093 7.91 18.74 8.81
8/12/2021 12:15:00 PM 22.27 72.086 0.093 7.96 17.76 8.75
8/12/2021 12:30:00 PM 22.27 72.086 0.09 7.8 18.91 8.45
8/12/2021 12:45:00 PM 22.32 72.176 0.089 7.76 19.39 8.46
8/12/2021 1:00:00 PM 22.65 72.77 0.089 7.78 19.32 8.58
8/12/2021 1:15:00 PM 23.02 73.436 0.091 7.86 31.27 8.61
8/12/2021 1:30:00 PM 23.46 74.228 0.091 7.94 26.66 8.64
8/12/2021 1:45:00 PM 23.81 74.858 0.092 8.11 21.71 8.73
8/12/2021 2:00:00 PM 24.12 75.416 0.094 8.28 19.9 8.75
8/12/2021 2:15:00 PM 24.49 76.082 0.094 8.41 18.33 8.77
8/12/2021 2:30:00 PM 24.86 76.748 0.094 8.35 17.41 8.62
8/12/2021 2:45:00 PM 25.18 77.324 0.093 8.42 16.79 8.55
8/12/2021 3:00:00 PM 25.39 77.702 0.092 8.4 17.14 8.47
8/12/2021 3:15:00 PM 25.59 78.062 0.092 8.39 16.41 8.36
8/12/2021 3:30:00 PM 25.7 78.26 0.092 8.44 17.25 8.36
8/12/2021 3:45:00 PM 25.73 78.314 0.091 8.39 16.86 8.26
8/12/2021 4:00:00 PM 25.74 78.332 0.091 8.32 17.02 8.12
8/12/2021 4:15:00 PM 25.72 78.296 0.091 8.18 18.1 7.91
8/12/2021 4:30:00 PM 25.72 78.296 0.09 8.13 17.54 7.88
8/12/2021 4:45:00 PM 25.74 78.332 0.09 8.13 18.78 7.92
8/12/2021 5:00:00 PM 25.77 78.386 0.09 8.05 18.04 7.84
8/12/2021 5:15:00 PM 25.8 78.44 0.089 8.09 18.1 7.87
8/12/2021 5:30:00 PM 25.83 78.494 0.089 8.04 18.9 7.81
8/12/2021 5:45:00 PM 25.83 78.494 0.089 7.96 18.68 7.71
8/12/2021 6:00:00 PM 25.78 78.404 0.089 7.84 19.28 7.52
8/12/2021 6:15:00 PM 25.71 78.278 0.089 7.74 18.4 7.38
8/12/2021 6:30:00 PM 25.6 78.08 0.089 7.66 18.34 7.28
8/12/2021 6:45:00 PM 25.49 77.882 0.09 7.59 18.33 7.19
8/12/2021 7:00:00 PM 25.37 77.666 0.09 7.52 17.47 7.03
8/12/2021 7:15:00 PM 25.27 77.486 0.09 7.48 17.89 6.96
8/12/2021 7:30:00 PM 25.17 77.306 0.09 7.45 17.09 6.85
8/12/2021 7:45:00 PM 25.07 77.126 0.091 7.42 17.33 6.88
8/12/2021 8:00:00 PM 24.97 76.946 0.092 7.39 16.54 6.85
8/12/2021 8:15:00 PM 24.89 76.802 0.092 7.38 18.16 6.88
8/12/2021 8:30:00 PM 24.8 76.64 0.092 7.37 17.81 6.88
8/12/2021 8:45:00 PM 24.7 76.46 0.093 7.37 18.1 6.95
8/12/2021 9:00:00 PM 24.6 76.28 0.093 7.36 17.88 6.91
8/12/2021 9:15:00 PM 24.47 76.046 0.093 7.36 18.72 6.93
8/12/2021 9:30:00 PM 24.34 75.812 0.093 7.36 18.57 6.96
8/12/2021 9:45:00 PM 24.22 75.596 0.094 7.35 18.88 6.99
8/12/2021 10:00:00 PM 24.1 75.38 0.094 7.35 18.79 6.96
8/12/2021 10:15:00 PM 23.98 75.164 0.095 7.34 18.82 7.04
8/12/2021 10:30:00 PM 23.87 74.966 0.095 7.34 18.68 7.03
8/12/2021 10:45:00 PM 23.76 74.768 0.096 7.33 18.78 7
8/12/2021 11:00:00 PM 23.65 74.57 0.096 7.35 18.55 7.09
8/12/2021 11:15:00 PM 23.53 74.354 0.096 7.35 18.34 7.07
8/12/2021 11:30:00 PM 23.42 74.156 0.096 7.36 18.41 7.13
8/12/2021 11:45:00 PM 23.31 73.958 0.096 7.35 17.28 7.16
8/13/2021 12:00:00 AM 23.2 73.76 0.097 7.34 16.38 7.24
8/13/2021 12:15:00 AM 23.1 73.58 0.097 7.36 16.73 7.28
8/13/2021 12:30:00 AM 22.99 73.382 0.097 7.36 16.34 7.37
8/13/2021 12:45:00 AM 22.9 73.22 0.096 7.37 16.59 7.35
8/13/2021 1:00:00 AM 22.8 73.04 0.096 7.38 16.38 7.41
8/13/2021 1:15:00 AM 22.71 72.878 0.096 7.38 16.51 7.41
8/13/2021 1:30:00 AM 22.6 72.68 0.096 7.38 16.29 7.47
8/13/2021 1:45:00 AM 22.51 72.518 0.096 7.37 16.7 7.45
8/13/2021 2:00:00 AM 22.41 72.338 0.096 7.37 16.44 7.5
8/13/2021 2:15:00 AM 22.32 72.176 0.096 7.38 16.14 7.51
8/13/2021 2:30:00 AM 22.23 72.014 0.096 7.38 16.17 7.55
8/13/2021 2:45:00 AM 22.16 71.888 0.096 7.38 16.24 7.56
8/13/2021 3:00:00 AM 22.09 71.762 0.096 7.37 19.34 7.57
8/13/2021 3:15:00 AM 22.02 71.636 0.095 7.37 16.55 7.57
8/13/2021 3:30:00 AM 21.95 71.51 0.095 7.37 15.85 7.61
8/13/2021 3:45:00 AM 21.89 71.402 0.095 7.38 16.24 7.62
8/13/2021 4:00:00 AM 21.82 71.276 0.095 7.36 16.15 7.63
8/13/2021 4:15:00 AM 21.76 71.168 0.095 7.38 15.9 7.62
8/13/2021 4:30:00 AM 21.69 71.042 0.095 7.35 16.22 7.62
8/13/2021 4:45:00 AM 21.61 70.898 0.095 7.38 15.89 7.65
8/13/2021 5:00:00 AM 21.54 70.772 0.095 7.38 16.2 7.69
8/13/2021 5:15:00 AM 21.48 70.664 0.095 7.36 15.56 7.71
8/13/2021 5:30:00 AM 21.42 70.556 0.095 7.38 17.76 7.71
8/13/2021 5:45:00 AM 21.37 70.466 0.095 7.36 19.18 7.71
8/13/2021 6:00:00 AM 21.32 70.376 0.095 7.37 16.86 7.72
8/13/2021 6:15:00 AM 21.26 70.268 0.095 7.37 16.75 7.74
8/13/2021 6:30:00 AM 21.21 70.17799 0.095 7.37 17.33 7.76
8/13/2021 6:45:00 AM 21.16 70.088 0.095 7.37 16.79 7.78
8/13/2021 7:00:00 AM 21.11 69.998 0.094 7.37 15.75 7.81
8/13/2021 7:15:00 AM 21.06 69.908 0.094 7.4 15.8 7.94
8/13/2021 7:30:00 AM 21.03 69.854 0.094 7.38 15.13 7.95
8/13/2021 7:45:00 AM 21.01 69.818 0.094 7.42 15.54 8.06
8/13/2021 8:00:00 AM 21 69.8 0.094 7.44 15.55 8.15
8/13/2021 8:15:00 AM 21 69.8 0.094 7.46 15.13 8.24
8/13/2021 8:30:00 AM 21.01 69.818 0.093 7.49 15.01 8.33
8/13/2021 8:45:00 AM 21 69.8 0.093 7.5 14.91 8.35
8/13/2021 9:00:00 AM 21.04 69.872 0.093 7.55 14.79 8.45
8/13/2021 9:15:00 AM 21.09 69.962 0.093 7.57 16.7 8.55
8/13/2021 9:30:00 AM 21.15 70.07 0.092 7.59 15.38 8.6
8/13/2021 9:45:00 AM 21.21 70.17799 0.092 7.63 15.47 8.64
8/13/2021 10:00:00 AM 21.29 70.32201 0.092 7.65 15.42 8.66
8/13/2021 10:15:00 AM 21.41 70.538 0.091 7.67 15.47 8.64
8/13/2021 10:30:00 AM 21.55 70.79 0.091 7.7 15.28 8.67
8/13/2021 10:45:00 AM 21.7 71.06 0.091 7.72 15.03 8.7
8/13/2021 11:00:00 AM 21.88 71.384 0.09 7.76 15.82 8.75
8/13/2021 11:15:00 AM 22.02 71.636 0.09 7.82 16.36 8.81
8/13/2021 11:30:00 AM 22.16 71.888 0.09 7.91 18.94 8.9
8/13/2021 11:45:00 AM 22.29 72.122 0.09 7.96 16.06 8.88
8/13/2021 12:00:00 PM 22.44 72.392 0.09 8 15.8 8.89
8/13/2021 12:15:00 PM 22.55 72.59 0.09 8.04 16.09 8.86
8/13/2021 12:30:00 PM 22.59 72.662 0.09 8 16.03 8.72
8/13/2021 12:45:00 PM 22.65 72.77 0.09 7.89 14.87 8.51
8/13/2021 1:00:00 PM 22.76 72.968 0.09 7.89 15.18 8.5
8/13/2021 1:15:00 PM 23 73.4 0.09 7.93 15.18 8.59
8/13/2021 1:30:00 PM 23.2 73.76 0.09 8.01 15.86 8.66
8/13/2021 1:45:00 PM 23.55 74.39 0.09 8.14 14.31 8.66
8/13/2021 2:00:00 PM 23.77 74.786 0.09 8.17 14.29 8.67
8/13/2021 2:15:00 PM 23.87 74.966 0.091 8.14 14.9 8.48
8/13/2021 2:30:00 PM 24.06 75.308 0.091 8.14 14.54 8.49
8/13/2021 2:45:00 PM 24.27 75.686 0.09 8.22 14.52 8.5
8/13/2021 3:00:00 PM 24.33 75.794 0.09 8.12 12.32 8.28
8/13/2021 3:15:00 PM 24.47 76.046 0.09 8.1 16.12 8.26
8/13/2021 3:30:00 PM 24.55 76.19 0.089 8.19 15.74 8.38
8/13/2021 3:45:00 PM 24.66 76.388 0.089 8.19 15.4 8.32
8/13/2021 4:00:00 PM 24.69 76.442 0.089 8.2 15.44 8.31
8/13/2021 4:15:00 PM 24.76 76.568 0.089 8.21 18.71 8.3
8/13/2021 4:30:00 PM 24.86 76.748 0.089 8.24 15.3 8.27
8/13/2021 4:45:00 PM 24.93 76.874 0.088 8.26 15.91 8.25
8/13/2021 5:00:00 PM 24.97 76.946 0.088 8.29 16.36 8.27
8/13/2021 5:15:00 PM 24.97 76.946 0.088 8.26 15.8 8.2
8/13/2021 5:30:00 PM 24.99 76.982 0.089 8.14 16.93 8.03
8/13/2021 5:45:00 PM 25 77 0.089 8.01 16.29 7.91
8/13/2021 6:00:00 PM 25 77 0.089 7.93 15.5 7.81
8/13/2021 6:15:00 PM 24.96 76.92799 0.089 7.83 15.24 7.71
8/13/2021 6:30:00 PM 24.89 76.802 0.089 7.76 15.48 7.58
8/13/2021 6:45:00 PM 24.82 76.676 0.089 7.68 16.32 7.56
8/13/2021 7:00:00 PM 24.77 76.586 0.089 7.64 16.67 7.49
8/13/2021 7:15:00 PM 24.71 76.478 0.089 7.61 15.76 7.48
8/13/2021 7:30:00 PM 24.65 76.37 0.089 7.56 15.9 7.42
8/13/2021 7:45:00 PM 24.59 76.262 0.089 7.53 17.5 7.37
8/13/2021 8:00:00 PM 24.52 76.136 0.089 7.52 16.47 7.34
8/13/2021 8:15:00 PM 24.46 76.028 0.089 7.47 17.6 7.32
8/13/2021 8:30:00 PM 24.41 75.938 0.089 7.47 17.09 7.27
8/13/2021 8:45:00 PM 24.36 75.848 0.089 7.43 18.62 7.28
8/13/2021 9:00:00 PM 24.31 75.758 0.089 7.43 18.43 7.24
8/13/2021 9:15:00 PM 24.23 75.614 0.09 7.43 16.97 7.26
8/13/2021 9:30:00 PM 24.16 75.488 0.09 7.42 17.47 7.25
8/13/2021 9:45:00 PM 24.08 75.344 0.09 7.41 17.21 7.27
8/13/2021 10:00:00 PM 23.99 75.182 0.091 7.4 17.68 7.28
8/13/2021 10:15:00 PM 23.91 75.038 0.091 7.4 17.21 7.27
8/13/2021 10:30:00 PM 23.83 74.894 0.091 7.39 17.09 7.31
8/13/2021 10:45:00 PM 23.75 74.75 0.091 7.38 17.45 7.31
8/13/2021 11:00:00 PM 23.57 74.426 0.088 7.4 17.81 7.45
8/13/2021 11:15:00 PM 23.42 74.156 0.087 7.38 18.2 7.45
8/13/2021 11:30:00 PM 23.31 73.958 0.087 7.39 21.92 7.47
8/13/2021 11:45:00 PM 23.18 73.724 0.088 7.39 24.69 7.45
8/14/2021 12:00:00 AM 23.09 73.562 0.089 7.39 22.71 7.47
8/14/2021 12:15:00 AM 22.99 73.382 0.091 7.42 20.56 7.46
8/14/2021 12:30:00 AM 22.89 73.202 0.09 7.41 20.33 7.48
8/14/2021 12:45:00 AM 22.79 73.022 0.089 7.38 19.31 7.5
8/14/2021 1:00:00 AM 22.69 72.842 0.089 7.39 18.89 7.54
8/14/2021 1:15:00 AM 22.6 72.68 0.089 7.39 18.89 7.54
8/14/2021 1:30:00 AM 22.51 72.518 0.09 7.37 19.68 7.55
8/14/2021 1:45:00 AM 22.43 72.374 0.09 7.39 19.86 7.58
8/14/2021 2:00:00 AM 22.36 72.248 0.09 7.39 20.14 7.59
8/14/2021 2:15:00 AM 22.28 72.104 0.091 7.38 19.98 7.6
8/14/2021 2:30:00 AM 22.21 71.978 0.091 7.37 20.33 7.62
8/14/2021 2:45:00 AM 22.14 71.852 0.09 7.38 20.86 7.63
8/14/2021 3:00:00 AM 22.08 71.744 0.09 7.38 20.77 7.64
8/14/2021 3:15:00 AM 22.01 71.618 0.09 7.38 20.96 7.66
8/14/2021 3:30:00 AM 21.94 71.492 0.09 7.37 20.47 7.65
8/14/2021 3:45:00 AM 21.88 71.384 0.09 7.38 20.81 7.68
8/14/2021 4:00:00 AM 21.83 71.294 0.09 7.37 20.83 7.68
8/14/2021 4:15:00 AM 21.79 71.222 0.09 7.38 20.1 7.68
8/14/2021 4:30:00 AM 21.74 71.132 0.09 7.38 19.3 7.7
8/14/2021 4:45:00 AM 21.7 71.06 0.091 7.37 22.57 7.69
8/14/2021 5:00:00 AM 21.66 70.988 0.091 7.35 20.45 7.68
8/14/2021 5:15:00 AM 21.62 70.916 0.091 7.36 19.94 7.7
8/14/2021 5:30:00 AM 21.58 70.844 0.092 7.37 19.68 7.7
8/14/2021 5:45:00 AM 21.54 70.772 0.092 7.35 21 7.71
8/14/2021 6:00:00 AM 21.5 70.7 0.092 7.37 21.04 7.73
8/14/2021 6:15:00 AM 21.46 70.628 0.093 7.38 21.94 7.74
8/14/2021 6:30:00 AM 21.43 70.574 0.093 7.37 22.07 7.73
8/14/2021 6:45:00 AM 21.39 70.502 0.093 7.37 21.39 7.77
8/14/2021 7:00:00 AM 21.36 70.448 0.093 7.33 20.85 7.81
8/14/2021 7:15:00 AM 21.34 70.412 0.094 7.39 20.38 7.84
8/14/2021 7:30:00 AM 21.31 70.358 0.094 7.4 19.75 7.87
8/14/2021 7:45:00 AM 21.29 70.32201 0.094 7.4 19.26 7.93
8/14/2021 8:00:00 AM 21.27 70.286 0.094 7.4 18.42 7.94
8/14/2021 8:15:00 AM 21.25 70.25 0.093 7.42 18.62 7.98
8/14/2021 8:30:00 AM 21.23 70.214 0.093 7.42 18.13 7.98
8/14/2021 8:45:00 AM 21.22 70.196 0.093 7.42 18.21 8.06
8/14/2021 9:00:00 AM 21.21 70.17799 0.093 7.44 18.78 8.12
8/14/2021 9:15:00 AM 21.19 70.142 0.093 7.46 18.49 8.16
8/14/2021 9:30:00 AM 21.15 70.07 0.093 7.45 23.1 8.24
8/14/2021 9:45:00 AM 21.13 70.034 0.092 7.53 22.94 8.36
8/14/2021 10:00:00 AM 21.11 69.998 0.092 7.56 23.08 8.44
8/14/2021 10:15:00 AM 21.11 69.998 0.092 7.56 22.99 8.5
8/14/2021 10:30:00 AM 21.14 70.052 0.092 7.62 22.9 8.67
8/14/2021 10:45:00 AM 21.2 70.16 0.092 7.53 22.77 8.8
8/14/2021 11:00:00 AM 21.23 70.214 0.092 7.77 36.07 8.87
8/14/2021 11:15:00 AM 21.25 70.25 0.092 7.81 21.92 8.89
8/14/2021 11:30:00 AM 21.29 70.32201 0.092 7.85 21.84 8.9
8/14/2021 11:45:00 AM 21.38 70.484 0.092 7.92 21.97 8.98
8/14/2021 12:00:00 PM 21.6 70.88 0.092 8.01 21.77 9.08
8/14/2021 12:15:00 PM 21.74 71.132 0.092 8.07 21.23 9.12
8/14/2021 12:30:00 PM 21.97 71.546 0.092 8.14 21.79 9.05
8/14/2021 12:45:00 PM 22.25 72.05 0.091 8.18 21.44 9.04
8/14/2021 1:00:00 PM 22.45 72.41 0.091 8.19 21.69 8.98
8/14/2021 1:15:00 PM 22.83 73.094 0.09 8.28 23.07 9.01
8/14/2021 1:30:00 PM 23.19 73.742 0.09 8.34 22.31 9
8/14/2021 1:45:00 PM 23.47 74.246 0.09 8.43 22.19 8.97
8/14/2021 2:00:00 PM 23.84 74.912 0.09 8.5 22.47 8.96
8/14/2021 2:15:00 PM 24.19 75.542 0.09 8.53 22.39 8.88
8/14/2021 2:30:00 PM 24.37 75.866 0.089 8.56 22.41 8.8
8/14/2021 2:45:00 PM 24.54 76.172 0.089 8.57 22.52 8.75
8/14/2021 3:00:00 PM 24.65 76.37 0.089 8.56 22.81 8.64
8/14/2021 3:15:00 PM 24.81 76.658 0.089 8.57 23.82 8.59
8/14/2021 3:30:00 PM 24.93 76.874 0.089 8.54 22.49 8.47
8/14/2021 3:45:00 PM 25.02 77.036 0.089 8.52 23.12 8.36
8/14/2021 4:00:00 PM 25.05 77.09 0.089 8.45 22.36 8.24
8/14/2021 4:15:00 PM 25 77 0.089 8.34 22.52 8.12
8/14/2021 4:30:00 PM 24.99 76.982 0.089 8.27 22.6 8
8/14/2021 4:45:00 PM 24.96 76.92799 0.089 8.17 22.56 7.93
8/14/2021 5:00:00 PM 24.94 76.892 0.09 8.08 22.8 7.81
8/14/2021 5:15:00 PM 24.91 76.838 0.09 7.98 23 7.78
8/14/2021 5:30:00 PM 24.86 76.748 0.09 7.95 21.22 7.71
8/14/2021 5:45:00 PM 24.76 76.568 0.091 7.87 20.25 7.73
8/14/2021 6:00:00 PM 24.61 76.298 0.091 7.79 20.09 7.66
8/14/2021 6:15:00 PM 24.42 75.956 0.092 7.73 20.52 7.6
8/14/2021 6:30:00 PM 24.24 75.632 0.092 7.63 21.31 7.45
8/14/2021 6:45:00 PM 24.07 75.326 0.092 7.63 21.25 7.56
8/14/2021 7:00:00 PM 23.91 75.038 0.092 7.58 20.42 7.45
8/14/2021 7:15:00 PM 23.76 74.768 0.092 7.59 20.63 7.54
8/14/2021 7:30:00 PM 23.61 74.498 0.092 7.56 22.19 7.51
8/14/2021 7:45:00 PM 23.49 74.282 0.093 7.54 22.82 7.49
8/14/2021 8:00:00 PM 23.37 74.066 0.093 7.5 22.49 7.43
8/14/2021 8:15:00 PM 23.25 73.85 0.093 7.51 22.27 7.44
8/14/2021 8:30:00 PM 23.13 73.634 0.094 7.48 17.67 7.42
8/14/2021 8:45:00 PM 23 73.4 0.094 7.46 21.5 7.44
8/14/2021 9:00:00 PM 22.89 73.202 0.095 7.43 21.19 7.39
8/14/2021 9:15:00 PM 22.76 72.968 0.095 7.44 22.58 7.37
8/14/2021 9:30:00 PM 22.62 72.716 0.096 7.43 22.22 7.45
8/14/2021 9:45:00 PM 22.49 72.482 0.096 7.42 21.94 7.49
8/14/2021 10:00:00 PM 22.35 72.23 0.096 7.43 22.25 7.5
8/14/2021 10:15:00 PM 22.22 71.996 0.096 7.42 22.42 7.46
8/14/2021 10:30:00 PM 22.06 71.708 0.096 7.41 22.48 7.56
8/14/2021 10:45:00 PM 21.93 71.474 0.096 7.4 19.6 7.54
8/14/2021 11:00:00 PM 21.79 71.222 0.096 7.41 21.4 7.61
8/14/2021 11:15:00 PM 21.66 70.988 0.096 7.41 21.28 7.56
8/14/2021 11:30:00 PM 21.52 70.736 0.096 7.38 22.12 7.68
8/14/2021 11:45:00 PM 21.39 70.502 0.096 7.39 21.45 7.7
8/15/2021 12:00:00 AM 21.27 70.286 0.096 7.41 21.05 7.71
8/15/2021 12:15:00 AM 21.15 70.07 0.097 7.41 21.29 7.73
8/15/2021 12:30:00 AM 21.02 69.836 0.097 7.39 21.03 7.78
8/15/2021 12:45:00 AM 20.9 69.62 0.097 7.4 22.76 7.81
8/15/2021 1:00:00 AM 20.78 69.404 0.097 7.39 21.99 7.81
8/15/2021 1:15:00 AM 20.65 69.17 0.097 7.4 21.12 7.85
8/15/2021 1:30:00 AM 20.53 68.954 0.097 7.39 93.87 7.86
8/15/2021 1:45:00 AM 20.4 68.72 0.098 7.4 21.78 7.89
8/15/2021 2:00:00 AM 20.27 68.486 0.098 7.4 21.69 7.92
8/15/2021 2:15:00 AM 20.15 68.27 0.098 7.41 21.76 7.97
8/15/2021 2:30:00 AM 20.03 68.054 0.098 7.4 20.92 7.98
8/15/2021 2:45:00 AM 19.91 67.838 0.098 7.38 22.1 7.99
8/15/2021 3:00:00 AM 19.8 67.64 0.098 7.39 21.19 8.03
8/15/2021 3:15:00 AM 19.68 67.424 0.098 7.4 20.97 8.05
8/15/2021 3:30:00 AM 19.57 67.226 0.098 7.38 21.37 7.97
8/15/2021 3:45:00 AM 19.44 66.992 0.098 7.39 20.91 8.07
8/15/2021 4:00:00 AM 19.34 66.812 0.098 7.4 21.46 8.05
8/15/2021 4:15:00 AM 19.22 66.596 0.098 7.38 21.22 8.14
8/15/2021 4:30:00 AM 19.11 66.398 0.098 7.4 21.8 8.18
8/15/2021 4:45:00 AM 19.02 66.236 0.098 7.38 21.82 8.18
8/15/2021 5:00:00 AM 18.92 66.056 0.098 7.39 21.5 8.2
8/15/2021 5:15:00 AM 18.83 65.894 0.098 7.4 21.29 8.23
8/15/2021 5:30:00 AM 18.75 65.75 0.098 7.4 21.53 8.23
8/15/2021 5:45:00 AM 18.66 65.588 0.098 7.4 21.23 8.23
8/15/2021 6:00:00 AM 18.54 65.372 0.098 7.4 20.93 8.28
8/15/2021 6:15:00 AM 18.44 65.192 0.098 7.4 21.65 8.3
8/15/2021 6:30:00 AM 18.38 65.084 0.098 7.4 21.22 8.34
8/15/2021 6:45:00 AM 18.31 64.958 0.098 7.39 21.86 8.29
8/15/2021 7:00:00 AM 18.24 64.832 0.098 7.41 21.36 8.42
8/15/2021 7:15:00 AM 18.18 64.724 0.098 7.41 21.52 8.52
8/15/2021 7:30:00 AM 18.1 64.58 0.098 7.43 21.59 8.59
8/15/2021 7:45:00 AM 18.03 64.454 0.098 7.47 20.99 8.74
8/15/2021 8:00:00 AM 17.97 64.346 0.098 7.48 21.47 8.85
8/15/2021 8:15:00 AM 17.95 64.31 0.098 7.5 21.31 8.9
8/15/2021 8:30:00 AM 17.92 64.256 0.098 7.53 21.09 8.9
8/15/2021 8:45:00 AM 17.88 64.184 0.098 7.55 25.02 9.02
8/15/2021 9:00:00 AM 17.86 64.148 0.098 7.57 21.18 9.09
8/15/2021 9:15:00 AM 17.86 64.148 0.098 7.59 21.68 9.11
8/15/2021 9:30:00 AM 17.87 64.166 0.097 7.62 21.24 9.25
8/15/2021 9:45:00 AM 17.92 64.256 0.098 7.67 21.12 9.33
8/15/2021 10:00:00 AM 17.99 64.382 0.098 7.69 20.99 9.37
8/15/2021 10:15:00 AM 18.09 64.562 0.098 7.75 21.45 9.42
8/15/2021 10:30:00 AM 18.24 64.832 0.098 7.77 21.07 9.43
8/15/2021 10:45:00 AM 18.33 64.994 0.098 7.8 22.03 9.48
8/15/2021 11:00:00 AM 18.44 65.192 0.098 7.86 21.92 9.54
8/15/2021 11:15:00 AM 18.54 65.372 0.097 7.89 21.72 9.58
8/15/2021 11:30:00 AM 18.62 65.516 0.097 7.94 23.79 9.55
8/15/2021 11:45:00 AM 18.73 65.714 0.097 7.98 21.26 9.55
8/15/2021 12:00:00 PM 18.87 65.966 0.097 8.03 21.55 9.51
8/15/2021 12:15:00 PM 19.02 66.236 0.096 8.08 21.41 9.49
8/15/2021 12:30:00 PM 19.28 66.704 0.096 8.12 21.34 9.48
8/15/2021 12:45:00 PM 19.6 67.28 0.096 8.13 21.17 9.47
8/15/2021 1:00:00 PM 19.92 67.856 0.096 8.17 21.28 9.44
8/15/2021 1:15:00 PM 20.29 68.522 0.096 8.25 21.37 9.37
8/15/2021 1:30:00 PM 20.64 69.152 0.096 8.26 22.48 9.32
8/15/2021 1:45:00 PM 21.02 69.836 0.096 8.32 21.21 9.29
8/15/2021 2:00:00 PM 21.36 70.448 0.095 8.33 20.8 9.17
8/15/2021 2:15:00 PM 21.58 70.844 0.095 8.39 21.4 9.08
8/15/2021 2:30:00 PM 21.8 71.24 0.095 8.41 20.83 9.03
8/15/2021 2:45:00 PM 22.08 71.744 0.095 8.44 20.54 8.97
8/15/2021 3:00:00 PM 22.3 72.14 0.095 8.6 21.22 9.02
8/15/2021 3:15:00 PM 22.46 72.42799 0.095 8.54 20.47 8.83
8/15/2021 3:30:00 PM 22.58 72.644 0.095 8.57 20.05 8.86
8/15/2021 3:45:00 PM 22.66 72.788 0.095 8.63 19.25 8.81
8/15/2021 4:00:00 PM 22.72 72.896 0.095 8.61 19.71 8.62
8/15/2021 4:15:00 PM 22.76 72.968 0.095 8.63 19.16 8.65
8/15/2021 4:30:00 PM 22.8 73.04 0.095 8.62 19.31 8.52
8/15/2021 4:45:00 PM 22.83 73.094 0.095 8.58 19.84 8.52
8/15/2021 5:00:00 PM 22.86 73.148 0.095 8.57 22.03 8.35
8/15/2021 5:15:00 PM 22.87 73.166 0.095 8.44 19.62 8.15
8/15/2021 5:30:00 PM 22.88 73.184 0.095 8.46 19.48 8.23
8/15/2021 5:45:00 PM 22.87 73.166 0.095 8.38 21.02 8.15
8/15/2021 6:00:00 PM 22.83 73.094 0.096 8.28 19.74 8.1
8/15/2021 6:15:00 PM 22.77 72.986 0.097 8.15 19.85 8.03
8/15/2021 6:30:00 PM 22.67 72.806 0.098 7.99 20.51 7.9
8/15/2021 6:45:00 PM 22.58 72.644 0.097 7.94 21.02 7.94
8/15/2021 7:00:00 PM 22.48 72.464 0.097 7.85 19.67 7.89
8/15/2021 7:15:00 PM 22.38 72.284 0.097 7.81 21.98 7.84
8/15/2021 7:30:00 PM 22.27 72.086 0.097 7.74 21.52 7.7
8/15/2021 7:45:00 PM 22.15 71.87 0.097 7.67 25.69 7.69
8/15/2021 8:00:00 PM 22.04 71.672 0.097 7.63 20.58 7.66
8/15/2021 8:15:00 PM 21.93 71.474 0.098 7.57 20.95 7.59
8/15/2021 8:30:00 PM 21.81 71.258 0.098 7.55 20.13 7.61
8/15/2021 8:45:00 PM 21.7 71.06 0.098 7.52 28.37 7.58
8/15/2021 9:00:00 PM 21.59 70.862 0.099 7.48 20.57 7.56
8/15/2021 9:15:00 PM 21.48 70.664 0.099 7.48 20.51 7.52
8/15/2021 9:30:00 PM 21.38 70.484 0.099 7.47 20.38 7.52
8/15/2021 9:45:00 PM 21.28 70.304 0.099 7.45 21.5 7.6
8/15/2021 10:00:00 PM 21.2 70.16 0.099 7.45 20.42 7.6
8/15/2021 10:15:00 PM 21.1 69.98 0.1 7.42 21.27 7.55
8/15/2021 10:30:00 PM 21 69.8 0.1 7.43 21.83 7.58
8/15/2021 10:45:00 PM 20.91 69.638 0.1 7.43 22.16 7.6
8/15/2021 11:00:00 PM 20.81 69.458 0.101 7.42 21.83 7.63
8/15/2021 11:15:00 PM 20.72 69.296 0.101 7.39 22.16 7.64
8/15/2021 11:30:00 PM 20.63 69.134 0.101 7.41 22.35 7.64
8/15/2021 11:45:00 PM 20.53 68.954 0.102 7.4 22.84 7.67
8/16/2021 12:00:00 AM 20.45 68.81 0.102 7.39 22.13 7.67
8/16/2021 12:15:00 AM 20.36 68.648 0.102 7.41 22.41 7.71
8/16/2021 12:30:00 AM 20.27 68.486 0.103 7.4 22.23 7.73
8/16/2021 12:45:00 AM 20.19 68.342 0.103 7.41 22.48 7.77
8/16/2021 1:00:00 AM 20.1 68.18 0.104 7.4 22.69 7.81
8/16/2021 1:15:00 AM 20.02 68.036 0.104 7.39 22.9 7.82
8/16/2021 1:30:00 AM 19.93 67.874 0.104 7.41 22.94 7.86
8/16/2021 1:45:00 AM 19.85 67.73 0.105 7.4 26.72 7.83
8/16/2021 2:00:00 AM 19.77 67.586 0.105 7.4 23.69 7.86
8/16/2021 2:15:00 AM 19.7 67.46 0.105 7.4 22.43 7.89
8/16/2021 2:30:00 AM 19.63 67.334 0.105 7.4 22.45 7.91
8/16/2021 2:45:00 AM 19.56 67.208 0.105 7.39 22.56 7.9
8/16/2021 3:00:00 AM 19.49 67.082 0.105 7.39 22.51 7.94
8/16/2021 3:15:00 AM 19.42 66.956 0.105 7.41 22.46 7.96
8/16/2021 3:30:00 AM 19.35 66.83 0.105 7.41 22.2 7.98
8/16/2021 3:45:00 AM 19.27 66.686 0.105 7.38 22.19 7.93
8/16/2021 4:00:00 AM 19.2 66.56 0.105 7.39 22.25 8.03
8/16/2021 4:15:00 AM 19.14 66.452 0.105 7.39 23.43 8.03
8/16/2021 4:30:00 AM 19.09 66.362 0.105 7.4 23.77 8.05
8/16/2021 4:45:00 AM 19.02 66.236 0.105 7.4 22.36 8.05
8/16/2021 5:00:00 AM 18.97 66.146 0.105 7.4 21.63 8.07
8/16/2021 5:15:00 AM 18.92 66.056 0.105 7.41 21.69 8.08
8/16/2021 5:30:00 AM 18.87 65.966 0.105 7.4 20.55 8.1
8/16/2021 5:45:00 AM 18.82 65.876 0.105 7.41 20.71 8.1
8/16/2021 6:00:00 AM 18.77 65.786 0.105 7.4 20.78 8.11
8/16/2021 6:15:00 AM 18.73 65.714 0.105 7.4 20.99 8.14
8/16/2021 6:30:00 AM 18.67 65.606 0.106 7.4 20.65 8.12
8/16/2021 6:45:00 AM 18.63 65.534 0.105 7.37 21.02 8.07
8/16/2021 7:00:00 AM 18.59 65.462 0.105 7.4 20 8.15
8/16/2021 7:15:00 AM 18.56 65.408 0.105 7.41 20.95 8.23
8/16/2021 7:30:00 AM 18.53 65.354 0.105 7.42 20.77 8.27
8/16/2021 7:45:00 AM 18.52 65.336 0.105 7.42 22.44 8.4
8/16/2021 8:00:00 AM 18.51 65.318 0.105 7.46 21.06 8.53
8/16/2021 8:15:00 AM 18.52 65.336 0.105 7.47 20.95 8.62
8/16/2021 8:30:00 AM 18.54 65.372 0.105 7.49 20.8 8.72
8/16/2021 8:45:00 AM 18.57 65.426 0.105 7.54 20.86 8.87
8/16/2021 9:00:00 AM 18.61 65.498 0.105 7.56 20.77 8.92
8/16/2021 9:15:00 AM 18.67 65.606 0.105 7.61 21.35 9.05
8/16/2021 9:30:00 AM 18.73 65.714 0.105 7.67 21.36 9.18
8/16/2021 9:45:00 AM 18.82 65.876 0.104 7.69 21.18 9.23
8/16/2021 10:00:00 AM 18.91 66.038 0.104 7.75 20.37 9.28
8/16/2021 10:15:00 AM 19.01 66.218 0.104 7.81 22.57 9.31
8/16/2021 10:30:00 AM 19.11 66.398 0.103 7.89 21.83 9.34
8/16/2021 10:45:00 AM 19.17 66.506 0.103 7.93 21.91 9.38
8/16/2021 11:00:00 AM 19.23 66.614 0.102 7.92 21.92 9.35
8/16/2021 11:15:00 AM 19.29 66.722 0.102 7.91 21.69 9.3
8/16/2021 11:30:00 AM 19.37 66.866 0.102 7.96 21.9 9.3
8/16/2021 11:45:00 AM 19.47 67.046 0.101 7.99 21.64 9.34
8/16/2021 12:00:00 PM 19.54 67.172 0.101 8.05 21.67 9.31
8/16/2021 12:15:00 PM 19.6 67.28 0.101 8.01 22.29 9.21
8/16/2021 12:30:00 PM 19.71 67.478 0.101 8.02 23.25 9.21
8/16/2021 12:45:00 PM 19.86 67.748 0.101 8.09 22.9 9.29
8/16/2021 1:00:00 PM 19.97 67.946 0.101 8.16 23.76 9.26
8/16/2021 1:15:00 PM 20.13 68.234 0.1 8.25 23.26 9.32
8/16/2021 1:30:00 PM 20.24 68.432 0.1 8.27 23.52 9.31
8/16/2021 1:45:00 PM 20.3 68.54 0.1 8.28 23.3 9.26
8/16/2021 2:00:00 PM 20.36 68.648 0.101 8.3 23.85 9.18
8/16/2021 2:15:00 PM 20.41 68.738 0.1 8.31 22.32 9.08
8/16/2021 2:30:00 PM 20.42 68.756 0.1 8.28 22.93 9.02
8/16/2021 2:45:00 PM 20.45 68.81 0.1 8.23 22.27 8.93
8/16/2021 3:00:00 PM 20.47 68.846 0.1 8.22 22.52 8.94
8/16/2021 3:15:00 PM 20.52 68.936 0.1 8.24 22.91 8.98
8/16/2021 3:30:00 PM 20.54 68.972 0.1 8.21 26 8.95
8/16/2021 3:45:00 PM 20.56 69.008 0.1 8.18 26.16 8.9
8/16/2021 4:00:00 PM 20.58 69.044 0.1 8.1 26.45 8.82
8/16/2021 4:15:00 PM 20.59 69.062 0.1 8.07 25.94 8.79
8/16/2021 4:30:00 PM 20.6 69.08 0.1 8 26.36 8.71
8/16/2021 4:45:00 PM 20.61 69.098 0.1 7.97 25.64 8.7
8/16/2021 5:00:00 PM 20.62 69.116 0.1 7.9 25.99 8.59
8/16/2021 5:15:00 PM 20.62 69.116 0.1 7.81 25.5 8.51
8/16/2021 5:30:00 PM 20.63 69.134 0.1 7.85 25.21 8.53
8/16/2021 5:45:00 PM 20.64 69.152 0.101 7.84 23.35 8.59
8/16/2021 6:00:00 PM 20.64 69.152 0.101 7.79 23.43 8.5
8/16/2021 6:15:00 PM 20.62 69.116 0.102 7.75 23.27 8.4
8/16/2021 6:30:00 PM 20.6 69.08 0.102 7.68 23.5 8.29
8/16/2021 6:45:00 PM 20.57 69.026 0.103 7.64 23.49 8.22
8/16/2021 7:00:00 PM 20.55 68.99 0.103 7.61 23.5 8.14
8/16/2021 7:15:00 PM 20.53 68.954 0.103 7.56 23.82 8.03
8/16/2021 7:30:00 PM 20.5 68.9 0.103 7.52 23.65 7.96
8/16/2021 7:45:00 PM 20.48 68.864 0.103 7.52 24.26 7.95
8/16/2021 8:00:00 PM 20.45 68.81 0.103 7.49 24.14 7.9
8/16/2021 8:15:00 PM 20.42 68.756 0.103 7.46 23.72 7.86
8/16/2021 8:30:00 PM 20.4 68.72 0.103 7.45 23.69 7.8
8/16/2021 8:45:00 PM 20.37 68.666 0.103 7.45 24.7 7.83
8/16/2021 9:00:00 PM 20.34 68.612 0.103 7.41 24.15 7.75
8/16/2021 9:15:00 PM 20.32 68.576 0.103 7.43 23.41 7.79
8/16/2021 9:30:00 PM 20.29 68.522 0.104 7.42 23.63 7.75
8/16/2021 9:45:00 PM 20.27 68.486 0.104 7.4 23.53 7.76
8/16/2021 10:00:00 PM 20.24 68.432 0.104 7.4 24.16 7.81
8/16/2021 10:15:00 PM 20.22 68.396 0.104 7.41 24.68 7.78
8/16/2021 10:30:00 PM 20.19 68.342 0.104 7.39 24.56 7.82
8/16/2021 10:45:00 PM 20.16 68.288 0.104 7.39 24.63 7.82
8/16/2021 11:00:00 PM 20.14 68.252 0.105 7.4 24.97 7.83
8/16/2021 11:15:00 PM 20.11 68.198 0.105 7.4 24.47 7.76
8/16/2021 11:30:00 PM 20.09 68.162 0.105 7.37 24.5 7.8
8/16/2021 11:45:00 PM 20.06 68.108 0.105 7.37 24.37 7.84
8/17/2021 12:00:00 AM 20.04 68.07201 0.105 7.39 24.59 7.84
8/17/2021 12:15:00 AM 20.01 68.018 0.105 7.36 24.82 7.82
8/17/2021 12:30:00 AM 19.99 67.982 0.105 7.39 24.52 7.84
8/17/2021 12:45:00 AM 19.96 67.92799 0.106 7.37 24.16 7.84
8/17/2021 1:00:00 AM 19.94 67.892 0.106 7.37 25.09 7.83
8/17/2021 1:15:00 AM 19.92 67.856 0.106 7.38 24.32 7.87
8/17/2021 1:30:00 AM 19.9 67.82 0.106 7.35 24.14 7.86
8/17/2021 1:45:00 AM 19.88 67.784 0.107 7.37 24.38 7.89
8/17/2021 2:00:00 AM 19.86 67.748 0.107 7.38 23.96 7.88
8/17/2021 2:15:00 AM 19.84 67.712 0.107 7.37 24.17 7.87
8/17/2021 2:30:00 AM 19.82 67.676 0.107 7.35 23.94 7.89
8/17/2021 2:45:00 AM 19.8 67.64 0.107 7.37 23.85 7.86
8/17/2021 3:00:00 AM 19.79 67.622 0.107 7.36 24.27 7.87
8/17/2021 3:15:00 AM 19.77 67.586 0.107 7.37 24.18 7.89
8/17/2021 3:30:00 AM 19.75 67.55 0.107 7.36 24.14 7.91
8/17/2021 3:45:00 AM 19.74 67.532 0.107 7.35 28.25 7.95
8/17/2021 4:00:00 AM 19.72 67.496 0.107 7.36 27.92 7.95
8/17/2021 4:15:00 AM 19.7 67.46 0.107 7.36 27.48 7.92
8/17/2021 4:30:00 AM 19.68 67.424 0.107 7.36 26.74 7.99
8/17/2021 4:45:00 AM 19.67 67.406 0.107 7.35 29.8 7.93
8/17/2021 5:00:00 AM 19.65 67.37 0.107 7.35 27.21 7.96
8/17/2021 5:15:00 AM 19.64 67.352 0.106 7.36 27.3 8
8/17/2021 5:30:00 AM 19.63 67.334 0.106 7.35 27.88 7.98
8/17/2021 5:45:00 AM 19.61 67.298 0.106 7.35 27.39 7.99
8/17/2021 6:00:00 AM 19.6 67.28 0.106 7.34 27.65 8
8/17/2021 6:15:00 AM 19.59 67.262 0.105 7.34 28.42 8
8/17/2021 6:30:00 AM 19.57 67.226 0.105 7.34 27.1 7.99
8/17/2021 6:45:00 AM 19.56 67.208 0.105 7.31 26.98 7.99
8/17/2021 7:00:00 AM 19.55 67.19 0.105 7.32 27.31 8.03
8/17/2021 7:15:00 AM 19.54 67.172 0.105 7.33 27.09 7.99
8/17/2021 7:30:00 AM 19.54 67.172 0.105 7.32 23.51 8.06
8/17/2021 7:45:00 AM 19.55 67.19 0.105 7.35 26.34 8.22
8/17/2021 8:00:00 AM 19.55 67.19 0.105 7.38 26.63 8.29
8/17/2021 8:15:00 AM 19.56 67.208 0.105 7.39 26.18 8.39
8/17/2021 8:30:00 AM 19.58 67.244 0.104 7.4 26.34 8.49
8/17/2021 8:45:00 AM 19.61 67.298 0.104 7.42 26.11 8.6
8/17/2021 9:00:00 AM 19.66 67.388 0.104 7.47 26.29 8.69
8/17/2021 9:15:00 AM 19.74 67.532 0.104 7.52 26.18 8.89
8/17/2021 9:30:00 AM 19.8 67.64 0.104 7.52 26.33 8.88
8/17/2021 9:45:00 AM 19.86 67.748 0.103 7.59 26.33 8.88
8/17/2021 10:00:00 AM 19.92 67.856 0.103 7.6 26.47 8.91
8/17/2021 10:15:00 AM 19.98 67.964 0.103 7.69 26.1 9.06
8/17/2021 10:30:00 AM 20.04 68.07201 0.103 7.68 26.01 9.06
8/17/2021 10:45:00 AM 20.11 68.198 0.103 7.73 27.01 9.06
8/17/2021 11:00:00 AM 20.18 68.324 0.103 7.76 27.01 9.05
8/17/2021 11:15:00 AM 20.25 68.45 0.103 7.82 26.18 9.14
8/17/2021 11:30:00 AM 20.36 68.648 0.102 7.86 26.01 9.18
8/17/2021 11:45:00 AM 20.46 68.828 0.102 7.89 28.29 9.18
8/17/2021 12:00:00 PM 20.61 69.098 0.102 7.94 26.37 9.21
8/17/2021 12:15:00 PM 20.73 69.314 0.102 8.04 26.16 9.26
8/17/2021 12:30:00 PM 20.88 69.584 0.102 8.1 26.39 9.25
8/17/2021 12:45:00 PM 21 69.8 0.101 8.16 26.46 9.23
8/17/2021 1:00:00 PM 21.15 70.07 0.101 8.23 26.58 9.27
8/17/2021 1:15:00 PM 21.37 70.466 0.101 8.32 26.54 9.28
8/17/2021 1:30:00 PM 21.59 70.862 0.1 8.39 27.32 9.27
8/17/2021 1:45:00 PM 21.81 71.258 0.1 8.47 25.91 9.23
8/17/2021 2:00:00 PM 22.06 71.708 0.1 8.49 27.63 9.16
8/17/2021 2:15:00 PM 22.3 72.14 0.1 8.54 28.03 9.15
8/17/2021 2:30:00 PM 22.45 72.41 0.1 8.62 25.86 9.09
8/17/2021 2:45:00 PM 22.51 72.518 0.1 8.52 26.29 8.82
8/17/2021 3:00:00 PM 22.46 72.42799 0.095 8.29 26.86 8.51
8/17/2021 3:15:00 PM 22.37 72.266 0.089 7.89 28.73 8.24
8/17/2021 3:30:00 PM 22.35 72.23 0.088 7.8 36.49 8.2
8/17/2021 3:45:00 PM 22.38 72.284 0.085 7.69 72.12 7.98
8/17/2021 4:00:00 PM 22.37 72.266 0.086 7.59 69.59 7.94
8/17/2021 4:15:00 PM 22.36 72.248 0.092 7.68 53.38 7.99
8/17/2021 4:30:00 PM 22.37 72.266 0.097 7.69 42.37 7.97
8/17/2021 4:45:00 PM 22.38 72.284 0.095 7.66 38.42 7.98
8/17/2021 5:00:00 PM 22.28 72.104 0.091 7.59 68.75 7.92
8/17/2021 5:15:00 PM 22.1 71.78 0.085 7.47 70.73 7.89
8/17/2021 5:30:00 PM 21.89 71.402 0.079 7.47 79.11 8.01
8/17/2021 5:45:00 PM 21.68 71.024 0.079 7.45 77.95 8.07
8/17/2021 6:00:00 PM 21.52 70.736 0.078 7.42 81.07 8.11
8/17/2021 6:15:00 PM 21.44 70.592 0.078 7.41 90.97 8.11
8/17/2021 6:30:00 PM 21.41 70.538 0.077 7.39 193.15 8.04
8/17/2021 6:45:00 PM 21.36 70.448 0.077 7.35 185.37 8.02
8/17/2021 7:00:00 PM 21.3 70.34 0.077 7.35 259.02 8.05
8/17/2021 7:15:00 PM 21.22 70.196 0.078 7.33 231.18 8.06
8/17/2021 7:30:00 PM 21.16 70.088 0.078 7.35 185.17 8.07
8/17/2021 7:45:00 PM 21.11 69.998 0.079 7.36 116.14 8.05
8/17/2021 8:00:00 PM 21.08 69.944 0.079 7.36 89.23 8.08
8/17/2021 8:15:00 PM 21.05 69.89 0.077 7.34 74.85 7.98
8/17/2021 8:30:00 PM 21.04 69.872 0.073 7.28 62.1 7.99
8/17/2021 8:45:00 PM 21.03 69.854 0.079 7.33 60.84 8.04
8/17/2021 9:00:00 PM 21.03 69.854 0.079 7.29 50.92 8.02
8/17/2021 9:15:00 PM 21.02 69.836 0.081 7.3 47.83 7.99
8/17/2021 9:30:00 PM 21.02 69.836 0.082 7.3 48.81 7.97
8/17/2021 9:45:00 PM 21.02 69.836 0.082 7.26 49.66 7.94
8/17/2021 10:00:00 PM 21.01 69.818 0.082 7.3 41.25 7.91
8/17/2021 10:15:00 PM 20.99 69.782 0.083 7.27 38.35 7.96
8/17/2021 10:30:00 PM 20.97 69.746 0.083 7.28 40.53 8
8/17/2021 10:45:00 PM 20.95 69.71 0.084 7.31 42.05 7.98
8/17/2021 11:00:00 PM 20.93 69.674 0.084 7.3 42.36 8
8/17/2021 11:15:00 PM 20.92 69.656 0.084 7.31 39.25 8.01
8/17/2021 11:30:00 PM 20.9 69.62 0.084 7.33 37.83 8.03
8/17/2021 11:45:00 PM 20.87 69.566 0.085 7.27 50.06 8.02
8/18/2021 12:00:00 AM 20.85 69.53 0.085 7.32 48.84 8.05
8/18/2021 12:15:00 AM 20.82 69.476 0.085 7.35 46.66 8.05
8/18/2021 12:30:00 AM 20.78 69.404 0.086 7.33 45.46 8.09
8/18/2021 12:45:00 AM 20.74 69.332 0.086 7.33 52.25 8.11
8/18/2021 1:00:00 AM 20.68 69.224 0.085 7.3 50.57 8.12
8/18/2021 1:15:00 AM 20.6 69.08 0.084 7.28 52.49 8.14
8/18/2021 1:30:00 AM 20.52 68.936 0.084 7.28 53.92 8.16
8/18/2021 1:45:00 AM 20.44 68.792 0.084 7.29 55.3 8.18
8/18/2021 2:00:00 AM 20.38 68.684 0.083 7.28 52.84 8.19
8/18/2021 2:15:00 AM 20.32 68.576 0.084 7.29 64.45 8.21
8/18/2021 2:30:00 AM 20.26 68.468 0.085 7.3 74.43 8.25
8/18/2021 2:45:00 AM 20.2 68.36 0.085 7.3 61.4 8.27
8/18/2021 3:00:00 AM 20.13 68.234 0.084 7.3 76.72 8.26
8/18/2021 3:15:00 AM 20.07 68.126 0.084 7.3 64.17 8.32
8/18/2021 3:30:00 AM 20.01 68.018 0.084 7.31 60.98 8.34
8/18/2021 3:45:00 AM 19.97 67.946 0.084 7.32 55.19 8.35
8/18/2021 4:00:00 AM 19.93 67.874 0.084 7.3 57.14 8.36
8/18/2021 4:15:00 AM 19.9 67.82 0.083 7.3 64.02 8.37
8/18/2021 4:30:00 AM 19.88 67.784 0.083 7.31 50.74 8.38
8/18/2021 4:45:00 AM 19.86 67.748 0.082 7.3 49.02 8.39
8/18/2021 5:00:00 AM 19.84 67.712 0.082 7.29 47.94 8.41
8/18/2021 5:15:00 AM 19.81 67.658 0.081 7.3 58.65 8.4
8/18/2021 5:30:00 AM 19.78 67.604 0.081 7.29 50 8.41
8/18/2021 5:45:00 AM 19.75 67.55 0.08 7.29 46.77 8.41
8/18/2021 6:00:00 AM 19.71 67.478 0.08 7.28 47.98 8.42
8/18/2021 6:15:00 AM 19.68 67.424 0.08 7.26 47.47 8.42
8/18/2021 6:30:00 AM 19.64 67.352 0.08 7.28 45.39 8.42
8/18/2021 6:45:00 AM 19.59 67.262 0.08 7.24 45.84 8.44
8/18/2021 7:00:00 AM 19.55 67.19 0.08 7.27 44.35 8.45
8/18/2021 7:15:00 AM 19.51 67.118 0.08 7.24 53.36 8.46
8/18/2021 7:30:00 AM 19.46 67.028 0.08 7.26 45.46 8.49
8/18/2021 7:45:00 AM 19.41 66.938 0.08 7.26 44.64 8.52
8/18/2021 8:00:00 AM 19.37 66.866 0.08 7.27 42.85 8.55
8/18/2021 8:15:00 AM 19.34 66.812 0.08 7.26 44.98 8.57
8/18/2021 8:30:00 AM 19.3 66.74 0.08 7.26 51.99 8.6
8/18/2021 8:45:00 AM 19.27 66.686 0.08 7.28 43.33 8.59
8/18/2021 9:00:00 AM 19.25 66.65 0.08 7.26 41.97 8.63
8/18/2021 9:15:00 AM 19.23 66.614 0.08 7.29 42.52 8.69
8/18/2021 9:30:00 AM 19.22 66.596 0.08 7.29 37.79 8.73
8/18/2021 9:45:00 AM 19.21 66.578 0.079 7.32 43.09 8.75
8/18/2021 10:00:00 AM 19.2 66.56 0.079 7.3 40.37 8.81
8/18/2021 10:15:00 AM 19.18 66.524 0.079 7.34 41.77 8.75
8/18/2021 10:30:00 AM 19.17 66.506 0.078 7.34 45.69 8.73
8/18/2021 10:45:00 AM 19.14 66.452 0.078 7.32 46.45 8.75
8/18/2021 11:00:00 AM 19.13 66.434 0.078 7.34 44.62 8.75
8/18/2021 11:15:00 AM 19.13 66.434 0.078 7.34 43.96 8.76
8/18/2021 11:30:00 AM 19.12 66.416 0.077 7.36 46 8.77
8/18/2021 11:45:00 AM 19.11 66.398 0.077 7.33 48.79 8.78
8/18/2021 12:00:00 PM 19.1 66.38 0.077 7.34 45.85 8.77
8/18/2021 12:15:00 PM 19.07 66.326 0.077 7.36 48.22 8.76
8/18/2021 12:30:00 PM 19.05 66.29 0.077 7.37 34.93 8.76
8/18/2021 12:45:00 PM 19.01 66.218 0.077 7.33 41.42 8.73
8/18/2021 1:00:00 PM 18.97 66.146 0.077 7.35 42.85 8.73
8/18/2021 1:15:00 PM 18.93 66.074 0.077 7.33 40.85 8.74
8/18/2021 1:30:00 PM 18.91 66.038 0.076 7.29 49.31 8.74
8/18/2021 1:45:00 PM 18.9 66.02 0.076 7.3 50.97 8.73
8/18/2021 2:00:00 PM 18.88 65.984 0.075 7.3 53.82 8.74
8/18/2021 2:15:00 PM 18.86 65.948 0.075 7.28 55.38 8.73
8/18/2021 2:30:00 PM 18.83 65.894 0.074 7.28 63.19 8.72
8/18/2021 2:45:00 PM 18.79 65.82201 0.073 7.27 71.7 8.7
8/18/2021 3:00:00 PM 18.76 65.768 0.072 7.25 91.27 8.69
8/18/2021 3:15:00 PM 18.72 65.696 0.07 7.18 101.96 8.68
8/18/2021 3:30:00 PM 18.68 65.624 0.069 7.21 123.03 8.66
8/18/2021 3:45:00 PM 18.65 65.57 0.067 7.14 259.16 8.65
8/18/2021 4:00:00 PM 18.62 65.516 0.065 7.11 190.79 8.62
8/18/2021 4:15:00 PM 18.55 65.39 0.062 7.08 244.28 8.62
8/18/2021 4:30:00 PM 18.44 65.192 0.059 6.99 416.46 8.62
8/18/2021 4:45:00 PM 18.29 64.922 0.057 7 635.5 8.63
8/18/2021 5:00:00 PM 18.16 64.688 0.055 6.93 485.47 8.62
8/18/2021 5:15:00 PM 18.07 64.526 0.053 7 478.67 8.63
8/18/2021 5:30:00 PM 17.97 64.346 0.051 6.99 487.6 8.67
8/18/2021 5:45:00 PM 17.9 64.22 0.05 7.01 427.41 8.69
8/18/2021 6:00:00 PM 17.82 64.076 0.049 6.98 373.19 8.72
8/18/2021 6:15:00 PM 17.74 63.932 0.049 6.98 315.34 8.75
8/18/2021 6:30:00 PM 17.66 63.788 0.048 6.94 384.86 8.76
8/18/2021 6:45:00 PM 17.57 63.626 0.048 6.91 266.14 8.78
8/18/2021 7:00:00 PM 17.47 63.446 0.048 6.9 233.14 8.8
8/18/2021 7:15:00 PM 17.37 63.266 0.047 6.84 267.75 8.81
8/18/2021 7:30:00 PM 17.29 63.122 0.047 6.87 201.58 8.83
8/18/2021 7:45:00 PM 17.21 62.978 0.046 6.85 193.72 8.84
8/18/2021 8:00:00 PM 17.14 62.852 0.046 6.83 227.46 8.86
8/18/2021 8:15:00 PM 17.05 62.69 0.042 6.85 172.41 8.87
8/18/2021 8:30:00 PM 16.97 62.546 0.037 6.84 207.7 8.89
8/18/2021 8:45:00 PM 16.89 62.402 0.031 6.83 176.64 8.9
8/18/2021 9:00:00 PM 16.82 62.276 0.024 6.85 177.39 8.92
8/18/2021 9:15:00 PM 16.74 62.132 0.021 6.82 189.39 8.94
8/18/2021 9:30:00 PM 16.68 62.024 0.045 6.81 150.5 8.95
8/18/2021 9:45:00 PM 16.6 61.88 0.045 6.82 135.06 8.97
8/18/2021 10:00:00 PM 16.53 61.754 0.045 6.82 135.88 8.98
8/18/2021 10:15:00 PM 16.45 61.61 0.045 6.83 111.79 9.01
8/18/2021 10:30:00 PM 16.37 61.466 0.045 6.78 128.01 9.02
8/18/2021 10:45:00 PM 16.29 61.322 0.045 6.81 129.79 9.04
8/18/2021 11:00:00 PM 16.21 61.178 0.045 6.8 111.37 9.06
8/18/2021 11:15:00 PM 16.13 61.034 0.045 6.79 128.7 9.08
8/18/2021 11:30:00 PM 16.06 60.908 0.045 6.81 96.79 9.1
8/18/2021 11:45:00 PM 15.98 60.764 0.045 6.76 83.32 9.11
8/19/2021 12:00:00 AM 15.92 60.656 0.045 6.76 94.3 9.13
8/19/2021 12:15:00 AM 15.85 60.53 0.045 6.8 77.87 9.15
8/19/2021 12:30:00 AM 15.79 60.422 0.046 6.79 75.21 9.16
8/19/2021 12:45:00 AM 15.73 60.314 0.046 6.76 82.71 9.18
8/19/2021 1:00:00 AM 15.69 60.242 0.046 6.8 69.02 9.19
8/19/2021 1:15:00 AM 15.62 60.116 0.046 6.81 76.36 9.2
8/19/2021 1:30:00 AM 15.56 60.008 0.046 6.81 63.67 9.22
8/19/2021 1:45:00 AM 15.51 59.918 0.046 6.83 76.86 9.23
8/19/2021 2:00:00 AM 15.46 59.828 0.046 6.84 62.15 9.24
8/19/2021 2:15:00 AM 15.41 59.738 0.046 6.82 58.37 9.25
8/19/2021 2:30:00 AM 15.36 59.648 0.047 6.83 56.24 9.27
8/19/2021 2:45:00 AM 15.3 59.54 0.047 6.83 54.19 9.28
8/19/2021 3:00:00 AM 15.26 59.468 0.047 6.84 52.44 9.29
8/19/2021 3:15:00 AM 15.22 59.396 0.047 6.83 51.26 9.3
8/19/2021 3:30:00 AM 15.18 59.324 0.047 6.85 49.57 9.31
8/19/2021 3:45:00 AM 15.15 59.27 0.047 6.85 43.85 9.32
8/19/2021 4:00:00 AM 15.11 59.198 0.047 6.85 42.28 9.33
8/19/2021 4:15:00 AM 15.07 59.126 0.047 6.85 45.6 9.34
8/19/2021 4:30:00 AM 15.03 59.054 0.047 6.85 46.92 9.35
8/19/2021 4:45:00 AM 15 59 0.047 6.84 38.38 9.36
8/19/2021 5:00:00 AM 14.97 58.946 0.048 6.85 42.49 9.37
8/19/2021 5:15:00 AM 14.93 58.874 0.048 6.86 46.24 9.38
8/19/2021 5:30:00 AM 14.9 58.82 0.048 6.86 47.29 9.39
8/19/2021 5:45:00 AM 14.87 58.766 0.048 6.86 40.26 9.39
8/19/2021 6:00:00 AM 14.84 58.712 0.048 6.85 38.79 9.4
8/19/2021 6:15:00 AM 14.81 58.658 0.048 6.85 37.8 9.41
8/19/2021 6:30:00 AM 14.78 58.604 0.048 6.86 37.49 9.42
8/19/2021 6:45:00 AM 14.76 58.568 0.048 6.87 35.43 9.42
8/19/2021 7:00:00 AM 14.74 58.532 0.048 6.87 36.01 9.43
8/19/2021 7:15:00 AM 14.72 58.496 0.048 6.87 35.4 9.44
8/19/2021 7:30:00 AM 14.71 58.478 0.048 6.87 42.96 9.44
8/19/2021 7:45:00 AM 14.69 58.442 0.048 6.86 29.21 9.46
8/19/2021 8:00:00 AM 14.68 58.424 0.048 6.88 30.98 9.47
8/19/2021 8:15:00 AM 14.67 58.406 0.049 6.86 33.18 9.48
8/19/2021 8:30:00 AM 14.66 58.388 0.049 6.88 31.58 9.49
8/19/2021 8:45:00 AM 14.66 58.388 0.049 6.88 32.08 9.5
8/19/2021 9:00:00 AM 14.65 58.37 0.049 6.88 30.56 9.51
8/19/2021 9:15:00 AM 14.65 58.37 0.049 6.88 29.71 9.51
8/19/2021 9:30:00 AM 14.64 58.352 0.049 6.89 29.34 9.52
8/19/2021 9:45:00 AM 14.63 58.334 0.049 6.88 30.79 9.53
8/19/2021 10:00:00 AM 14.65 58.37 0.049 6.91 28.23 9.54
8/19/2021 10:15:00 AM 14.69 58.442 0.049 6.9 28.66 9.55
8/19/2021 10:30:00 AM 14.72 58.496 0.049 6.92 27.96 9.56
8/19/2021 10:45:00 AM 14.75 58.55 0.049 6.93 27.81 9.57
8/19/2021 11:00:00 AM 14.79 58.622 0.049 6.94 26.5 9.57
8/19/2021 11:15:00 AM 14.83 58.694 0.049 6.93 28.38 9.58
8/19/2021 11:30:00 AM 14.88 58.784 0.05 6.96 26.06 9.58
8/19/2021 11:45:00 AM 14.91 58.838 0.05 6.95 25.29 9.58
8/19/2021 12:00:00 PM 14.98 58.964 0.05 6.96 25.33 9.57
8/19/2021 12:15:00 PM 15.05 59.09 0.05 6.97 23.11 9.57
8/19/2021 12:30:00 PM 15.12 59.216 0.05 6.98 24.93 9.57
8/19/2021 12:45:00 PM 15.18 59.324 0.05 6.97 30.92 9.56
8/19/2021 1:00:00 PM 15.3 59.54 0.05 6.99 20.33 9.54
8/19/2021 1:15:00 PM 15.35 59.63 0.05 6.98 23.65 9.52
8/19/2021 1:30:00 PM 15.47 59.846 0.05 7 23.18 9.52
8/19/2021 1:45:00 PM 15.56 60.008 0.05 7.01 20.46 9.53
8/19/2021 2:00:00 PM 15.62 60.116 0.05 6.99 22.41 9.5
8/19/2021 2:15:00 PM 15.82 60.476 0.05 7.01 22.51 9.49
8/19/2021 2:30:00 PM 15.94 60.692 0.05 7.03 22 9.48
8/19/2021 2:45:00 PM 16.02 60.836 0.05 7.03 21.73 9.48
8/19/2021 3:00:00 PM 16.02 60.836 0.05 7.03 21.57 9.46
8/19/2021 3:15:00 PM 16.06 60.908 0.05 7.03 21.33 9.46
8/19/2021 3:30:00 PM 16.11 60.998 0.051 7.04 21.39 9.45
8/19/2021 3:45:00 PM 16.13 61.034 0.051 7.04 21.4 9.42
8/19/2021 4:00:00 PM 16.21 61.178 0.051 7.04 20.91 9.4
8/19/2021 4:15:00 PM 16.22 61.196 0.051 7.04 21.22 9.39
8/19/2021 4:30:00 PM 16.21 61.178 0.051 7.03 20.63 9.38
8/19/2021 4:45:00 PM 16.22 61.196 0.051 7.04 20.44 9.38
8/19/2021 5:00:00 PM 16.22 61.196 0.051 7.03 20.19 9.37
8/19/2021 5:15:00 PM 16.21 61.178 0.051 7.03 19.73 9.36
8/19/2021 5:30:00 PM 16.2 61.16 0.051 7.04 19.69 9.34
8/19/2021 5:45:00 PM 16.17 61.106 0.051 7.02 19.76 9.32
8/19/2021 6:00:00 PM 16.14 61.052 0.051 7.01 19.01 9.31
8/19/2021 6:15:00 PM 16.1 60.98 0.051 7.01 19.06 9.3
8/19/2021 6:30:00 PM 16.06 60.908 0.051 7.01 18.87 9.3
8/19/2021 6:45:00 PM 16.03 60.854 0.051 7 18.69 9.3
8/19/2021 7:00:00 PM 15.98 60.764 0.051 7.01 18.08 9.3
8/19/2021 7:15:00 PM 15.94 60.692 0.052 6.99 17.83 9.29
8/19/2021 7:30:00 PM 15.9 60.62 0.052 6.99 17.81 9.29
8/19/2021 7:45:00 PM 15.85 60.53 0.052 6.98 17.54 9.28
8/19/2021 8:00:00 PM 15.81 60.458 0.052 6.98 17.26 9.28
8/19/2021 8:15:00 PM 15.76 60.368 0.052 6.96 17.37 9.27
8/19/2021 8:30:00 PM 15.7 60.26 0.052 6.97 17.54 9.27
8/19/2021 8:45:00 PM 15.65 60.17 0.053 6.96 17.36 9.28
8/19/2021 9:00:00 PM 15.6 60.08 0.053 6.96 17.47 9.28
8/19/2021 9:15:00 PM 15.55 59.99 0.053 6.95 17.13 9.29
8/19/2021 9:30:00 PM 15.51 59.918 0.053 6.95 16.84 9.3
8/19/2021 9:45:00 PM 15.46 59.828 0.053 6.96 17.16 9.31
8/19/2021 10:00:00 PM 15.41 59.738 0.053 6.94 16.31 9.32
8/19/2021 10:15:00 PM 15.36 59.648 0.053 6.95 16.3 9.33
8/19/2021 10:30:00 PM 15.32 59.576 0.053 6.94 16.23 9.34
8/19/2021 10:45:00 PM 15.27 59.486 0.053 6.94 16.25 9.35
8/19/2021 11:00:00 PM 15.22 59.396 0.053 6.94 15.24 9.36
8/19/2021 11:15:00 PM 15.18 59.324 0.053 6.94 15.47 9.37
8/19/2021 11:30:00 PM 15.14 59.252 0.053 6.94 15.37 9.38
8/19/2021 11:45:00 PM 15.11 59.198 0.053 6.95 15.12 9.39
8/20/2021 12:00:00 AM 15.08 59.144 0.054 6.94 15.07 9.39
8/20/2021 12:15:00 AM 15.05 59.09 0.054 6.95 15.03 9.4
8/20/2021 12:30:00 AM 15.02 59.036 0.054 6.95 15.01 9.4
8/20/2021 12:45:00 AM 14.98 58.964 0.054 6.94 14.77 9.42
8/20/2021 1:00:00 AM 14.95 58.91 0.054 6.95 14.59 9.42
8/20/2021 1:15:00 AM 14.91 58.838 0.054 6.96 14.5 9.43
8/20/2021 1:30:00 AM 14.88 58.784 0.054 6.94 14.36 9.44
8/20/2021 1:45:00 AM 14.85 58.73 0.054 6.96 13.76 9.45
8/20/2021 2:00:00 AM 14.82 58.676 0.054 6.94 13.81 9.45
8/20/2021 2:15:00 AM 14.8 58.64 0.054 6.96 13.59 9.46
8/20/2021 2:30:00 AM 14.77 58.586 0.054 6.96 13.96 9.46
8/20/2021 2:45:00 AM 14.75 58.55 0.054 6.96 13.57 9.47
8/20/2021 3:00:00 AM 14.72 58.496 0.054 6.96 13.52 9.48
8/20/2021 3:15:00 AM 14.7 58.46 0.054 6.96 13.34 9.48
8/20/2021 3:30:00 AM 14.67 58.406 0.054 6.96 13.13 9.49
8/20/2021 3:45:00 AM 14.65 58.37 0.054 6.96 12.86 9.49
8/20/2021 4:00:00 AM 14.62 58.316 0.054 6.97 13.05 9.5
8/20/2021 4:15:00 AM 14.61 58.298 0.055 6.97 12.77 9.5
8/20/2021 4:30:00 AM 14.59 58.262 0.055 6.98 12.73 9.5
8/20/2021 4:45:00 AM 14.58 58.244 0.055 6.97 12.68 9.51
8/20/2021 5:00:00 AM 14.56 58.208 0.055 6.98 12.47 9.51
8/20/2021 5:15:00 AM 14.55 58.19 0.055 6.98 12.89 9.52
8/20/2021 5:30:00 AM 14.53 58.154 0.055 6.98 12.4 9.52
8/20/2021 5:45:00 AM 14.51 58.118 0.055 6.98 12.23 9.52
8/20/2021 6:00:00 AM 14.5 58.1 0.055 6.99 12.1 9.52
8/20/2021 6:15:00 AM 14.48 58.064 0.055 6.98 12.36 9.53
8/20/2021 6:30:00 AM 14.47 58.046 0.055 6.98 11.96 9.53
8/20/2021 6:45:00 AM 14.45 58.01 0.055 6.98 12.12 9.53
8/20/2021 7:00:00 AM 14.44 57.992 0.055 6.99 12.02 9.54
8/20/2021 7:15:00 AM 14.43 57.974 0.055 6.99 11.84 9.55
8/20/2021 7:30:00 AM 14.41 57.938 0.055 6.99 11.9 9.56
8/20/2021 7:45:00 AM 14.4 57.92 0.055 6.99 11.48 9.57
8/20/2021 8:00:00 AM 14.4 57.92 0.055 7 11.4 9.58
8/20/2021 8:15:00 AM 14.4 57.92 0.055 7.01 11.31 9.6
8/20/2021 8:30:00 AM 14.41 57.938 0.055 7.01 11.35 9.62
8/20/2021 8:45:00 AM 14.41 57.938 0.055 7.02 11.16 9.63
8/20/2021 9:00:00 AM 14.42 57.956 0.055 7.01 11.01 9.65
8/20/2021 9:15:00 AM 14.44 57.992 0.055 7.04 10.83 9.66
8/20/2021 9:30:00 AM 14.47 58.046 0.055 7.03 10.77 9.69
8/20/2021 9:45:00 AM 14.52 58.136 0.055 7.07 10.51 9.71
8/20/2021 10:00:00 AM 14.55 58.19 0.055 7.06 10.46 9.72
8/20/2021 10:15:00 AM 14.57 58.226 0.056 7.06 10.1 9.73
8/20/2021 10:30:00 AM 14.62 58.316 0.056 7.06 10.18 9.72
8/20/2021 10:45:00 AM 14.68 58.424 0.056 7.09 9.94 9.72
8/20/2021 11:00:00 AM 14.75 58.55 0.056 7.08 9.88 9.73
8/20/2021 11:15:00 AM 14.84 58.712 0.056 7.09 9.77 9.73
8/20/2021 11:30:00 AM 14.92 58.856 0.056 7.11 9.8 9.73
8/20/2021 11:45:00 AM 14.99 58.982 0.056 7.1 9.64 9.72
8/20/2021 12:00:00 PM 15.14 59.252 0.056 7.11 9.55 9.7
8/20/2021 12:15:00 PM 15.3 59.54 0.056 7.11 9.54 9.69
8/20/2021 12:30:00 PM 15.48 59.864 0.056 7.13 9.73 9.67
8/20/2021 12:45:00 PM 15.61 60.098 0.056 7.15 9.29 9.66
8/20/2021 1:00:00 PM 15.67 60.206 0.056 7.15 9.44 9.63
8/20/2021 1:15:00 PM 15.63 60.134 0.056 7.15 9.19 9.62
8/20/2021 1:30:00 PM 15.87 60.566 0.056 7.16 9.18 9.61
8/20/2021 1:45:00 PM 16.1 60.98 0.056 7.17 9.16 9.58
8/20/2021 2:00:00 PM 16.25 61.25 0.056 7.16 9.01 9.55
8/20/2021 2:15:00 PM 16.35 61.43 0.056 7.16 9.01 9.53
8/20/2021 2:30:00 PM 16.53 61.754 0.056 7.17 9.17 9.51
8/20/2021 2:45:00 PM 16.71 62.078 0.056 7.18 9.04 9.48
8/20/2021 3:00:00 PM 16.79 62.222 0.056 7.19 9.15 9.42
8/20/2021 3:15:00 PM 16.95 62.51 0.056 7.19 8.83 9.4
8/20/2021 3:30:00 PM 16.96 62.528 0.056 7.17 9.03 9.39
8/20/2021 3:45:00 PM 17.02 62.636 0.056 7.19 9.12 9.37
8/20/2021 4:00:00 PM 17.06 62.708 0.056 7.17 9.11 9.34
8/20/2021 4:15:00 PM 17.06 62.708 0.056 7.18 9.2 9.32
8/20/2021 4:30:00 PM 17.04 62.672 0.056 7.18 9.18 9.32
8/20/2021 4:45:00 PM 17.03 62.654 0.056 7.18 9.05 9.31
8/20/2021 5:00:00 PM 17.04 62.672 0.056 7.19 8.89 9.31
8/20/2021 5:15:00 PM 16.98 62.564 0.056 7.17 9.06 9.29
8/20/2021 5:30:00 PM 16.93 62.474 0.056 7.17 9.11 9.29
8/20/2021 5:45:00 PM 16.9 62.42 0.056 7.17 9.3 9.28
8/20/2021 6:00:00 PM 16.87 62.366 0.057 7.15 9.17 9.26
8/20/2021 6:15:00 PM 16.85 62.33 0.057 7.15 8.96 9.25
8/20/2021 6:30:00 PM 16.84 62.312 0.057 7.16 8.68 9.24
8/20/2021 6:45:00 PM 16.8 62.24 0.057 7.13 8.73 9.22
8/20/2021 7:00:00 PM 16.75 62.15 0.057 7.12 8.77 9.21
8/20/2021 7:15:00 PM 16.72 62.096 0.057 7.12 8.52 9.19
8/20/2021 7:30:00 PM 16.71 62.078 0.057 7.13 8.31 9.18
8/20/2021 7:45:00 PM 16.66 61.988 0.057 7.1 8.47 9.16
8/20/2021 8:00:00 PM 16.61 61.898 0.057 7.11 8.69 9.14
8/20/2021 8:15:00 PM 16.55 61.79 0.057 7.1 8.63 9.13
8/20/2021 8:30:00 PM 16.48 61.664 0.057 7.08 8.75 9.13
8/20/2021 8:45:00 PM 16.43 61.574 0.057 7.1 8.8 9.12
8/20/2021 9:00:00 PM 16.39 61.502 0.057 7.07 8.89 9.12
8/20/2021 9:15:00 PM 16.35 61.43 0.058 7.09 8.81 9.13
8/20/2021 9:30:00 PM 16.29 61.322 0.058 7.07 8.97 9.13
8/20/2021 9:45:00 PM 16.25 61.25 0.058 7.08 8.8 9.15
8/20/2021 10:00:00 PM 16.21 61.178 0.058 7.06 8.65 9.15
8/20/2021 10:15:00 PM 16.17 61.106 0.058 7.06 8.81 9.16
8/20/2021 10:30:00 PM 16.12 61.016 0.058 7.06 8.7 9.17
8/20/2021 10:45:00 PM 16.08 60.944 0.058 7.07 8.69 9.17
8/20/2021 11:00:00 PM 16.03 60.854 0.058 7.04 8.84 9.18
8/20/2021 11:15:00 PM 15.98 60.764 0.058 7.06 9.08 9.19
8/20/2021 11:30:00 PM 15.94 60.692 0.058 7.04 9.21 9.2
8/20/2021 11:45:00 PM 15.9 60.62 0.058 7.06 9.3 9.21
8/21/2021 12:00:00 AM 15.86 60.548 0.058 7.05 9.26 9.22
8/21/2021 12:15:00 AM 15.83 60.494 0.058 7.05 9.65 9.22
8/21/2021 12:30:00 AM 15.79 60.422 0.058 7.07 9.58 9.24
8/21/2021 12:45:00 AM 15.75 60.35 0.058 7.05 9.68 9.24
8/21/2021 1:00:00 AM 15.72 60.296 0.058 7.03 9.32 9.25
8/21/2021 1:15:00 AM 15.69 60.242 0.059 7.04 9 9.26
8/21/2021 1:30:00 AM 15.66 60.188 0.059 7.05 8.85 9.26
8/21/2021 1:45:00 AM 15.64 60.152 0.059 7.04 8.74 9.27
8/21/2021 2:00:00 AM 15.61 60.098 0.059 7.05 8.68 9.27
8/21/2021 2:15:00 AM 15.57 60.026 0.059 7.05 8.56 9.28
8/21/2021 2:30:00 AM 15.54 59.972 0.059 7.05 8.62 9.29
8/21/2021 2:45:00 AM 15.5 59.9 0.059 7.05 8.53 9.29
8/21/2021 3:00:00 AM 15.48 59.864 0.059 7.04 8.82 9.3
8/21/2021 3:15:00 AM 15.45 59.81 0.059 7.06 8.63 9.31
8/21/2021 3:30:00 AM 15.43 59.774 0.059 7.06 8.76 9.31
8/21/2021 3:45:00 AM 15.41 59.738 0.059 7.06 8.5 9.31
8/21/2021 4:00:00 AM 15.39 59.702 0.059 7.04 8.11 9.32
8/21/2021 4:15:00 AM 15.37 59.666 0.059 7.04 8.05 9.32
8/21/2021 4:30:00 AM 15.35 59.63 0.059 7.05 8.09 9.32
8/21/2021 4:45:00 AM 15.33 59.594 0.059 7.06 7.94 9.33
8/21/2021 5:00:00 AM 15.31 59.558 0.059 7.04 7.69 9.34
8/21/2021 5:15:00 AM 15.29 59.522 0.059 7.06 7.74 9.34
8/21/2021 5:30:00 AM 15.27 59.486 0.059 7.04 7.61 9.35
8/21/2021 5:45:00 AM 15.25 59.45 0.06 7.05 7.73 9.35
8/21/2021 6:00:00 AM 15.23 59.414 0.06 7.05 7.62 9.35
8/21/2021 6:15:00 AM 15.21 59.378 0.06 7.05 7.64 9.36
8/21/2021 6:30:00 AM 15.19 59.342 0.06 7.05 7.69 9.36
8/21/2021 6:45:00 AM 15.17 59.306 0.06 7.05 7.57 9.37
8/21/2021 7:00:00 AM 15.15 59.27 0.06 7.05 7.52 9.38
8/21/2021 7:15:00 AM 15.14 59.252 0.06 7.05 7.43 9.39
8/21/2021 7:30:00 AM 15.12 59.216 0.06 7.06 7.34 9.4
8/21/2021 7:45:00 AM 15.12 59.216 0.06 7.06 7.46 9.43
8/21/2021 8:00:00 AM 15.11 59.198 0.06 7.06 7.37 9.44
8/21/2021 8:15:00 AM 15.12 59.216 0.06 7.08 7.24 9.47
8/21/2021 8:30:00 AM 15.13 59.234 0.06 7.07 7.13 9.5
8/21/2021 8:45:00 AM 15.15 59.27 0.06 7.09 7.08 9.54
8/21/2021 9:00:00 AM 15.18 59.324 0.06 7.12 7.04 9.57
8/21/2021 9:15:00 AM 15.21 59.378 0.06 7.11 7.26 9.58
8/21/2021 9:30:00 AM 15.23 59.414 0.06 7.13 6.95 9.59
8/21/2021 9:45:00 AM 15.26 59.468 0.06 7.13 6.84 9.6
8/21/2021 10:00:00 AM 15.33 59.594 0.06 7.14 6.84 9.62
8/21/2021 10:15:00 AM 15.4 59.72 0.06 7.15 6.76 9.63
8/21/2021 10:30:00 AM 15.47 59.846 0.06 7.15 6.62 9.62
8/21/2021 10:45:00 AM 15.56 60.008 0.06 7.17 6.53 9.61
8/21/2021 11:00:00 AM 15.66 60.188 0.06 7.17 6.5 9.61
8/21/2021 11:15:00 AM 15.78 60.404 0.06 7.21 6.44 9.6
8/21/2021 11:30:00 AM 15.91 60.638 0.06 7.22 6.41 9.59
8/21/2021 11:45:00 AM 16 60.8 0.06 7.22 6.4 9.57
8/21/2021 12:00:00 PM 16.1 60.98 0.06 7.23 6.31 9.57
8/21/2021 12:15:00 PM 16.25 61.25 0.06 7.25 6.43 9.58
8/21/2021 12:30:00 PM 16.3 61.34 0.06 7.25 6.32 9.57
8/21/2021 12:45:00 PM 16.41 61.538 0.06 7.27 6.18 9.57
8/21/2021 1:00:00 PM 16.47 61.646 0.06 7.27 6.2 9.57
8/21/2021 1:15:00 PM 16.51 61.718 0.06 7.29 6.23 9.56
8/21/2021 1:30:00 PM 16.54 61.772 0.06 7.3 6.24 9.55
8/21/2021 1:45:00 PM 16.72 62.096 0.06 7.29 6.19 9.54
8/21/2021 2:00:00 PM 16.88 62.384 0.06 7.31 6.09 9.5
8/21/2021 2:15:00 PM 16.92 62.456 0.06 7.3 6.1 9.47
8/21/2021 2:30:00 PM 17.01 62.618 0.06 7.3 6.11 9.44
8/21/2021 2:45:00 PM 17.13 62.834 0.06 7.32 6.18 9.42
8/21/2021 3:00:00 PM 17.18 62.924 0.06 7.33 6.15 9.41
8/21/2021 3:15:00 PM 17.39 63.302 0.06 7.32 6.09 9.41
8/21/2021 3:30:00 PM 17.47 63.446 0.06 7.33 6.03 9.38
8/21/2021 3:45:00 PM 17.63 63.734 0.06 7.34 6.01 9.34
8/21/2021 4:00:00 PM 17.7 63.86 0.06 7.33 6.04 9.31
8/21/2021 4:15:00 PM 17.71 63.878 0.06 7.34 6.09 9.31
8/21/2021 4:30:00 PM 17.66 63.788 0.06 7.34 6.05 9.29
8/21/2021 4:45:00 PM 17.66 63.788 0.06 7.31 6.03 9.25
8/21/2021 5:00:00 PM 17.65 63.77 0.06 7.3 6.13 9.21
8/21/2021 5:15:00 PM 17.65 63.77 0.06 7.3 6.16 9.18
8/21/2021 5:30:00 PM 17.67 63.806 0.06 7.28 6.26 9.14
8/21/2021 5:45:00 PM 17.7 63.86 0.06 7.27 6.21 9.12
8/21/2021 6:00:00 PM 17.72 63.896 0.06 7.26 6.19 9.1
8/21/2021 6:15:00 PM 17.7 63.86 0.06 7.26 6.16 9.08
8/21/2021 6:30:00 PM 17.67 63.806 0.06 7.24 6.3 9.05
8/21/2021 6:45:00 PM 17.63 63.734 0.06 7.23 6.35 9.05
8/21/2021 7:00:00 PM 17.58 63.644 0.06 7.22 6.59 9.04
8/21/2021 7:15:00 PM 17.53 63.554 0.06 7.21 6.39 9.04
8/21/2021 7:30:00 PM 17.46 63.428 0.06 7.21 6.44 9.04
8/21/2021 7:45:00 PM 17.38 63.284 0.06 7.19 6.25 9.04
8/21/2021 8:00:00 PM 17.3 63.14 0.06 7.2 6.31 9.03
8/21/2021 8:15:00 PM 17.21 62.978 0.061 7.2 6.15 9.03
8/21/2021 8:30:00 PM 17.13 62.834 0.061 7.17 6.27 9.02
8/21/2021 8:45:00 PM 17.07 62.726 0.061 7.18 6.6 9.02
8/21/2021 9:00:00 PM 17.01 62.618 0.061 7.17 6.46 9.02
8/21/2021 9:15:00 PM 16.97 62.546 0.061 7.16 6.53 9.01
8/21/2021 9:30:00 PM 16.92 62.456 0.061 7.14 6.64 9.01
8/21/2021 9:45:00 PM 16.88 62.384 0.061 7.15 6.97 9.01
8/21/2021 10:00:00 PM 16.83 62.294 0.062 7.14 6.92 9.02
8/21/2021 10:15:00 PM 16.79 62.222 0.062 7.15 7.01 9.03
8/21/2021 10:30:00 PM 16.73 62.114 0.062 7.14 7 9.03
8/21/2021 10:45:00 PM 16.68 62.024 0.062 7.12 6.93 9.04
8/21/2021 11:00:00 PM 16.62 61.916 0.062 7.12 7.09 9.05
8/21/2021 11:15:00 PM 16.57 61.826 0.062 7.12 7.06 9.06
8/21/2021 11:30:00 PM 16.52 61.736 0.062 7.14 6.9 9.07
8/21/2021 11:45:00 PM 16.47 61.646 0.062 7.12 6.7 9.08
8/22/2021 12:00:00 AM 16.43 61.574 0.062 7.14 6.93 9.09
8/22/2021 12:15:00 AM 16.4 61.52 0.062 7.13 6.77 9.1
8/22/2021 12:30:00 AM 16.37 61.466 0.062 7.12 6.64 9.1
8/22/2021 12:45:00 AM 16.36 61.448 0.062 7.13 6.8 9.11
8/22/2021 1:00:00 AM 16.35 61.43 0.062 7.12 6.63 9.11
8/22/2021 1:15:00 AM 16.33 61.394 0.062 7.14 6.61 9.11
8/22/2021 1:30:00 AM 16.31 61.358 0.062 7.12 6.53 9.12
8/22/2021 1:45:00 AM 16.29 61.322 0.062 7.14 6.48 9.12
8/22/2021 2:00:00 AM 16.27 61.286 0.062 7.13 6.55 9.12
8/22/2021 2:15:00 AM 16.26 61.268 0.063 7.14 6.52 9.13
8/22/2021 2:30:00 AM 16.24 61.232 0.063 7.14 6.45 9.13
8/22/2021 2:45:00 AM 16.22 61.196 0.063 7.14 6.54 9.14
8/22/2021 3:00:00 AM 16.2 61.16 0.063 7.15 6.4 9.14
8/22/2021 3:15:00 AM 16.18 61.124 0.063 7.16 6.37 9.15
8/22/2021 3:30:00 AM 16.15 61.07 0.063 7.16 6.35 9.15
8/22/2021 3:45:00 AM 16.13 61.034 0.063 7.14 6.33 9.16
8/22/2021 4:00:00 AM 16.11 60.998 0.063 7.15 6.43 9.16
8/22/2021 4:15:00 AM 16.08 60.944 0.063 7.16 6.24 9.17
8/22/2021 4:30:00 AM 16.06 60.908 0.063 7.15 6.33 9.17
8/22/2021 4:45:00 AM 16.04 60.872 0.063 7.16 6.19 9.18
8/22/2021 5:00:00 AM 16.02 60.836 0.063 7.14 6.24 9.18
8/22/2021 5:15:00 AM 16 60.8 0.063 7.16 6.11 9.19
8/22/2021 5:30:00 AM 15.98 60.764 0.063 7.14 6.17 9.19
8/22/2021 5:45:00 AM 15.96 60.728 0.063 7.16 6.21 9.2
8/22/2021 6:00:00 AM 15.93 60.674 0.063 7.15 5.94 9.2
8/22/2021 6:15:00 AM 15.91 60.638 0.063 7.16 6.05 9.21
8/22/2021 6:30:00 AM 15.88 60.584 0.063 7.15 6.03 9.21
8/22/2021 6:45:00 AM 15.86 60.548 0.063 7.15 6.1 9.22
8/22/2021 7:00:00 AM 15.84 60.512 0.063 7.16 5.99 9.24
8/22/2021 7:15:00 AM 15.83 60.494 0.063 7.17 5.99 9.25
8/22/2021 7:30:00 AM 15.81 60.458 0.063 7.17 5.96 9.26
8/22/2021 7:45:00 AM 15.8 60.44 0.063 7.17 5.86 9.27
8/22/2021 8:00:00 AM 15.8 60.44 0.063 7.18 5.8 9.3
8/22/2021 8:15:00 AM 15.8 60.44 0.063 7.19 5.75 9.33
8/22/2021 8:30:00 AM 15.8 60.44 0.063 7.2 5.83 9.36
8/22/2021 8:45:00 AM 15.81 60.458 0.063 7.2 5.72 9.39
8/22/2021 9:00:00 AM 15.82 60.476 0.063 7.23 5.69 9.42
8/22/2021 9:15:00 AM 15.88 60.584 0.063 7.23 5.55 9.48
8/22/2021 9:30:00 AM 15.93 60.674 0.063 7.27 5.59 9.53
8/22/2021 9:45:00 AM 15.97 60.746 0.063 7.26 5.57 9.55
8/22/2021 10:00:00 AM 16.01 60.818 0.063 7.29 5.47 9.57
8/22/2021 10:15:00 AM 16.07 60.926 0.063 7.29 5.5 9.59
8/22/2021 10:30:00 AM 16.13 61.034 0.063 7.31 5.41 9.6
8/22/2021 10:45:00 AM 16.21 61.178 0.063 7.33 5.55 9.62
8/22/2021 11:00:00 AM 16.27 61.286 0.063 7.33 5.37 9.61
8/22/2021 11:15:00 AM 16.37 61.466 0.063 7.34 5.43 9.6
8/22/2021 11:30:00 AM 16.48 61.664 0.063 7.36 5.39 9.59
8/22/2021 11:45:00 AM 16.63 61.934 0.063 7.36 5.24 9.58
8/22/2021 12:00:00 PM 16.79 62.222 0.063 7.37 5.14 9.57
8/22/2021 12:15:00 PM 16.98 62.564 0.063 7.38 5.3 9.54
8/22/2021 12:30:00 PM 17.16 62.888 0.063 7.41 5.34 9.52
8/22/2021 12:45:00 PM 17.43 63.374 0.063 7.41 5.1 9.49
8/22/2021 1:00:00 PM 17.58 63.644 0.063 7.42 5.06 9.46
8/22/2021 1:15:00 PM 17.71 63.878 0.063 7.43 5.23 9.43
8/22/2021 1:30:00 PM 18 64.4 0.063 7.44 5.12 9.42
8/22/2021 1:45:00 PM 18.03 64.454 0.063 7.44 5.09 9.37
8/22/2021 2:00:00 PM 18.14 64.652 0.063 7.47 5.12 9.36
8/22/2021 2:15:00 PM 18.31 64.958 0.064 7.46 5.05 9.36
8/22/2021 2:30:00 PM 18.38 65.084 0.064 7.47 5.06 9.35
8/22/2021 2:45:00 PM 18.36 65.048 0.064 7.44 4.99 9.27
8/22/2021 3:00:00 PM 18.43 65.174 0.064 7.44 5.04 9.23
8/22/2021 3:15:00 PM 18.49 65.282 0.064 7.44 5.04 9.21
8/22/2021 3:30:00 PM 18.53 65.354 0.063 7.44 4.99 9.2
8/22/2021 3:45:00 PM 18.55 65.39 0.063 7.45 4.99 9.19
8/22/2021 4:00:00 PM 18.57 65.426 0.064 7.44 5.07 9.16
8/22/2021 4:15:00 PM 18.59 65.462 0.064 7.43 5.09 9.14
8/22/2021 4:30:00 PM 18.59 65.462 0.064 7.41 5 9.09
8/22/2021 4:45:00 PM 18.57 65.426 0.064 7.4 4.89 9.05
8/22/2021 5:00:00 PM 18.54 65.372 0.064 7.39 4.96 9.04
8/22/2021 5:15:00 PM 18.51 65.318 0.064 7.36 5.02 9
8/22/2021 5:30:00 PM 18.46 65.228 0.064 7.34 5.05 8.96
8/22/2021 5:45:00 PM 18.41 65.138 0.064 7.33 4.93 8.96
8/22/2021 6:00:00 PM 18.37 65.066 0.064 7.33 4.92 8.96
8/22/2021 6:15:00 PM 18.33 64.994 0.064 7.3 5.03 8.97
8/22/2021 6:30:00 PM 18.31 64.958 0.064 7.3 5.01 8.97
8/22/2021 6:45:00 PM 18.27 64.886 0.064 7.3 4.85 8.97
8/22/2021 7:00:00 PM 18.24 64.832 0.064 7.29 4.94 8.95
8/22/2021 7:15:00 PM 18.19 64.742 0.064 7.27 4.94 8.93
8/22/2021 7:30:00 PM 18.15 64.67 0.065 7.25 5.1 8.91
8/22/2021 7:45:00 PM 18.1 64.58 0.065 7.24 5.29 8.89
8/22/2021 8:00:00 PM 18.05 64.49 0.065 7.23 4.94 8.87
8/22/2021 8:15:00 PM 18 64.4 0.065 7.23 5.45 8.85
8/22/2021 8:30:00 PM 17.94 64.292 0.065 7.22 4.94 8.84
8/22/2021 8:45:00 PM 17.89 64.202 0.065 7.21 4.98 8.83
8/22/2021 9:00:00 PM 17.83 64.094 0.065 7.21 5.1 8.83
8/22/2021 9:15:00 PM 17.79 64.022 0.065 7.2 5.22 8.83
8/22/2021 9:30:00 PM 17.75 63.95 0.065 7.19 5.18 8.82
8/22/2021 9:45:00 PM 17.72 63.896 0.066 7.18 10.3 8.82
8/22/2021 10:00:00 PM 17.69 63.842 0.066 7.18 4.98 8.82
8/22/2021 10:15:00 PM 17.65 63.77 0.066 7.17 5.2 8.84
8/22/2021 10:30:00 PM 17.62 63.716 0.066 7.19 5.17 8.85
8/22/2021 10:45:00 PM 17.58 63.644 0.066 7.16 5.28 8.84
8/22/2021 11:00:00 PM 17.54 63.572 0.066 7.18 5.15 8.85
8/22/2021 11:15:00 PM 17.5 63.5 0.066 7.18 5.27 8.86
8/22/2021 11:30:00 PM 17.47 63.446 0.066 7.16 5.17 8.86
8/22/2021 11:45:00 PM 17.44 63.392 0.066 7.16 5.12 8.87
8/23/2021 12:00:00 AM 17.41 63.338 0.066 7.17 5.05 8.88
8/23/2021 12:15:00 AM 17.37 63.266 0.066 7.17 5.05 8.88
8/23/2021 12:30:00 AM 17.34 63.212 0.066 7.15 5.21 8.89
8/23/2021 12:45:00 AM 17.31 63.158 0.066 7.18 5.11 8.9
8/23/2021 1:00:00 AM 17.28 63.104 0.066 7.19 5.14 8.91
8/23/2021 1:15:00 AM 17.25 63.05 0.066 7.19 5.15 8.91
8/23/2021 1:30:00 AM 17.21 62.978 0.066 7.2 5.04 8.92
8/23/2021 1:45:00 AM 17.18 62.924 0.066 7.17 5.2 8.92
8/23/2021 2:00:00 AM 17.15 62.87 0.066 7.18 5.03 8.93
8/23/2021 2:15:00 AM 17.12 62.816 0.066 7.2 5.06 8.93
8/23/2021 2:30:00 AM 17.09 62.762 0.066 7.21 5.08 8.94
8/23/2021 2:45:00 AM 17.05 62.69 0.066 7.2 5.16 8.95
8/23/2021 3:00:00 AM 17.02 62.636 0.066 7.19 4.98 8.95
8/23/2021 3:15:00 AM 16.99 62.582 0.066 7.2 5.12 8.96
8/23/2021 3:30:00 AM 16.96 62.528 0.066 7.21 5.03 8.97
8/23/2021 3:45:00 AM 16.93 62.474 0.066 7.18 5.01 8.97
8/23/2021 4:00:00 AM 16.91 62.438 0.066 7.19 11.8 8.98
8/23/2021 4:15:00 AM 16.88 62.384 0.067 7.2 5.28 8.99
8/23/2021 4:30:00 AM 16.85 62.33 0.067 7.2 5.13 8.99
8/23/2021 4:45:00 AM 16.83 62.294 0.067 7.21 5.11 8.99
8/23/2021 5:00:00 AM 16.8 62.24 0.067 7.21 5.09 9
8/23/2021 5:15:00 AM 16.78 62.204 0.067 7.21 5.1 9
8/23/2021 5:30:00 AM 16.76 62.168 0.067 7.21 5.06 9.01
8/23/2021 5:45:00 AM 16.73 62.114 0.067 7.22 5.1 9.02
8/23/2021 6:00:00 AM 16.7 62.06 0.067 7.21 5.11 9.02
8/23/2021 6:15:00 AM 16.68 62.024 0.067 7.21 5.18 9.02
8/23/2021 6:30:00 AM 16.65 61.97 0.067 7.21 5.08 9.03
8/23/2021 6:45:00 AM 16.61 61.898 0.067 7.21 5.08 9.05
8/23/2021 7:00:00 AM 16.59 61.862 0.067 7.22 4.97 9.06
8/23/2021 7:15:00 AM 16.57 61.826 0.067 7.21 4.94 9.09
8/23/2021 7:30:00 AM 16.56 61.808 0.067 7.22 5 9.11
8/23/2021 7:45:00 AM 16.55 61.79 0.067 7.23 4.95 9.14
8/23/2021 8:00:00 AM 16.54 61.772 0.067 7.24 4.92 9.17
8/23/2021 8:15:00 AM 16.53 61.754 0.067 7.25 4.82 9.21
8/23/2021 8:30:00 AM 16.55 61.79 0.067 7.27 4.83 9.26
8/23/2021 8:45:00 AM 16.56 61.808 0.067 7.27 4.8 9.31
8/23/2021 9:00:00 AM 16.61 61.898 0.067 7.31 4.95 9.36
8/23/2021 9:15:00 AM 16.65 61.97 0.067 7.33 5.16 9.38
8/23/2021 9:30:00 AM 16.69 62.042 0.067 7.33 5.99 9.39
8/23/2021 9:45:00 AM 16.75 62.15 0.067 7.33 4.97 9.41
8/23/2021 10:00:00 AM 16.81 62.258 0.067 7.36 8.27 9.43
8/23/2021 10:15:00 AM 16.86 62.348 0.067 7.38 7.36 9.45
8/23/2021 10:30:00 AM 16.96 62.528 0.067 7.4 15.09 9.47
8/23/2021 10:45:00 AM 17.1 62.78 0.067 7.42 6.01 9.49
8/23/2021 11:00:00 AM 17.18 62.924 0.067 7.44 8.84 9.47
8/23/2021 11:15:00 AM 17.35 63.23 0.067 7.47 4.39 9.47
8/23/2021 11:30:00 AM 17.48 63.464 0.067 7.49 4.39 9.48
8/23/2021 11:45:00 AM 17.66 63.788 0.067 7.5 4.46 9.46
8/23/2021 12:00:00 PM 17.75 63.95 0.067 7.51 4.51 9.44
8/23/2021 12:15:00 PM 17.99 64.382 0.067 7.53 4.26 9.45
8/23/2021 12:30:00 PM 18.13 64.634 0.067 7.54 4.31 9.42
8/23/2021 12:45:00 PM 18.27 64.886 0.066 7.56 4.35 9.41
8/23/2021 1:00:00 PM 18.49 65.282 0.066 7.57 4.32 9.38
8/23/2021 1:15:00 PM 18.8 65.84 0.066 7.58 4.24 9.36
8/23/2021 1:30:00 PM 19.07 66.326 0.067 7.59 4.18 9.29
8/23/2021 1:45:00 PM 19.34 66.812 0.066 7.6 4.25 9.27
8/23/2021 2:00:00 PM 19.64 67.352 0.066 7.62 4.35 9.22
8/23/2021 2:15:00 PM 19.87 67.766 0.066 7.62 11.9 9.17
8/23/2021 2:30:00 PM 19.97 67.946 0.066 7.61 16.58 9.11
8/23/2021 2:45:00 PM 20.19 68.342 0.066 7.62 17.03 9.07
8/23/2021 3:00:00 PM 20.45 68.81 0.066 7.65 3.96 9.04
8/23/2021 3:15:00 PM 20.62 69.116 0.066 7.63 3.95 9.01
8/23/2021 3:30:00 PM 20.77 69.386 0.066 7.66 4.17 8.98
8/23/2021 3:45:00 PM 20.81 69.458 0.066 7.63 4.12 8.92
8/23/2021 4:00:00 PM 20.75 69.35 0.066 7.58 4.03 8.83
8/23/2021 4:15:00 PM 20.75 69.35 0.067 7.56 4.23 8.78
8/23/2021 4:30:00 PM 20.78 69.404 0.067 7.53 3.92 8.73
8/23/2021 4:45:00 PM 20.86 69.548 0.067 7.52 4.07 8.7
8/23/2021 5:00:00 PM 20.91 69.638 0.067 7.52 4.02 8.67
8/23/2021 5:15:00 PM 20.95 69.71 0.067 7.51 4.06 8.63
8/23/2021 5:30:00 PM 20.97 69.746 0.067 7.49 4.04 8.58
8/23/2021 5:45:00 PM 20.99 69.782 0.067 7.47 4.04 8.54
8/23/2021 6:00:00 PM 21 69.8 0.067 7.46 3.98 8.51
8/23/2021 6:15:00 PM 20.98 69.764 0.068 7.44 4.07 8.48
8/23/2021 6:30:00 PM 20.95 69.71 0.068 7.41 4.01 8.46
8/23/2021 6:45:00 PM 20.88 69.584 0.068 7.4 4.12 8.44
8/23/2021 7:00:00 PM 20.79 69.422 0.068 7.39 4.04 8.44
8/23/2021 7:15:00 PM 20.67 69.206 0.068 7.38 4.1 8.44
8/23/2021 7:30:00 PM 20.53 68.954 0.068 7.37 4.01 8.43
8/23/2021 7:45:00 PM 20.4 68.72 0.068 7.36 4.07 8.43
8/23/2021 8:00:00 PM 20.27 68.486 0.068 7.34 4.14 8.43
8/23/2021 8:15:00 PM 20.14 68.252 0.068 7.33 4.04 8.43
8/23/2021 8:30:00 PM 20.03 68.054 0.068 7.29 4.07 8.42
8/23/2021 8:45:00 PM 19.92 67.856 0.068 7.3 4.33 8.43
8/23/2021 9:00:00 PM 19.81 67.658 0.069 7.3 4.27 8.43
8/23/2021 9:15:00 PM 19.7 67.46 0.069 7.27 5.48 8.45
8/23/2021 9:30:00 PM 19.59 67.262 0.069 7.28 5.1 8.46
8/23/2021 9:45:00 PM 19.49 67.082 0.069 7.27 4.55 8.47
8/23/2021 10:00:00 PM 19.39 66.902 0.069 7.28 5.64 8.49
8/23/2021 10:15:00 PM 19.3 66.74 0.069 7.25 4.4 8.51
8/23/2021 10:30:00 PM 19.22 66.596 0.069 7.26 4.52 8.52
8/23/2021 10:45:00 PM 19.14 66.452 0.069 7.28 4.62 8.54
8/23/2021 11:00:00 PM 19.06 66.308 0.069 7.26 4.55 8.54
8/23/2021 11:15:00 PM 18.99 66.182 0.069 7.26 4.47 8.56
8/23/2021 11:30:00 PM 18.91 66.038 0.069 7.26 4.69 8.57
8/23/2021 11:45:00 PM 18.84 65.912 0.069 7.27 4.46 8.6
8/24/2021 12:00:00 AM 18.77 65.786 0.069 7.25 4.49 8.61
8/24/2021 12:15:00 AM 18.71 65.67799 0.069 7.26 4.38 8.62
8/24/2021 12:30:00 AM 18.64 65.552 0.07 7.25 4.39 8.64
8/24/2021 12:45:00 AM 18.58 65.444 0.07 7.27 4.45 8.65
8/24/2021 1:00:00 AM 18.52 65.336 0.07 7.26 4.37 8.66
8/24/2021 1:15:00 AM 18.45 65.21 0.07 7.24 4.42 8.67
8/24/2021 1:30:00 AM 18.39 65.102 0.07 7.26 4.41 8.69
8/24/2021 1:45:00 AM 18.33 64.994 0.07 7.25 4.38 8.7
8/24/2021 2:00:00 AM 18.28 64.904 0.07 7.26 4.41 8.71
8/24/2021 2:15:00 AM 18.22 64.796 0.07 7.26 4.31 8.72
8/24/2021 2:30:00 AM 18.17 64.706 0.07 7.26 4.43 8.73
8/24/2021 2:45:00 AM 18.13 64.634 0.07 7.23 4.4 8.74
8/24/2021 3:00:00 AM 18.09 64.562 0.07 7.24 4.43 8.74
8/24/2021 3:15:00 AM 18.06 64.508 0.07 7.24 4.37 8.75
8/24/2021 3:30:00 AM 18.03 64.454 0.07 7.25 4.38 8.76
8/24/2021 3:45:00 AM 18 64.4 0.07 7.26 4.39 8.77
8/24/2021 4:00:00 AM 17.98 64.364 0.07 7.25 4.38 8.77
8/24/2021 4:15:00 AM 17.96 64.328 0.07 7.27 4.29 8.78
8/24/2021 4:30:00 AM 17.93 64.274 0.07 7.26 4.33 8.79
8/24/2021 4:45:00 AM 17.9 64.22 0.07 7.25 4.27 8.8
8/24/2021 5:00:00 AM 17.86 64.148 0.07 7.26 4.35 8.8
8/24/2021 5:15:00 AM 17.83 64.094 0.07 7.26 4.29 8.82
8/24/2021 5:30:00 AM 17.8 64.04 0.07 7.26 4.29 8.82
8/24/2021 5:45:00 AM 17.77 63.986 0.07 7.27 4.34 8.83
8/24/2021 6:00:00 AM 17.74 63.932 0.07 7.26 4.29 8.84
8/24/2021 6:15:00 AM 17.7 63.86 0.07 7.27 4.34 8.84
8/24/2021 6:30:00 AM 17.67 63.806 0.07 7.27 4.32 8.85
8/24/2021 6:45:00 AM 17.64 63.752 0.07 7.27 4.34 8.86
8/24/2021 7:00:00 AM 17.61 63.698 0.07 7.27 4.21 8.87
8/24/2021 7:15:00 AM 17.58 63.644 0.07 7.27 4.18 8.9
8/24/2021 7:30:00 AM 17.55 63.59 0.07 7.27 4.09 8.92
8/24/2021 7:45:00 AM 17.53 63.554 0.07 7.29 4.06 8.96
8/24/2021 8:00:00 AM 17.52 63.536 0.07 7.31 4.12 9
8/24/2021 8:15:00 AM 17.51 63.518 0.07 7.29 4.47 9.05
8/24/2021 8:30:00 AM 17.5 63.5 0.07 7.31 4.08 9.1
8/24/2021 8:45:00 AM 17.5 63.5 0.071 7.34 4.06 9.14
8/24/2021 9:00:00 AM 17.51 63.518 0.071 7.34 4.34 9.2
8/24/2021 9:15:00 AM 17.53 63.554 0.071 7.37 4.16 9.25
8/24/2021 9:30:00 AM 17.58 63.644 0.07 7.4 4.03 9.33
8/24/2021 9:45:00 AM 17.66 63.788 0.07 7.44 3.97 9.38
8/24/2021 10:00:00 AM 17.72 63.896 0.07 7.45 3.92 9.37
8/24/2021 10:15:00 AM 17.79 64.022 0.07 7.47 3.87 9.37
8/24/2021 10:30:00 AM 17.89 64.202 0.07 7.48 4.07 9.39
8/24/2021 10:45:00 AM 17.97 64.346 0.07 7.5 3.92 9.39
8/24/2021 11:00:00 AM 18.06 64.508 0.07 7.51 3.86 9.38
8/24/2021 11:15:00 AM 18.2 64.76 0.07 7.54 3.81 9.38
8/24/2021 11:30:00 AM 18.37 65.066 0.07 7.55 3.84 9.37
8/24/2021 11:45:00 AM 18.56 65.408 0.07 7.57 3.82 9.36
8/24/2021 12:00:00 PM 18.77 65.786 0.07 7.6 3.79 9.35
8/24/2021 12:15:00 PM 19 66.2 0.07 7.61 3.78 9.33
8/24/2021 12:30:00 PM 19.25 66.65 0.07 7.64 3.72 9.31
8/24/2021 12:45:00 PM 19.5 67.1 0.07 7.65 3.72 9.29
8/24/2021 1:00:00 PM 19.76 67.568 0.07 7.67 3.75 9.26
8/24/2021 1:15:00 PM 20.03 68.054 0.07 7.68 3.76 9.23
8/24/2021 1:30:00 PM 20.3 68.54 0.07 7.69 3.73 9.2
8/24/2021 1:45:00 PM 20.56 69.008 0.07 7.71 3.7 9.17
8/24/2021 2:00:00 PM 20.81 69.458 0.07 7.73 3.76 9.14
8/24/2021 2:15:00 PM 21.03 69.854 0.07 7.75 3.81 9.1
8/24/2021 2:30:00 PM 21.24 70.232 0.07 7.74 3.8 9.07
8/24/2021 2:45:00 PM 21.41 70.538 0.07 7.77 3.78 9.03
8/24/2021 3:00:00 PM 21.57 70.826 0.07 7.77 3.67 8.98
8/24/2021 3:15:00 PM 21.71 71.078 0.07 7.77 3.75 8.94
8/24/2021 3:30:00 PM 21.82 71.276 0.07 7.76 3.74 8.89
8/24/2021 3:45:00 PM 21.91 71.438 0.07 7.75 3.74 8.84
8/24/2021 4:00:00 PM 21.98 71.564 0.07 7.73 3.71 8.78
8/24/2021 4:15:00 PM 22.04 71.672 0.07 7.71 3.79 8.73
8/24/2021 4:30:00 PM 22.07 71.726 0.07 7.7 3.73 8.69
8/24/2021 4:45:00 PM 22.1 71.78 0.07 7.68 3.68 8.65
8/24/2021 5:00:00 PM 22.11 71.798 0.07 7.64 3.65 8.59
8/24/2021 5:15:00 PM 22.09 71.762 0.07 7.63 3.84 8.54
8/24/2021 5:30:00 PM 22.06 71.708 0.07 7.58 3.76 8.49
8/24/2021 5:45:00 PM 22.04 71.672 0.07 7.56 3.7 8.46
8/24/2021 6:00:00 PM 22.05 71.69 0.07 7.54 3.78 8.45
8/24/2021 6:15:00 PM 22.05 71.69 0.07 7.53 3.72 8.42
8/24/2021 6:30:00 PM 22.03 71.654 0.07 7.51 3.74 8.39
8/24/2021 6:45:00 PM 22.01 71.618 0.07 7.48 3.69 8.37
8/24/2021 7:00:00 PM 21.97 71.546 0.07 7.48 3.81 8.33
8/24/2021 7:15:00 PM 21.92 71.456 0.071 7.45 3.91 8.31
8/24/2021 7:30:00 PM 21.85 71.33 0.071 7.44 3.64 8.28
8/24/2021 7:45:00 PM 21.75 71.15 0.071 7.41 3.78 8.25
8/24/2021 8:00:00 PM 21.63 70.934 0.071 7.4 3.61 8.23
8/24/2021 8:15:00 PM 21.5 70.7 0.071 7.39 3.86 8.21
8/24/2021 8:30:00 PM 21.36 70.448 0.072 7.37 3.77 8.2
8/24/2021 8:45:00 PM 21.23 70.214 0.072 7.35 4.08 8.21
8/24/2021 9:00:00 PM 21.1 69.98 0.072 7.33 4.01 8.21
8/24/2021 9:15:00 PM 20.97 69.746 0.072 7.32 4.15 8.22
8/24/2021 9:30:00 PM 20.83 69.494 0.072 7.32 4.15 8.24
8/24/2021 9:45:00 PM 20.69 69.242 0.072 7.31 4.24 8.26
8/24/2021 10:00:00 PM 20.56 69.008 0.073 7.3 4.28 8.28
8/24/2021 10:15:00 PM 20.43 68.774 0.073 7.3 4.19 8.31
8/24/2021 10:30:00 PM 20.31 68.558 0.073 7.3 4.23 8.33
8/24/2021 10:45:00 PM 20.2 68.36 0.073 7.3 4.28 8.35
8/24/2021 11:00:00 PM 20.09 68.162 0.073 7.31 4.25 8.37
8/24/2021 11:15:00 PM 19.99 67.982 0.073 7.3 4.21 8.39
8/24/2021 11:30:00 PM 19.9 67.82 0.074 7.3 4.15 8.41
8/24/2021 11:45:00 PM 19.82 67.676 0.074 7.31 4.23 8.42
8/25/2021 12:00:00 AM 19.74 67.532 0.074 7.31 4.26 8.44
8/25/2021 12:15:00 AM 19.67 67.406 0.074 7.3 4.2 8.45
8/25/2021 12:30:00 AM 19.6 67.28 0.073 7.3 4.67 8.47
8/25/2021 12:45:00 AM 19.53 67.154 0.073 7.29 4.2 8.48
8/25/2021 1:00:00 AM 19.45 67.01 0.073 7.3 4.26 8.5
8/25/2021 1:15:00 AM 19.39 66.902 0.073 7.29 4.16 8.51
8/25/2021 1:30:00 AM 19.32 66.776 0.073 7.29 4.07 8.52
8/25/2021 1:45:00 AM 19.27 66.686 0.073 7.29 4.13 8.54
8/25/2021 2:00:00 AM 19.22 66.596 0.073 7.3 4.12 8.54
8/25/2021 2:15:00 AM 19.16 66.488 0.073 7.28 4.16 8.56
8/25/2021 2:30:00 AM 19.11 66.398 0.074 7.3 4.2 8.57
8/25/2021 2:45:00 AM 19.06 66.308 0.074 7.3 4.11 8.58
8/25/2021 3:00:00 AM 19.02 66.236 0.074 7.28 4.06 8.59
8/25/2021 3:15:00 AM 18.97 66.146 0.074 7.3 4.46 8.6
8/25/2021 3:30:00 AM 18.93 66.074 0.074 7.31 4 8.61
8/25/2021 3:45:00 AM 18.89 66.002 0.074 7.29 4.06 8.62
8/25/2021 4:00:00 AM 18.85 65.93 0.074 7.31 4.16 8.62
8/25/2021 4:15:00 AM 18.81 65.858 0.074 7.31 4.26 8.63
8/25/2021 4:30:00 AM 18.77 65.786 0.074 7.31 4.1 8.64
8/25/2021 4:45:00 AM 18.74 65.732 0.074 7.3 4.04 8.65
8/25/2021 5:00:00 AM 18.69 65.642 0.074 7.31 4.12 8.66
8/25/2021 5:15:00 AM 18.66 65.588 0.074 7.3 4.09 8.67
8/25/2021 5:30:00 AM 18.62 65.516 0.074 7.3 4.05 8.67
8/25/2021 5:45:00 AM 18.57 65.426 0.074 7.3 4.02 8.68
8/25/2021 6:00:00 AM 18.54 65.372 0.074 7.29 4.1 8.69
8/25/2021 6:15:00 AM 18.5 65.3 0.074 7.31 4.12 8.7
8/25/2021 6:30:00 AM 18.47 65.246 0.074 7.29 4.09 8.7
8/25/2021 6:45:00 AM 18.43 65.174 0.075 7.31 3.97 8.72
8/25/2021 7:00:00 AM 18.4 65.12 0.075 7.3 3.93 8.74
8/25/2021 7:15:00 AM 18.37 65.066 0.075 7.32 4.03 8.76
8/25/2021 7:30:00 AM 18.34 65.012 0.075 7.31 3.94 8.79
8/25/2021 7:45:00 AM 18.32 64.976 0.074 7.33 3.95 8.83
8/25/2021 8:00:00 AM 18.3 64.94 0.074 7.34 3.88 8.88
8/25/2021 8:15:00 AM 18.29 64.922 0.074 7.36 3.84 8.94
8/25/2021 8:30:00 AM 18.29 64.922 0.074 7.37 3.76 8.99
8/25/2021 8:45:00 AM 18.29 64.922 0.074 7.4 3.76 9.07
8/25/2021 9:00:00 AM 18.31 64.958 0.074 7.43 3.74 9.14
8/25/2021 9:15:00 AM 18.34 65.012 0.073 7.46 3.82 9.23
8/25/2021 9:30:00 AM 18.38 65.084 0.073 7.48 3.83 9.3
8/25/2021 9:45:00 AM 18.45 65.21 0.073 7.53 3.63 9.36
8/25/2021 10:00:00 AM 18.51 65.318 0.073 7.56 3.65 9.38
8/25/2021 10:15:00 AM 18.59 65.462 0.073 7.56 3.74 9.38
8/25/2021 10:30:00 AM 18.69 65.642 0.073 7.59 3.72 9.38
8/25/2021 10:45:00 AM 18.81 65.858 0.073 7.6 3.7 9.38
8/25/2021 11:00:00 AM 18.93 66.074 0.073 7.64 3.59 9.38
8/25/2021 11:15:00 AM 19.06 66.308 0.073 7.65 3.54 9.37
8/25/2021 11:30:00 AM 19.22 66.596 0.073 7.69 3.62 9.37
8/25/2021 11:45:00 AM 19.41 66.938 0.073 7.7 3.65 9.36
8/25/2021 12:00:00 PM 19.64 67.352 0.073 7.72 8.48 9.34
8/25/2021 12:15:00 PM 19.9 67.82 0.073 7.77 3.58 9.33
8/25/2021 12:30:00 PM 20.2 68.36 0.073 7.8 3.54 9.31
8/25/2021 12:45:00 PM 20.47 68.846 0.073 7.83 3.52 9.27
8/25/2021 1:00:00 PM 20.75 69.35 0.073 7.86 3.43 9.25
8/25/2021 1:15:00 PM 21.08 69.944 0.073 7.89 3.51 9.23
8/25/2021 1:30:00 PM 21.34 70.412 0.073 7.93 3.45 9.2
8/25/2021 1:45:00 PM 21.62 70.916 0.073 7.97 3.41 9.18
8/25/2021 2:00:00 PM 21.89 71.402 0.073 7.98 3.41 9.14
8/25/2021 2:15:00 PM 22.09 71.762 0.073 8.02 3.46 9.11
8/25/2021 2:30:00 PM 22.09 71.762 0.073 7.97 3.45 8.99
8/25/2021 2:45:00 PM 22.14 71.852 0.072 7.92 3.34 8.93
8/25/2021 3:00:00 PM 22.35 72.23 0.072 7.95 3.37 8.92
8/25/2021 3:15:00 PM 22.55 72.59 0.072 8 3.35 8.91
8/25/2021 3:30:00 PM 22.65 72.77 0.073 7.98 3.46 8.86
8/25/2021 3:45:00 PM 22.73 72.914 0.073 8 3.3 8.82
8/25/2021 4:00:00 PM 22.8 73.04 0.073 7.96 3.39 8.76
8/25/2021 4:15:00 PM 22.89 73.202 0.073 7.94 3.35 8.7
8/25/2021 4:30:00 PM 22.94 73.292 0.073 7.89 3.39 8.62
8/25/2021 4:45:00 PM 22.96 73.328 0.073 7.84 3.22 8.56
8/25/2021 5:00:00 PM 22.98 73.364 0.073 7.82 3.3 8.52
8/25/2021 5:15:00 PM 22.98 73.364 0.072 7.78 3.44 8.48
8/25/2021 5:30:00 PM 22.95 73.31 0.073 7.72 3.59 8.43
8/25/2021 5:45:00 PM 22.92 73.256 0.074 7.68 3.34 8.39
8/25/2021 6:00:00 PM 22.9 73.22 0.073 7.65 3.5 8.33
8/25/2021 6:15:00 PM 22.89 73.202 0.073 7.61 3.28 8.29
8/25/2021 6:30:00 PM 22.87 73.166 0.073 7.58 3.3 8.25
8/25/2021 6:45:00 PM 22.86 73.148 0.073 7.55 3.69 8.2
8/25/2021 7:00:00 PM 22.83 73.094 0.073 7.53 3.67 8.16
8/25/2021 7:15:00 PM 22.8 73.04 0.072 7.5 3.47 8.12
8/25/2021 7:30:00 PM 22.76 72.968 0.074 7.46 3.74 8.08
8/25/2021 7:45:00 PM 22.7 72.86 0.074 7.45 3.67 8.04
8/25/2021 8:00:00 PM 22.63 72.734 0.074 7.41 3.5 8.02
8/25/2021 8:15:00 PM 22.54 72.57201 0.074 7.4 3.51 7.99
8/25/2021 8:30:00 PM 22.44 72.392 0.075 7.39 3.53 7.99
8/25/2021 8:45:00 PM 22.33 72.194 0.075 7.4 3.7 7.99
8/25/2021 9:00:00 PM 22.22 71.996 0.075 7.39 3.72 7.99
8/25/2021 9:15:00 PM 22.09 71.762 0.075 7.38 3.84 8
8/25/2021 9:30:00 PM 21.97 71.546 0.075 7.37 3.79 8.02
8/25/2021 9:45:00 PM 21.84 71.312 0.076 7.35 3.78 8.04
8/25/2021 10:00:00 PM 21.71 71.078 0.076 7.36 3.74 8.06
8/25/2021 10:15:00 PM 21.58 70.844 0.076 7.33 3.98 8.08
8/25/2021 10:30:00 PM 21.44 70.592 0.076 7.35 4.19 8.1
8/25/2021 10:45:00 PM 21.31 70.358 0.076 7.31 4.09 8.13
8/25/2021 11:00:00 PM 21.19 70.142 0.076 7.35 4.22 8.14
8/25/2021 11:15:00 PM 21.08 69.944 0.076 7.35 4.3 8.17
8/25/2021 11:30:00 PM 20.97 69.746 0.076 7.34 4.39 8.19
8/25/2021 11:45:00 PM 20.87 69.566 0.076 7.33 4.54 8.21
8/26/2021 12:00:00 AM 20.78 69.404 0.076 7.34 4.73 8.22
8/26/2021 12:15:00 AM 20.69 69.242 0.076 7.33 5.03 8.24
8/26/2021 12:30:00 AM 20.61 69.098 0.076 7.31 4.93 8.26
8/26/2021 12:45:00 AM 20.53 68.954 0.076 7.33 4.95 8.26
8/26/2021 1:00:00 AM 20.46 68.828 0.077 7.3 5.02 8.28
8/26/2021 1:15:00 AM 20.4 68.72 0.077 7.33 4.78 8.3
8/26/2021 1:30:00 AM 20.34 68.612 0.078 7.32 4.82 8.31
8/26/2021 1:45:00 AM 20.28 68.504 0.078 7.29 4.55 8.32
8/26/2021 2:00:00 AM 20.22 68.396 0.078 7.31 4.6 8.32
8/26/2021 2:15:00 AM 20.17 68.306 0.077 7.33 4.58 8.34
8/26/2021 2:30:00 AM 20.12 68.216 0.077 7.32 4.45 8.35
8/26/2021 2:45:00 AM 20.07 68.126 0.077 7.32 4.39 8.36
8/26/2021 3:00:00 AM 20.03 68.054 0.077 7.29 4.36 8.37
8/26/2021 3:15:00 AM 19.98 67.964 0.077 7.3 4.35 8.38
8/26/2021 3:30:00 AM 19.94 67.892 0.077 7.31 4.36 8.39
8/26/2021 3:45:00 AM 19.9 67.82 0.077 7.31 4.27 8.39
8/26/2021 4:00:00 AM 19.87 67.766 0.077 7.31 4.28 8.4
8/26/2021 4:15:00 AM 19.83 67.694 0.077 7.29 4.28 8.41
8/26/2021 4:30:00 AM 19.8 67.64 0.077 7.31 4.2 8.42
8/26/2021 4:45:00 AM 19.77 67.586 0.077 7.29 4.29 8.42
8/26/2021 5:00:00 AM 19.73 67.514 0.077 7.31 4.36 8.43
8/26/2021 5:15:00 AM 19.71 67.478 0.077 7.28 4.37 8.44
8/26/2021 5:30:00 AM 19.67 67.406 0.077 7.3 4.37 8.45
8/26/2021 5:45:00 AM 19.65 67.37 0.077 7.32 4.2 8.45
8/26/2021 6:00:00 AM 19.62 67.316 0.077 7.32 4.22 8.45
8/26/2021 6:15:00 AM 19.59 67.262 0.077 7.31 4.09 8.47
8/26/2021 6:30:00 AM 19.55 67.19 0.077 7.32 4.21 8.47
8/26/2021 6:45:00 AM 19.52 67.136 0.077 7.28 4.15 8.48
8/26/2021 7:00:00 AM 19.49 67.082 0.077 7.31 3.93 8.5
8/26/2021 7:15:00 AM 19.47 67.046 0.077 7.32 4.08 8.52
8/26/2021 7:30:00 AM 19.44 66.992 0.077 7.33 3.98 8.56
8/26/2021 7:45:00 AM 19.42 66.956 0.077 7.31 3.94 8.6
8/26/2021 8:00:00 AM 19.41 66.938 0.077 7.34 3.81 8.66
8/26/2021 8:15:00 AM 19.41 66.938 0.077 7.38 3.82 8.78
8/26/2021 8:30:00 AM 19.42 66.956 0.077 7.39 3.89 8.89
8/26/2021 8:45:00 AM 19.45 67.01 0.077 7.43 3.72 8.99
8/26/2021 9:00:00 AM 19.48 67.064 0.077 7.47 3.73 9.07
8/26/2021 9:15:00 AM 19.53 67.154 0.077 7.52 3.85 9.16
8/26/2021 9:30:00 AM 19.58 67.244 0.077 7.59 3.84 9.22
8/26/2021 9:45:00 AM 19.65 67.37 0.076 7.6 3.65 9.27
8/26/2021 10:00:00 AM 19.72 67.496 0.076 7.66 3.85 9.31
8/26/2021 10:15:00 AM 19.81 67.658 0.076 7.71 3.63 9.34
8/26/2021 10:30:00 AM 19.9 67.82 0.076 7.78 3.7 9.38
8/26/2021 10:45:00 AM 19.97 67.946 0.076 7.79 3.72 9.38
8/26/2021 11:00:00 AM 20.09 68.162 0.076 7.86 3.64 9.39
8/26/2021 11:15:00 AM 20.2 68.36 0.076 7.86 3.67 9.39
8/26/2021 11:30:00 AM 20.39 68.702 0.075 7.9 3.64 9.36
8/26/2021 11:45:00 AM 20.51 68.918 0.075 7.94 3.61 9.32
8/26/2021 12:00:00 PM 20.75 69.35 0.075 7.96 3.64 9.29
8/26/2021 12:15:00 PM 21.02 69.836 0.075 7.97 3.58 9.27
8/26/2021 12:30:00 PM 21.29 70.32201 0.075 8.05 3.55 9.25
8/26/2021 12:45:00 PM 21.56 70.808 0.075 8.12 3.7 9.23
8/26/2021 1:00:00 PM 21.88 71.384 0.076 8.17 3.74 9.2
8/26/2021 1:15:00 PM 22.16 71.888 0.076 8.24 3.66 9.17
8/26/2021 1:30:00 PM 22.47 72.446 0.076 8.29 3.61 9.12
8/26/2021 1:45:00 PM 22.81 73.058 0.075 8.29 3.66 9.06
8/26/2021 2:00:00 PM 23.15 73.67 0.075 8.34 3.65 9.02
8/26/2021 2:15:00 PM 23.48 74.264 0.075 8.4 3.64 8.99
8/26/2021 2:30:00 PM 23.69 74.642 0.075 8.41 3.62 8.97
8/26/2021 2:45:00 PM 23.9 75.02 0.075 8.47 3.62 8.93
8/26/2021 3:00:00 PM 24.06 75.308 0.075 8.46 3.66 8.88
8/26/2021 3:15:00 PM 24.18 75.524 0.075 8.46 3.59 8.8
8/26/2021 3:30:00 PM 24.11 75.398 0.075 8.4 3.59 8.68
8/26/2021 3:45:00 PM 24.02 75.236 0.075 8.31 3.57 8.59
8/26/2021 4:00:00 PM 23.97 75.146 0.075 8.25 3.57 8.55
8/26/2021 4:15:00 PM 23.99 75.182 0.074 8.24 3.48 8.56
8/26/2021 4:30:00 PM 24.03 75.254 0.074 8.25 3.65 8.56
8/26/2021 4:45:00 PM 24.03 75.254 0.075 8.24 3.58 8.53
8/26/2021 5:00:00 PM 24 75.2 0.075 8.14 3.5 8.48
8/26/2021 5:15:00 PM 23.95 75.11 0.075 8.11 3.46 8.43
8/26/2021 5:30:00 PM 23.87 74.966 0.075 8.03 3.59 8.39
8/26/2021 5:45:00 PM 23.76 74.768 0.075 7.93 3.51 8.33
8/26/2021 6:00:00 PM 23.64 74.552 0.075 7.83 3.55 8.24
8/26/2021 6:15:00 PM 23.54 74.372 0.075 7.73 3.54 8.19
8/26/2021 6:30:00 PM 23.47 74.246 0.076 7.68 3.5 8.13
8/26/2021 6:45:00 PM 23.4 74.12 0.076 7.64 3.46 8.08
8/26/2021 7:00:00 PM 23.33 73.994 0.076 7.6 3.63 8.07
8/26/2021 7:15:00 PM 23.22 73.796 0.076 7.58 3.56 8.05
8/26/2021 7:30:00 PM 23.11 73.598 0.076 7.56 3.59 8.03
8/26/2021 7:45:00 PM 23.01 73.418 0.077 7.52 3.5 8.01
8/26/2021 8:00:00 PM 22.9 73.22 0.078 7.52 3.51 7.97
8/26/2021 8:15:00 PM 22.8 73.04 0.078 7.46 3.59 7.94
8/26/2021 8:30:00 PM 22.71 72.878 0.079 7.46 5.31 7.91
8/26/2021 8:45:00 PM 22.6 72.68 0.079 7.46 3.81 7.91
8/26/2021 9:00:00 PM 22.5 72.5 0.079 7.44 3.72 7.91
8/26/2021 9:15:00 PM 22.41 72.338 0.079 7.43 3.86 7.92
8/26/2021 9:30:00 PM 22.32 72.176 0.079 7.43 3.85 7.93
8/26/2021 9:45:00 PM 22.23 72.014 0.079 7.38 3.87 7.94
8/26/2021 10:00:00 PM 22.14 71.852 0.08 7.39 3.88 7.94
8/26/2021 10:15:00 PM 22.06 71.708 0.08 7.39 3.95 7.96
8/26/2021 10:30:00 PM 21.96 71.528 0.08 7.38 3.92 7.97
8/26/2021 10:45:00 PM 21.87 71.366 0.08 7.4 3.99 7.99
8/26/2021 11:00:00 PM 21.78 71.204 0.08 7.35 3.92 8.01
8/26/2021 11:15:00 PM 21.69 71.042 0.08 7.37 3.78 8.02
8/26/2021 11:30:00 PM 21.59 70.862 0.08 7.37 4.3 8.04
8/26/2021 11:45:00 PM 21.51 70.718 0.08 7.39 3.84 8.06
8/27/2021 12:00:00 AM 21.43 70.574 0.08 7.38 3.87 8.07
8/27/2021 12:15:00 AM 21.35 70.43 0.08 7.37 3.88 8.09
8/27/2021 12:30:00 AM 21.27 70.286 0.08 7.39 3.83 8.11
8/27/2021 12:45:00 AM 21.2 70.16 0.08 7.33 3.83 8.12
8/27/2021 1:00:00 AM 21.13 70.034 0.08 7.35 4.01 8.13
8/27/2021 1:15:00 AM 21.06 69.908 0.08 7.38 3.98 8.14
8/27/2021 1:30:00 AM 20.99 69.782 0.08 7.37 3.96 8.15
8/27/2021 1:45:00 AM 20.93 69.674 0.08 7.37 3.89 8.17
8/27/2021 2:00:00 AM 20.86 69.548 0.08 7.35 3.89 8.17
8/27/2021 2:15:00 AM 20.79 69.422 0.08 7.34 3.84 8.19
8/27/2021 2:30:00 AM 20.73 69.314 0.08 7.37 3.92 8.2
8/27/2021 2:45:00 AM 20.68 69.224 0.08 7.32 3.88 8.21
8/27/2021 3:00:00 AM 20.62 69.116 0.08 7.34 3.84 8.22
8/27/2021 3:15:00 AM 20.57 69.026 0.081 7.36 3.95 8.23
8/27/2021 3:30:00 AM 20.52 68.936 0.081 7.35 3.98 8.23
8/27/2021 3:45:00 AM 20.47 68.846 0.081 7.35 3.85 8.24
8/27/2021 4:00:00 AM 20.41 68.738 0.081 7.32 3.96 8.24
8/27/2021 4:15:00 AM 20.36 68.648 0.081 7.34 3.98 8.27
8/27/2021 4:30:00 AM 20.31 68.558 0.081 7.33 3.91 8.27
8/27/2021 4:45:00 AM 20.27 68.486 0.081 7.35 4.06 8.28
8/27/2021 5:00:00 AM 20.22 68.396 0.08 7.32 3.69 8.29
8/27/2021 5:15:00 AM 20.18 68.324 0.08 7.35 3.72 8.3
8/27/2021 5:30:00 AM 20.14 68.252 0.08 7.33 3.78 8.31
8/27/2021 5:45:00 AM 20.11 68.198 0.08 7.37 3.77 8.32
8/27/2021 6:00:00 AM 20.07 68.126 0.08 7.31 3.84 8.33
8/27/2021 6:15:00 AM 20.03 68.054 0.08 7.33 3.58 8.34
8/27/2021 6:30:00 AM 20 68 0.08 7.33 3.68 8.35
8/27/2021 6:45:00 AM 19.96 67.92799 0.08 7.35 3.6 8.36
8/27/2021 7:00:00 AM 19.92 67.856 0.08 7.32 3.68 8.38
8/27/2021 7:15:00 AM 19.89 67.802 0.08 7.36 3.57 8.42
8/27/2021 7:30:00 AM 19.85 67.73 0.08 7.37 3.55 8.47
8/27/2021 7:45:00 AM 19.83 67.694 0.08 7.35 3.46 8.52
8/27/2021 8:00:00 AM 19.81 67.658 0.08 7.4 3.44 8.56
8/27/2021 8:15:00 AM 19.8 67.64 0.08 7.4 3.41 8.62
8/27/2021 8:30:00 AM 19.8 67.64 0.08 7.43 3.43 8.69
8/27/2021 8:45:00 AM 19.81 67.658 0.08 7.46 3.45 8.81
8/27/2021 9:00:00 AM 19.84 67.712 0.08 7.51 3.45 8.94
8/27/2021 9:15:00 AM 19.87 67.766 0.079 7.54 3.32 9.05
8/27/2021 9:30:00 AM 19.93 67.874 0.079 7.63 3.5 9.14
8/27/2021 9:45:00 AM 19.99 67.982 0.079 7.69 3.34 9.22
8/27/2021 10:00:00 AM 20.06 68.108 0.079 7.72 3.29 9.26
8/27/2021 10:15:00 AM 20.13 68.234 0.079 7.78 3.34 9.3
8/27/2021 10:30:00 AM 20.22 68.396 0.078 7.85 3.33 9.34
8/27/2021 10:45:00 AM 20.32 68.576 0.078 7.91 3.29 9.37
8/27/2021 11:00:00 AM 20.46 68.828 0.078 7.96 3.26 9.4
8/27/2021 11:15:00 AM 20.58 69.044 0.078 8.05 3.29 9.4
8/27/2021 11:30:00 AM 20.72 69.296 0.078 8.1 3.38 9.41
8/27/2021 11:45:00 AM 20.85 69.53 0.078 8.16 3.24 9.41
8/27/2021 12:00:00 PM 20.98 69.764 0.078 8.22 3.21 9.4
8/27/2021 12:15:00 PM 21.11 69.998 0.077 8.27 3.31 9.37
8/27/2021 12:30:00 PM 21.41 70.538 0.077 8.31 3.25 9.35
8/27/2021 12:45:00 PM 21.71 71.078 0.077 8.39 3.25 9.32
8/27/2021 1:00:00 PM 21.99 71.582 0.077 8.4 3.28 9.27
8/27/2021 1:15:00 PM 22.26 72.068 0.077 8.5 3.65 9.24
8/27/2021 1:30:00 PM 22.67 72.806 0.077 8.56 3.21 9.22
8/27/2021 1:45:00 PM 22.97 73.346 0.077 8.62 3.16 9.18
8/27/2021 2:00:00 PM 23.24 73.832 0.077 8.66 3.22 9.13
8/27/2021 2:15:00 PM 23.53 74.354 0.077 8.72 3.89 9.08
8/27/2021 2:30:00 PM 23.74 74.732 0.077 8.74 3.11 9.03
8/27/2021 2:45:00 PM 23.99 75.182 0.077 8.76 3.2 8.96
8/27/2021 3:00:00 PM 24.27 75.686 0.077 8.76 3.04 8.89
8/27/2021 3:15:00 PM 24.42 75.956 0.077 8.75 3.2 8.81
8/27/2021 3:30:00 PM 24.42 75.956 0.077 8.7 3.08 8.69
8/27/2021 3:45:00 PM 24.35 75.83 0.077 8.62 3.17 8.57
8/27/2021 4:00:00 PM 24.3 75.74 0.077 8.58 3.1 8.55
8/27/2021 4:15:00 PM 24.35 75.83 0.077 8.55 3.06 8.52
8/27/2021 4:30:00 PM 24.38 75.884 0.077 8.53 3.09 8.48
8/27/2021 4:45:00 PM 24.37 75.866 0.076 8.46 3.11 8.4
8/27/2021 5:00:00 PM 24.37 75.866 0.076 8.38 3.13 8.37
8/27/2021 5:15:00 PM 24.37 75.866 0.076 8.34 3.04 8.4
8/27/2021 5:30:00 PM 24.31 75.758 0.076 8.3 3.08 8.33
8/27/2021 5:45:00 PM 24.23 75.614 0.077 8.15 3.19 8.25
8/27/2021 6:00:00 PM 24.15 75.47 0.077 8.07 3.06 8.21
8/27/2021 6:15:00 PM 24.06 75.308 0.077 7.95 2.99 8.1
8/27/2021 6:30:00 PM 23.99 75.182 0.077 7.81 3.06 8
8/27/2021 6:45:00 PM 23.93 75.074 0.077 7.76 3.04 7.95
8/27/2021 7:00:00 PM 23.86 74.948 0.078 7.67 3.05 7.9
8/27/2021 7:15:00 PM 23.79 74.82201 0.078 7.64 3.12 7.83
8/27/2021 7:30:00 PM 23.73 74.714 0.078 7.57 3.09 7.79
8/27/2021 7:45:00 PM 23.66 74.588 0.079 7.54 3.17 7.76
8/27/2021 8:00:00 PM 23.59 74.462 0.079 7.52 3.12 7.74
8/27/2021 8:15:00 PM 23.51 74.318 0.079 7.49 3.29 7.74
8/27/2021 8:30:00 PM 23.44 74.192 0.08 7.48 7.21 7.73
8/27/2021 8:45:00 PM 23.35 74.03 0.08 7.46 3.38 7.73
8/27/2021 9:00:00 PM 23.26 73.868 0.08 7.46 3.62 7.74
8/27/2021 9:15:00 PM 23.17 73.706 0.08 7.44 3.4 7.76
8/27/2021 9:30:00 PM 23.07 73.526 0.081 7.44 3.48 7.77
8/27/2021 9:45:00 PM 22.98 73.364 0.082 7.41 3.45 7.78
8/27/2021 10:00:00 PM 22.87 73.166 0.082 7.4 3.59 7.8
8/27/2021 10:15:00 PM 22.76 72.968 0.083 7.42 3.55 7.82
8/27/2021 10:30:00 PM 22.65 72.77 0.083 7.39 3.72 7.85
8/27/2021 10:45:00 PM 22.5 72.5 0.082 7.41 4 7.88
8/27/2021 11:00:00 PM 22.37 72.266 0.081 7.4 4.02 7.91
8/27/2021 11:15:00 PM 22.23 72.014 0.081 7.36 4.27 7.94
8/27/2021 11:30:00 PM 22.1 71.78 0.08 7.39 4.29 7.96
8/27/2021 11:45:00 PM 21.98 71.564 0.08 7.39 4.24 7.98
8/28/2021 12:00:00 AM 21.86 71.348 0.079 7.37 4.41 8.01
8/28/2021 12:15:00 AM 21.76 71.168 0.079 7.35 4.49 8.03
8/28/2021 12:30:00 AM 21.67 71.006 0.078 7.36 4.45 8.04
8/28/2021 12:45:00 AM 21.59 70.862 0.078 7.37 4.8 8.06
8/28/2021 1:00:00 AM 21.51 70.718 0.077 7.33 4.87 8.07
8/28/2021 1:15:00 AM 21.44 70.592 0.077 7.34 5.51 8.08
8/28/2021 1:30:00 AM 21.38 70.484 0.077 7.33 5.76 8.1
8/28/2021 1:45:00 AM 21.32 70.376 0.077 7.33 5.82 8.11
8/28/2021 2:00:00 AM 21.26 70.268 0.076 7.34 5.94 8.12
8/28/2021 2:15:00 AM 21.21 70.17799 0.076 7.33 5.78 8.13
8/28/2021 2:30:00 AM 21.16 70.088 0.076 7.36 5.82 8.14
8/28/2021 2:45:00 AM 21.11 69.998 0.076 7.36 5.73 8.15
8/28/2021 3:00:00 AM 21.06 69.908 0.076 7.33 5.65 8.15
8/28/2021 3:15:00 AM 21.02 69.836 0.076 7.35 5.7 8.16
8/28/2021 3:30:00 AM 20.98 69.764 0.076 7.35 5.78 8.17
8/28/2021 3:45:00 AM 20.93 69.674 0.076 7.3 5.92 8.18
8/28/2021 4:00:00 AM 20.89 69.602 0.077 7.33 5.71 8.19
8/28/2021 4:15:00 AM 20.86 69.548 0.077 7.32 5.94 8.19
8/28/2021 4:30:00 AM 20.82 69.476 0.077 7.35 6.19 8.2
8/28/2021 4:45:00 AM 20.78 69.404 0.077 7.35 6.27 8.21
8/28/2021 5:00:00 AM 20.75 69.35 0.077 7.32 6.71 8.21
8/28/2021 5:15:00 AM 20.71 69.278 0.077 7.32 6.57 8.22
8/28/2021 5:30:00 AM 20.68 69.224 0.078 7.32 6.87 8.23
8/28/2021 5:45:00 AM 20.64 69.152 0.078 7.32 6.82 8.24
8/28/2021 6:00:00 AM 20.61 69.098 0.078 7.33 6.55 8.24
8/28/2021 6:15:00 AM 20.58 69.044 0.078 7.35 6.83 8.24
8/28/2021 6:30:00 AM 20.55 68.99 0.079 7.34 6.33 8.26
8/28/2021 6:45:00 AM 20.52 68.936 0.079 7.34 6.31 8.27
8/28/2021 7:00:00 AM 20.49 68.882 0.079 7.35 6.03 8.29
8/28/2021 7:15:00 AM 20.47 68.846 0.079 7.31 5.6 8.31
8/28/2021 7:30:00 AM 20.45 68.81 0.079 7.34 5.42 8.36
8/28/2021 7:45:00 AM 20.43 68.774 0.079 7.38 5.19 8.41
8/28/2021 8:00:00 AM 20.42 68.756 0.079 7.35 5.02 8.47
8/28/2021 8:15:00 AM 20.42 68.756 0.079 7.4 4.92 8.54
8/28/2021 8:30:00 AM 20.42 68.756 0.079 7.44 4.71 8.59
8/28/2021 8:45:00 AM 20.41 68.738 0.079 7.46 4.6 8.63
8/28/2021 9:00:00 AM 20.43 68.774 0.078 7.45 4.49 8.73
8/28/2021 9:15:00 AM 20.45 68.81 0.078 7.5 4.38 8.82
8/28/2021 9:30:00 AM 20.47 68.846 0.078 7.57 4.57 8.9
8/28/2021 9:45:00 AM 20.5 68.9 0.078 7.57 8.98 8.95
8/28/2021 10:00:00 AM 20.55 68.99 0.078 7.67 4.27 9.07
8/28/2021 10:15:00 AM 20.62 69.116 0.078 7.72 4.22 9.17
8/28/2021 10:30:00 AM 20.74 69.332 0.077 7.85 4.3 9.26
8/28/2021 10:45:00 AM 20.8 69.44 0.077 7.93 4.19 9.31
8/28/2021 11:00:00 AM 20.94 69.692 0.077 8 9.83 9.31
8/28/2021 11:15:00 AM 21.11 69.998 0.077 8.08 3.83 9.35
8/28/2021 11:30:00 AM 21.3 70.34 0.077 8.15 3.91 9.36
8/28/2021 11:45:00 AM 21.4 70.52 0.077 8.15 3.85 9.32
8/28/2021 12:00:00 PM 21.52 70.736 0.077 8.23 3.93 9.32
8/28/2021 12:15:00 PM 21.77 71.186 0.077 8.28 5.37 9.29
8/28/2021 12:30:00 PM 22.06 71.708 0.077 8.36 3.61 9.27
8/28/2021 12:45:00 PM 22.37 72.266 0.076 8.43 8.16 9.23
8/28/2021 1:00:00 PM 22.7 72.86 0.076 8.47 5.49 9.2
8/28/2021 1:15:00 PM 23.02 73.436 0.076 8.57 5.96 9.17
8/28/2021 1:30:00 PM 23.35 74.03 0.076 8.64 6.85 9.12
8/28/2021 1:45:00 PM 23.68 74.624 0.075 8.66 3.56 9.06
8/28/2021 2:00:00 PM 23.74 74.732 0.075 8.67 7.86 8.93
8/28/2021 2:15:00 PM 23.81 74.858 0.075 8.65 8.38 8.88
8/28/2021 2:30:00 PM 23.94 75.092 0.075 8.7 6.1 8.89
8/28/2021 2:45:00 PM 24 75.2 0.075 8.68 3.4 8.79
8/28/2021 3:00:00 PM 23.98 75.164 0.075 8.58 3.75 8.66
8/28/2021 3:15:00 PM 23.92 75.056 0.075 8.44 15.86 8.47
8/28/2021 3:30:00 PM 23.81 74.858 0.076 8.24 20.82 8.33
8/28/2021 3:45:00 PM 23.68 74.624 0.076 8.14 4.07 8.34
8/28/2021 4:00:00 PM 23.54 74.372 0.076 8.06 6.31 8.36
8/28/2021 4:15:00 PM 23.41 74.138 0.076 8.04 3.26 8.38
8/28/2021 4:30:00 PM 23.29 73.922 0.076 7.95 5.96 8.41
8/28/2021 4:45:00 PM 23.17 73.706 0.076 7.93 5.99 8.38
8/28/2021 5:00:00 PM 23.07 73.526 0.076 7.85 5.77 8.32
8/28/2021 5:15:00 PM 22.99 73.382 0.077 7.79 3.12 8.35
8/28/2021 5:30:00 PM 22.97 73.346 0.077 7.85 3.11 8.49
8/28/2021 5:45:00 PM 22.95 73.31 0.077 7.93 5.12 8.55
8/28/2021 6:00:00 PM 22.91 73.238 0.077 7.9 5.55 8.52
8/28/2021 6:15:00 PM 22.84 73.112 0.077 7.84 3.08 8.45
8/28/2021 6:30:00 PM 22.76 72.968 0.078 7.78 3.81 8.37
8/28/2021 6:45:00 PM 22.68 72.824 0.078 7.68 95.8 8.29
8/28/2021 7:00:00 PM 22.62 72.716 0.078 7.63 7.38 8.24
8/28/2021 7:15:00 PM 22.57 72.626 0.078 7.61 3.51 8.21
8/28/2021 7:30:00 PM 22.53 72.554 0.078 7.58 3.31 8.16
8/28/2021 7:45:00 PM 22.48 72.464 0.078 7.55 3.28 8.11
8/28/2021 8:00:00 PM 22.43 72.374 0.079 7.51 3.19 8.06
8/28/2021 8:15:00 PM 22.38 72.284 0.079 7.5 3.3 8.02
8/28/2021 8:30:00 PM 22.31 72.158 0.079 7.46 3.65 7.99
8/28/2021 8:45:00 PM 22.24 72.032 0.079 7.47 3.42 7.97
8/28/2021 9:00:00 PM 22.18 71.924 0.08 7.44 3.43 7.97
8/28/2021 9:15:00 PM 22.12 71.816 0.08 7.42 3.44 7.97
8/28/2021 9:30:00 PM 22.06 71.708 0.08 7.43 3.38 7.97
8/28/2021 9:45:00 PM 22.01 71.618 0.08 7.42 3.63 7.97
8/28/2021 10:00:00 PM 21.96 71.528 0.08 7.43 3.37 7.98
8/28/2021 10:15:00 PM 21.9 71.42 0.08 7.42 3.4 7.99
8/28/2021 10:30:00 PM 21.85 71.33 0.081 7.39 3.55 7.99
8/28/2021 10:45:00 PM 21.79 71.222 0.081 7.4 3.61 8.01
8/28/2021 11:00:00 PM 21.74 71.132 0.081 7.39 3.57 8.02
8/28/2021 11:15:00 PM 21.69 71.042 0.081 7.39 3.59 8.02
8/28/2021 11:30:00 PM 21.64 70.952 0.081 7.39 3.67 8.03
8/28/2021 11:45:00 PM 21.58 70.844 0.081 7.41 3.73 8.04
8/29/2021 12:00:00 AM 21.52 70.736 0.081 7.41 4.07 8.06
8/29/2021 12:15:00 AM 21.47 70.646 0.081 7.41 3.64 8.07
8/29/2021 12:30:00 AM 21.42 70.556 0.081 7.37 3.85 8.07
8/29/2021 12:45:00 AM 21.38 70.484 0.081 7.4 4.39 8.08
8/29/2021 1:00:00 AM 21.34 70.412 0.08 7.4 3.86 8.09
8/29/2021 1:15:00 AM 21.3 70.34 0.08 7.4 3.92 8.1
8/29/2021 1:30:00 AM 21.26 70.268 0.08 7.37 4.03 8.11
8/29/2021 1:45:00 AM 21.21 70.17799 0.08 7.37 4.03 8.13
8/29/2021 2:00:00 AM 21.17 70.106 0.08 7.39 4.11 8.13
8/29/2021 2:15:00 AM 21.13 70.034 0.08 7.37 3.85 8.14
8/29/2021 2:30:00 AM 21.1 69.98 0.08 7.36 3.95 8.15
8/29/2021 2:45:00 AM 21.06 69.908 0.08 7.35 4.01 8.15
8/29/2021 3:00:00 AM 21.03 69.854 0.08 7.35 3.94 8.15
8/29/2021 3:15:00 AM 20.99 69.782 0.08 7.35 3.95 8.16
8/29/2021 3:30:00 AM 20.96 69.728 0.08 7.35 3.91 8.16
8/29/2021 3:45:00 AM 20.93 69.674 0.08 7.35 3.87 8.17
8/29/2021 4:00:00 AM 20.9 69.62 0.08 7.34 3.98 8.17
8/29/2021 4:15:00 AM 20.87 69.566 0.08 7.34 4 8.18
8/29/2021 4:30:00 AM 20.83 69.494 0.08 7.37 4 8.18
8/29/2021 4:45:00 AM 20.8 69.44 0.08 7.37 3.91 8.19
8/29/2021 5:00:00 AM 20.77 69.386 0.08 7.34 4.27 8.19
8/29/2021 5:15:00 AM 20.74 69.332 0.08 7.34 4.1 8.2
8/29/2021 5:30:00 AM 20.71 69.278 0.08 7.36 4.13 8.21
8/29/2021 5:45:00 AM 20.68 69.224 0.08 7.35 3.97 8.22
8/29/2021 6:00:00 AM 20.65 69.17 0.08 7.32 3.94 8.23
8/29/2021 6:15:00 AM 20.63 69.134 0.08 7.35 4.36 8.22
8/29/2021 6:30:00 AM 20.6 69.08 0.08 7.33 3.76 8.23
8/29/2021 6:45:00 AM 20.58 69.044 0.08 7.33 3.84 8.25
8/29/2021 7:00:00 AM 20.55 68.99 0.08 7.36 3.82 8.27
8/29/2021 7:15:00 AM 20.53 68.954 0.08 7.34 3.74 8.32
8/29/2021 7:30:00 AM 20.52 68.936 0.08 7.38 3.72 8.39
8/29/2021 7:45:00 AM 20.51 68.918 0.08 7.39 3.71 8.45
8/29/2021 8:00:00 AM 20.5 68.9 0.08 7.38 3.55 8.45
8/29/2021 8:15:00 AM 20.48 68.864 0.08 7.42 3.65 8.48
8/29/2021 8:30:00 AM 20.48 68.864 0.08 7.43 3.68 8.53
8/29/2021 8:45:00 AM 20.48 68.864 0.08 7.42 3.79 8.59
8/29/2021 9:00:00 AM 20.51 68.918 0.079 7.5 3.71 8.74
8/29/2021 9:15:00 AM 20.54 68.972 0.079 7.56 3.72 8.87
8/29/2021 9:30:00 AM 20.56 69.008 0.079 7.58 3.66 8.89
8/29/2021 9:45:00 AM 20.58 69.044 0.078 7.57 3.59 8.92
8/29/2021 10:00:00 AM 20.61 69.098 0.078 7.62 3.7 8.97
8/29/2021 10:15:00 AM 20.66 69.188 0.078 7.69 3.69 9.07
8/29/2021 10:30:00 AM 20.75 69.35 0.078 7.8 3.8 9.17
8/29/2021 10:45:00 AM 20.82 69.476 0.078 7.88 3.65 9.25
8/29/2021 11:00:00 AM 20.9 69.62 0.078 7.93 3.83 9.3
8/29/2021 11:15:00 AM 20.91 69.638 0.078 7.95 3.31 9.2
8/29/2021 11:30:00 AM 20.92 69.656 0.078 7.91 3.4 9.13
8/29/2021 11:45:00 AM 20.97 69.746 0.078 7.91 3.33 9.17
8/29/2021 12:00:00 PM 21.01 69.818 0.078 7.98 3.37 9.17
8/29/2021 12:15:00 PM 21.06 69.908 0.078 7.98 3.39 9.18
8/29/2021 12:30:00 PM 21.16 70.088 0.077 8.08 3.45 9.25
8/29/2021 12:45:00 PM 21.3 70.34 0.077 8.23 3.31 9.32
8/29/2021 1:00:00 PM 21.37 70.466 0.078 8.28 3.55 9.31
8/29/2021 1:15:00 PM 21.42 70.556 0.078 8.3 3.4 9.29
8/29/2021 1:30:00 PM 21.44 70.592 0.078 8.18 3.47 9.11
8/29/2021 1:45:00 PM 21.46 70.628 0.077 8.05 3.48 8.95
8/29/2021 2:00:00 PM 21.54 70.772 0.077 8.14 3.64 9.04
8/29/2021 2:15:00 PM 21.59 70.862 0.077 8.22 3.52 9.08
8/29/2021 2:30:00 PM 21.62 70.916 0.077 8.19 3.49 9.01
8/29/2021 2:45:00 PM 21.68 71.024 0.076 8.16 3.67 8.95
8/29/2021 3:00:00 PM 21.85 71.33 0.076 8.28 3.46 9.06
8/29/2021 3:15:00 PM 21.98 71.564 0.076 8.37 3.58 9.11
8/29/2021 3:30:00 PM 22.06 71.708 0.076 8.43 3.56 9.12
8/29/2021 3:45:00 PM 22.15 71.87 0.076 8.49 3.68 9.15
8/29/2021 4:00:00 PM 22.2 71.96 0.076 8.52 3.46 9.12
8/29/2021 4:15:00 PM 22.27 72.086 0.076 8.57 3.55 9.12
8/29/2021 4:30:00 PM 22.34 72.212 0.076 8.56 3.53 9.05
8/29/2021 4:45:00 PM 22.35 72.23 0.076 8.46 3.59 8.91
8/29/2021 5:00:00 PM 22.32 72.176 0.075 8.31 3.9 8.73
8/29/2021 5:15:00 PM 22.31 72.158 0.075 8.12 4.31 8.6
8/29/2021 5:30:00 PM 22.3 72.14 0.075 7.97 4.55 8.46
8/29/2021 5:45:00 PM 22.26 72.068 0.076 7.85 4.15 8.35
8/29/2021 6:00:00 PM 22.22 71.996 0.076 7.75 4.02 8.28
8/29/2021 6:15:00 PM 22.17 71.906 0.076 7.67 3.96 8.21
8/29/2021 6:30:00 PM 22.12 71.816 0.076 7.6 3.72 8.16
8/29/2021 6:45:00 PM 22.07 71.726 0.077 7.59 3.76 8.14
8/29/2021 7:00:00 PM 22 71.6 0.077 7.55 3.79 8.12
8/29/2021 7:15:00 PM 21.93 71.474 0.077 7.54 4.14 8.1
8/29/2021 7:30:00 PM 21.83 71.294 0.077 7.51 3.82 8.1
8/29/2021 7:45:00 PM 21.75 71.15 0.078 7.51 3.88 8.08
8/29/2021 8:00:00 PM 21.67 71.006 0.078 7.46 3.97 8.07
8/29/2021 8:15:00 PM 21.59 70.862 0.078 7.46 4.05 8.06
8/29/2021 8:30:00 PM 21.52 70.736 0.078 7.46 3.84 8.06
8/29/2021 8:45:00 PM 21.45 70.61 0.078 7.45 3.91 8.06
8/29/2021 9:00:00 PM 21.37 70.466 0.078 7.45 3.85 8.07
8/29/2021 9:15:00 PM 21.3 70.34 0.078 7.46 3.92 8.08
8/29/2021 9:30:00 PM 21.23 70.214 0.079 7.44 3.86 8.08
8/29/2021 9:45:00 PM 21.16 70.088 0.079 7.44 3.98 8.09
8/29/2021 10:00:00 PM 21.09 69.962 0.079 7.43 4.08 8.11
8/29/2021 10:15:00 PM 21.03 69.854 0.079 7.43 4.11 8.12
8/29/2021 10:30:00 PM 20.96 69.728 0.079 7.42 4.19 8.13
8/29/2021 10:45:00 PM 20.89 69.602 0.08 7.43 4.18 8.15
8/29/2021 11:00:00 PM 20.83 69.494 0.08 7.42 4.3 8.16
8/29/2021 11:15:00 PM 20.76 69.368 0.08 7.42 4.44 8.18
8/29/2021 11:30:00 PM 20.69 69.242 0.08 7.41 4.28 8.19
8/29/2021 11:45:00 PM 20.63 69.134 0.08 7.42 4.44 8.19
8/30/2021 12:00:00 AM 20.56 69.008 0.08 7.41 4.49 8.21
8/30/2021 12:15:00 AM 20.5 68.9 0.08 7.42 4.37 8.22
8/30/2021 12:30:00 AM 20.43 68.774 0.08 7.42 4.42 8.23
8/30/2021 12:45:00 AM 20.37 68.666 0.08 7.41 4.86 8.24
8/30/2021 1:00:00 AM 20.32 68.576 0.08 7.41 4.26 8.24
8/30/2021 1:15:00 AM 20.26 68.468 0.08 7.42 4.28 8.25
8/30/2021 1:30:00 AM 20.2 68.36 0.08 7.39 4.18 8.27
8/30/2021 1:45:00 AM 20.14 68.252 0.08 7.41 4.28 8.29
8/30/2021 2:00:00 AM 20.09 68.162 0.08 7.41 4.2 8.29
8/30/2021 2:15:00 AM 20.04 68.07201 0.08 7.41 4.16 8.31
8/30/2021 2:30:00 AM 19.99 67.982 0.08 7.39 4.23 8.32
8/30/2021 2:45:00 AM 19.96 67.92799 0.08 7.41 4.39 8.32
8/30/2021 3:00:00 AM 19.92 67.856 0.079 7.38 4.2 8.33
8/30/2021 3:15:00 AM 19.89 67.802 0.079 7.39 4.07 8.34
8/30/2021 3:30:00 AM 19.85 67.73 0.078 7.4 4.23 8.37
8/30/2021 3:45:00 AM 19.82 67.676 0.077 7.39 4.33 8.36
8/30/2021 4:00:00 AM 19.8 67.64 0.079 7.36 7.95 8.35
8/30/2021 4:15:00 AM 19.78 67.604 0.079 7.38 9.1 8.34
8/30/2021 4:30:00 AM 19.76 67.568 0.08 7.41 6.89 8.34
8/30/2021 4:45:00 AM 19.73 67.514 0.08 7.4 5.34 8.34
8/30/2021 5:00:00 AM 19.7 67.46 0.08 7.37 4.71 8.34
8/30/2021 5:15:00 AM 19.68 67.424 0.08 7.37 4.66 8.35
8/30/2021 5:30:00 AM 19.66 67.388 0.08 7.37 4.78 8.36
8/30/2021 5:45:00 AM 19.63 67.334 0.08 7.37 4.77 8.36
8/30/2021 6:00:00 AM 19.61 67.298 0.08 7.39 14.38 8.36
8/30/2021 6:15:00 AM 19.58 67.244 0.08 7.39 15.52 8.37
8/30/2021 6:30:00 AM 19.55 67.19 0.08 7.38 4.36 8.39
8/30/2021 6:45:00 AM 19.53 67.154 0.08 7.4 4.5 8.4
8/30/2021 7:00:00 AM 19.51 67.118 0.08 7.37 4.37 8.42
8/30/2021 7:15:00 AM 19.49 67.082 0.08 7.41 4.27 8.48
8/30/2021 7:30:00 AM 19.48 67.064 0.08 7.42 4.23 8.53
8/30/2021 7:45:00 AM 19.47 67.046 0.08 7.44 4.01 8.59
8/30/2021 8:00:00 AM 19.46 67.028 0.08 7.42 3.88 8.67
8/30/2021 8:15:00 AM 19.46 67.028 0.08 7.47 3.69 8.74
8/30/2021 8:30:00 AM 19.46 67.028 0.08 7.5 3.75 8.78
8/30/2021 8:45:00 AM 19.46 67.028 0.08 7.49 3.7 8.79
8/30/2021 9:00:00 AM 19.49 67.082 0.079 7.55 3.64 8.92
8/30/2021 9:15:00 AM 19.52 67.136 0.079 7.56 3.65 9
8/30/2021 9:30:00 AM 19.54 67.172 0.079 7.61 3.58 9.01
8/30/2021 9:45:00 AM 19.63 67.334 0.079 7.66 3.61 9.15
8/30/2021 10:00:00 AM 19.66 67.388 0.079 7.7 3.61 9.14
8/30/2021 10:15:00 AM 19.68 67.424 0.079 7.7 3.47 9.09
8/30/2021 10:30:00 AM 19.74 67.532 0.078 7.71 3.56 9.16
8/30/2021 10:45:00 AM 19.78 67.604 0.078 7.75 3.47 9.13
8/30/2021 11:00:00 AM 19.87 67.766 0.078 7.82 3.49 9.23
8/30/2021 11:15:00 AM 19.92 67.856 0.078 7.83 3.47 9.22
8/30/2021 11:30:00 AM 20.05 68.09 0.079 7.92 3.31 9.31
8/30/2021 11:45:00 AM 20.2 68.36 0.079 8.07 3.25 9.4
8/30/2021 12:00:00 PM 20.21 68.378 0.079 8.07 3.22 9.3
8/30/2021 12:15:00 PM 20.25 68.45 0.079 7.97 3.31 9.17
8/30/2021 12:30:00 PM 20.34 68.612 0.079 7.97 3.28 9.16
8/30/2021 12:45:00 PM 20.4 68.72 0.078 8.02 3.19 9.22
8/30/2021 1:00:00 PM 20.47 68.846 0.078 8.08 3.34 9.22
8/30/2021 1:15:00 PM 20.74 69.332 0.078 8.25 3.35 9.34
8/30/2021 1:30:00 PM 20.97 69.746 0.078 8.4 3.42 9.39
8/30/2021 1:45:00 PM 21.33 70.394 0.077 8.51 3.26 9.4
8/30/2021 2:00:00 PM 21.69 71.042 0.077 8.56 3.31 9.38
8/30/2021 2:15:00 PM 22.09 71.762 0.077 8.64 3.24 9.35
8/30/2021 2:30:00 PM 22.42 72.356 0.077 8.69 7.01 9.29
8/30/2021 2:45:00 PM 22.61 72.698 0.077 8.71 18.75 9.22
8/30/2021 3:00:00 PM 22.65 72.77 0.077 8.73 3.36 9.17
8/30/2021 3:15:00 PM 22.62 72.716 0.077 8.73 3.64 9.1
8/30/2021 3:30:00 PM 22.67 72.806 0.077 8.74 3.38 9.07
8/30/2021 3:45:00 PM 22.7 72.86 0.077 8.74 3.35 9.01
8/30/2021 4:00:00 PM 22.78 73.004 0.077 8.74 3.25 8.97
8/30/2021 4:15:00 PM 22.82 73.076 0.077 8.71 3.33 8.87
8/30/2021 4:30:00 PM 22.8 73.04 0.077 8.6 3.33 8.75
8/30/2021 4:45:00 PM 22.73 72.914 0.077 8.57 3.3 8.73
8/30/2021 5:00:00 PM 22.65 72.77 0.077 8.46 3.33 8.66
8/30/2021 5:15:00 PM 22.57 72.626 0.077 8.37 3.33 8.58
8/30/2021 5:30:00 PM 22.48 72.464 0.077 8.23 3.35 8.51
8/30/2021 5:45:00 PM 22.38 72.284 0.077 8.07 3.37 8.46
8/30/2021 6:00:00 PM 22.31 72.158 0.077 8 3.26 8.42
8/30/2021 6:15:00 PM 22.26 72.068 0.077 7.89 3.3 8.37
8/30/2021 6:30:00 PM 22.22 71.996 0.077 7.85 3.32 8.32
8/30/2021 6:45:00 PM 22.18 71.924 0.078 7.77 3.22 8.27
8/30/2021 7:00:00 PM 22.16 71.888 0.078 7.73 3.28 8.21
8/30/2021 7:15:00 PM 22.12 71.816 0.078 7.65 3.18 8.16
8/30/2021 7:30:00 PM 22.09 71.762 0.078 7.62 3.37 8.08
8/30/2021 7:45:00 PM 22.05 71.69 0.079 7.59 3.27 8.03
8/30/2021 8:00:00 PM 22 71.6 0.079 7.55 6.09 7.99
8/30/2021 8:15:00 PM 21.94 71.492 0.079 7.52 3.56 7.97
8/30/2021 8:30:00 PM 21.86 71.348 0.08 7.51 3.57 7.96
8/30/2021 8:45:00 PM 21.78 71.204 0.08 7.45 3.63 7.95
8/30/2021 9:00:00 PM 21.7 71.06 0.08 7.47 3.75 7.96
8/30/2021 9:15:00 PM 21.61 70.898 0.08 7.47 3.76 7.96
8/30/2021 9:30:00 PM 21.52 70.736 0.08 7.46 3.64 7.97
8/30/2021 9:45:00 PM 21.44 70.592 0.08 7.45 3.61 7.98
8/30/2021 10:00:00 PM 21.36 70.448 0.08 7.43 3.69 7.99
8/30/2021 10:15:00 PM 21.26 70.268 0.08 7.45 3.65 8.01
8/30/2021 10:30:00 PM 21.18 70.124 0.08 7.45 3.71 8.03
8/30/2021 10:45:00 PM 21.1 69.98 0.08 7.44 3.7 8.04
8/30/2021 11:00:00 PM 21.02 69.836 0.08 7.45 3.63 8.05
8/30/2021 11:15:00 PM 20.94 69.692 0.08 7.45 3.78 8.07
8/30/2021 11:30:00 PM 20.85 69.53 0.08 7.44 3.67 8.09
8/30/2021 11:45:00 PM 20.77 69.386 0.08 7.42 3.79 8.1
8/31/2021 12:00:00 AM 20.69 69.242 0.08 7.43 3.77 8.11
8/31/2021 12:15:00 AM 20.62 69.116 0.08 7.43 3.72 8.13
8/31/2021 12:30:00 AM 20.55 68.99 0.08 7.42 3.77 8.15
8/31/2021 12:45:00 AM 20.49 68.882 0.08 7.43 3.8 8.15
8/31/2021 1:00:00 AM 20.42 68.756 0.08 7.43 3.84 8.16
8/31/2021 1:15:00 AM 20.36 68.648 0.08 7.41 3.8 8.17
8/31/2021 1:30:00 AM 20.29 68.522 0.08 7.42 3.7 8.18
8/31/2021 1:45:00 AM 20.22 68.396 0.08 7.41 3.72 8.2
8/31/2021 2:00:00 AM 20.16 68.288 0.08 7.43 3.81 8.21
8/31/2021 2:15:00 AM 20.1 68.18 0.08 7.4 3.83 8.22
8/31/2021 2:30:00 AM 20.05 68.09 0.08 7.42 3.78 8.24
8/31/2021 2:45:00 AM 20 68 0.08 7.42 3.72 8.24
8/31/2021 3:00:00 AM 19.95 67.91 0.08 7.39 3.67 8.25
8/31/2021 3:15:00 AM 19.89 67.802 0.08 7.42 3.68 8.26
8/31/2021 3:30:00 AM 19.84 67.712 0.08 7.4 3.77 8.28
8/31/2021 3:45:00 AM 19.79 67.622 0.08 7.42 3.6 8.29
8/31/2021 4:00:00 AM 19.74 67.532 0.08 7.43 3.58 8.29
8/31/2021 4:15:00 AM 19.69 67.442 0.08 7.42 3.59 8.3
8/31/2021 4:30:00 AM 19.64 67.352 0.08 7.42 3.62 8.31
8/31/2021 4:45:00 AM 19.6 67.28 0.08 7.41 3.64 8.32
8/31/2021 5:00:00 AM 19.55 67.19 0.08 7.4 3.56 8.33
8/31/2021 5:15:00 AM 19.51 67.118 0.08 7.41 3.76 8.33
8/31/2021 5:30:00 AM 19.46 67.028 0.08 7.42 3.83 8.34
8/31/2021 5:45:00 AM 19.42 66.956 0.08 7.39 3.65 8.36
8/31/2021 6:00:00 AM 19.37 66.866 0.08 7.41 3.55 8.36
8/31/2021 6:15:00 AM 19.32 66.776 0.081 7.39 3.58 8.37
8/31/2021 6:30:00 AM 19.26 66.668 0.081 7.41 3.59 8.39
8/31/2021 6:45:00 AM 19.21 66.578 0.081 7.41 3.53 8.39
8/31/2021 7:00:00 AM 19.16 66.488 0.081 7.42 3.43 8.42
8/31/2021 7:15:00 AM 19.12 66.416 0.081 7.39 3.42 8.45
8/31/2021 7:30:00 AM 19.07 66.326 0.081 7.41 3.83 8.48
8/31/2021 7:45:00 AM 19.04 66.272 0.081 7.44 3.48 8.53
8/31/2021 8:00:00 AM 19 66.2 0.081 7.44 3.37 8.59
8/31/2021 8:15:00 AM 18.98 66.164 0.081 7.48 3.38 8.68
8/31/2021 8:30:00 AM 18.96 66.128 0.081 7.49 3.38 8.77
8/31/2021 8:45:00 AM 18.95 66.11 0.08 7.53 3.27 8.85
8/31/2021 9:00:00 AM 18.94 66.092 0.08 7.53 3.3 8.92
8/31/2021 9:15:00 AM 18.94 66.092 0.08 7.59 3.26 9.01
8/31/2021 9:30:00 AM 18.94 66.092 0.08 7.64 3.26 9.08
8/31/2021 9:45:00 AM 18.95 66.11 0.08 7.67 3.28 9.13
8/31/2021 10:00:00 AM 18.97 66.146 0.08 7.72 3.29 9.23
8/31/2021 10:15:00 AM 19.01 66.218 0.08 7.78 3.24 9.31
8/31/2021 10:30:00 AM 19.05 66.29 0.079 7.85 3.21 9.38
8/31/2021 10:45:00 AM 19.1 66.38 0.079 7.9 3.23 9.44
8/31/2021 11:00:00 AM 19.17 66.506 0.079 8 3.19 9.51
8/31/2021 11:15:00 AM 19.26 66.668 0.079 8.12 3.35 9.56
8/31/2021 11:30:00 AM 19.36 66.848 0.079 8.18 3.23 9.58
8/31/2021 11:45:00 AM 19.44 66.992 0.079 8.23 3.27 9.58
8/31/2021 12:00:00 PM 19.6 67.28 0.079 8.3 3.23 9.59
8/31/2021 12:15:00 PM 19.75 67.55 0.079 8.39 3.2 9.6
8/31/2021 12:30:00 PM 19.96 67.92799 0.079 8.47 3.24 9.6
8/31/2021 12:45:00 PM 20.22 68.396 0.078 8.51 3.23 9.56
8/31/2021 1:00:00 PM 20.56 69.008 0.078 8.59 3.19 9.53
8/31/2021 1:15:00 PM 20.76 69.368 0.078 8.65 3.24 9.48
8/31/2021 1:30:00 PM 20.98 69.764 0.078 8.63 3.16 9.4
8/31/2021 1:45:00 PM 21.34 70.412 0.078 8.72 3.25 9.4
8/31/2021 2:00:00 PM 21.6 70.88 0.078 8.73 3.3 9.35
8/31/2021 2:15:00 PM 21.9 71.42 0.078 8.79 3.17 9.32
8/31/2021 2:30:00 PM 22.2 71.96 0.078 8.8 3.15 9.26
8/31/2021 2:45:00 PM 22.41 72.338 0.078 8.82 3.16 9.2
8/31/2021 3:00:00 PM 22.47 72.446 0.078 8.8 3.12 9.12
8/31/2021 3:15:00 PM 22.6 72.68 0.078 8.83 3.15 9.09
8/31/2021 3:30:00 PM 22.76 72.968 0.078 8.86 3.15 9.06
8/31/2021 3:45:00 PM 22.86 73.148 0.078 8.84 3.15 8.98
8/31/2021 4:00:00 PM 22.92 73.256 0.078 8.85 3.12 8.91
8/31/2021 4:15:00 PM 22.96 73.328 0.077 8.82 3.01 8.84
8/31/2021 4:30:00 PM 22.98 73.364 0.077 8.79 3.23 8.75
8/31/2021 4:45:00 PM 22.99 73.382 0.077 8.77 3.16 8.73
8/31/2021 5:00:00 PM 23 73.4 0.077 8.76 3.08 8.73
8/31/2021 5:15:00 PM 22.98 73.364 0.077 8.73 3.28 8.72
8/31/2021 5:30:00 PM 22.92 73.256 0.077 8.7 3.16 8.66
8/31/2021 5:45:00 PM 22.85 73.13 0.077 8.61 3.1 8.57
8/31/2021 6:00:00 PM 22.78 73.004 0.077 8.49 3.16 8.49
8/31/2021 6:15:00 PM 22.7 72.86 0.077 8.37 3.07 8.43
8/31/2021 6:30:00 PM 22.61 72.698 0.077 8.23 3.05 8.35
8/31/2021 6:45:00 PM 22.53 72.554 0.078 8.11 3.05 8.3
8/31/2021 7:00:00 PM 22.46 72.42799 0.078 8.02 3.04 8.27
8/31/2021 7:15:00 PM 22.37 72.266 0.078 7.92 3.03 8.2
8/31/2021 7:30:00 PM 22.27 72.086 0.078 7.82 3.16 8.1
8/31/2021 7:45:00 PM 22.18 71.924 0.079 7.71 3.99 8.01
8/31/2021 8:00:00 PM 22.07 71.726 0.079 7.65 3.54 7.97
8/31/2021 8:15:00 PM 21.98 71.564 0.08 7.61 3.54 7.92
8/31/2021 8:30:00 PM 21.88 71.384 0.08 7.58 3.26 7.91
8/31/2021 8:45:00 PM 21.79 71.222 0.08 7.55 3.18 7.9
8/31/2021 9:00:00 PM 21.7 71.06 0.081 7.53 3.22 7.9
8/31/2021 9:15:00 PM 21.61 70.898 0.081 7.51 3.23 7.9
8/31/2021 9:30:00 PM 21.53 70.754 0.082 7.49 3.13 7.91
8/31/2021 9:45:00 PM 21.45 70.61 0.082 7.49 3.25 7.91
8/31/2021 10:00:00 PM 21.37 70.466 0.083 7.47 3.31 7.92
8/31/2021 10:15:00 PM 21.3 70.34 0.083 7.48 3.42 7.94
8/31/2021 10:30:00 PM 21.22 70.196 0.083 7.47 3.38 7.95
8/31/2021 10:45:00 PM 21.14 70.052 0.083 7.48 3.46 7.96
8/31/2021 11:00:00 PM 21.05 69.89 0.083 7.47 3.44 7.98
8/31/2021 11:15:00 PM 20.96 69.728 0.083 7.45 3.33 7.99
8/31/2021 11:30:00 PM 20.87 69.566 0.083 7.45 3.37 8.01
8/31/2021 11:45:00 PM 20.79 69.422 0.083 7.45 3.29 8.03
9/1/2021 12:00:00 AM 20.7 69.26 0.083 7.45 3.29 8.05
9/1/2021 12:15:00 AM 20.61 69.098 0.083 7.44 3.41 8.06
9/1/2021 12:30:00 AM 20.52 68.936 0.083 7.44 3.33 8.09
9/1/2021 12:45:00 AM 20.44 68.792 0.083 7.43 3.24 8.09
9/1/2021 1:00:00 AM 20.35 68.63 0.083 7.42 3.3 8.12
9/1/2021 1:15:00 AM 20.28 68.504 0.083 7.44 3.22 8.12
9/1/2021 1:30:00 AM 20.19 68.342 0.083 7.43 3.37 8.14
9/1/2021 1:45:00 AM 20.12 68.216 0.083 7.42 3.33 8.16
9/1/2021 2:00:00 AM 20.04 68.07201 0.083 7.42 3.23 8.17
9/1/2021 2:15:00 AM 19.97 67.946 0.083 7.42 3.25 8.18
9/1/2021 2:30:00 AM 19.91 67.838 0.084 7.43 3.4 8.19
9/1/2021 2:45:00 AM 19.84 67.712 0.083 7.44 3.31 8.22
9/1/2021 3:00:00 AM 19.78 67.604 0.083 7.43 3.32 8.22
9/1/2021 3:15:00 AM 19.72 67.496 0.083 7.41 3.33 8.23
9/1/2021 3:30:00 AM 19.67 67.406 0.083 7.41 3.33 8.25
9/1/2021 3:45:00 AM 19.62 67.316 0.083 7.41 3.26 8.26
9/1/2021 4:00:00 AM 19.57 67.226 0.083 7.42 3.36 8.26
9/1/2021 4:15:00 AM 19.52 67.136 0.083 7.4 3.38 8.27
9/1/2021 4:30:00 AM 19.48 67.064 0.083 7.41 3.09 8.28
9/1/2021 4:45:00 AM 19.43 66.974 0.083 7.42 3.06 8.29
9/1/2021 5:00:00 AM 19.39 66.902 0.083 7.42 3.15 8.3
9/1/2021 5:15:00 AM 19.34 66.812 0.082 7.41 3.3 8.31
9/1/2021 5:30:00 AM 19.29 66.722 0.082 7.42 3.11 8.32
9/1/2021 5:45:00 AM 19.24 66.632 0.082 7.41 3.3 8.33
9/1/2021 6:00:00 AM 19.19 66.542 0.082 7.39 3.32 8.34
9/1/2021 6:15:00 AM 19.14 66.452 0.082 7.42 3.26 8.35
9/1/2021 6:30:00 AM 19.1 66.38 0.082 7.39 3.33 8.35
9/1/2021 6:45:00 AM 19.06 66.308 0.082 7.41 3.37 8.36
9/1/2021 7:00:00 AM 19.02 66.236 0.082 7.4 3.26 8.37
9/1/2021 7:15:00 AM 18.97 66.146 0.082 7.41 3.3 8.4
9/1/2021 7:30:00 AM 18.92 66.056 0.082 7.42 3.21 8.43
9/1/2021 7:45:00 AM 18.87 65.966 0.082 7.44 3.17 8.48
9/1/2021 8:00:00 AM 18.84 65.912 0.082 7.45 3.17 8.55
9/1/2021 8:15:00 AM 18.81 65.858 0.082 7.48 3.25 8.61
9/1/2021 8:30:00 AM 18.78 65.804 0.082 7.47 3.98 8.67
9/1/2021 8:45:00 AM 18.76 65.768 0.082 7.52 3.14 8.73
9/1/2021 9:00:00 AM 18.73 65.714 0.082 7.52 3.14 8.79
9/1/2021 9:15:00 AM 18.72 65.696 0.081 7.53 3.24 8.84
9/1/2021 9:30:00 AM 18.7 65.66 0.081 7.56 3.16 8.89
9/1/2021 9:45:00 AM 18.69 65.642 0.081 7.58 3.25 8.96
9/1/2021 10:00:00 AM 18.69 65.642 0.08 7.64 3.2 9.05
9/1/2021 10:15:00 AM 18.71 65.67799 0.08 7.68 3.32 9.16
9/1/2021 10:30:00 AM 18.73 65.714 0.08 7.75 3.23 9.27
9/1/2021 10:45:00 AM 18.75 65.75 0.08 7.79 3.25 9.29
9/1/2021 11:00:00 AM 18.77 65.786 0.08 7.82 3.3 9.3
9/1/2021 11:15:00 AM 18.78 65.804 0.08 7.82 3.31 9.27
9/1/2021 11:30:00 AM 18.79 65.82201 0.08 7.8 3.23 9.23
9/1/2021 11:45:00 AM 18.81 65.858 0.08 7.83 3.3 9.28
9/1/2021 12:00:00 PM 18.85 65.93 0.08 7.9 3.15 9.36
9/1/2021 12:15:00 PM 18.88 65.984 0.08 7.97 3.19 9.42
9/1/2021 12:30:00 PM 18.91 66.038 0.08 8.03 3.02 9.41
9/1/2021 12:45:00 PM 18.92 66.056 0.081 7.97 3.11 9.32
9/1/2021 1:00:00 PM 18.91 66.038 0.08 7.9 3.01 9.21
9/1/2021 1:15:00 PM 18.91 66.038 0.08 7.83 3.03 9.12
9/1/2021 1:30:00 PM 18.9 66.02 0.08 7.83 2.96 9.11
9/1/2021 1:45:00 PM 18.89 66.002 0.08 7.83 3.06 9.15
9/1/2021 2:00:00 PM 18.88 65.984 0.079 7.85 3.09 9.17
9/1/2021 2:15:00 PM 18.87 65.966 0.079 7.85 3.11 9.17
9/1/2021 2:30:00 PM 18.86 65.948 0.079 7.87 3.54 9.17
9/1/2021 2:45:00 PM 18.84 65.912 0.079 7.84 3.03 9.16
9/1/2021 3:00:00 PM 18.82 65.876 0.079 7.85 3.07 9.16
9/1/2021 3:15:00 PM 18.81 65.858 0.079 7.84 3.09 9.15
9/1/2021 3:30:00 PM 18.8 65.84 0.079 7.85 3.24 9.17
9/1/2021 3:45:00 PM 18.78 65.804 0.079 7.84 3.1 9.13
9/1/2021 4:00:00 PM 18.75 65.75 0.08 7.76 3.67 9.01
9/1/2021 4:15:00 PM 18.73 65.714 0.08 7.74 3.25 8.98
9/1/2021 4:30:00 PM 18.71 65.67799 0.08 7.73 5.2 8.96
9/1/2021 4:45:00 PM 18.69 65.642 0.08 7.69 3.33 8.94
9/1/2021 5:00:00 PM 18.67 65.606 0.08 7.71 3.25 8.99
9/1/2021 5:15:00 PM 18.65 65.57 0.08 7.71 4.44 8.97
9/1/2021 5:30:00 PM 18.64 65.552 0.08 7.71 3.35 9.02
9/1/2021 5:45:00 PM 18.64 65.552 0.08 7.76 3.51 9.09
9/1/2021 6:00:00 PM 18.62 65.516 0.08 7.75 3.54 9.06
9/1/2021 6:15:00 PM 18.6 65.48 0.08 7.73 3.48 9.01
9/1/2021 6:30:00 PM 18.58 65.444 0.08 7.7 3.57 8.94
9/1/2021 6:45:00 PM 18.55 65.39 0.08 7.67 3.48 8.9
9/1/2021 7:00:00 PM 18.52 65.336 0.081 7.65 3.38 8.88
9/1/2021 7:15:00 PM 18.5 65.3 0.081 7.64 3.52 8.88
9/1/2021 7:30:00 PM 18.47 65.246 0.081 7.63 3.47 8.86
9/1/2021 7:45:00 PM 18.43 65.174 0.081 7.61 3.6 8.8
9/1/2021 8:00:00 PM 18.38 65.084 0.081 7.57 3.42 8.74
9/1/2021 8:15:00 PM 18.32 64.976 0.082 7.53 3.45 8.7
9/1/2021 8:30:00 PM 18.25 64.85 0.082 7.54 3.47 8.68
9/1/2021 8:45:00 PM 18.18 64.724 0.082 7.5 3.67 8.67
9/1/2021 9:00:00 PM 18.11 64.598 0.082 7.5 3.71 8.67
9/1/2021 9:15:00 PM 18.03 64.454 0.082 7.48 3.8 8.67
9/1/2021 9:30:00 PM 17.95 64.31 0.082 7.48 3.71 8.67
9/1/2021 9:45:00 PM 17.88 64.184 0.082 7.49 3.64 8.68
9/1/2021 10:00:00 PM 17.8 64.04 0.082 7.47 3.66 8.69
9/1/2021 10:15:00 PM 17.73 63.914 0.082 7.46 3.69 8.7
9/1/2021 10:30:00 PM 17.64 63.752 0.082 7.46 3.69 8.72
9/1/2021 10:45:00 PM 17.56 63.608 0.082 7.46 3.74 8.74
9/1/2021 11:00:00 PM 17.47 63.446 0.082 7.46 3.61 8.75
9/1/2021 11:15:00 PM 17.38 63.284 0.082 7.47 3.71 8.77
9/1/2021 11:30:00 PM 17.3 63.14 0.082 7.45 3.83 8.79
9/1/2021 11:45:00 PM 17.21 62.978 0.082 7.45 3.8 8.8
9/2/2021 12:00:00 AM 17.14 62.852 0.082 7.46 3.8 8.82
9/2/2021 12:15:00 AM 17.07 62.726 0.082 7.46 3.66 8.84
9/2/2021 12:30:00 AM 17 62.6 0.082 7.45 3.82 8.85
9/2/2021 12:45:00 AM 16.94 62.492 0.082 7.44 3.74 8.87
9/2/2021 1:00:00 AM 16.88 62.384 0.082 7.43 3.88 8.88
9/2/2021 1:15:00 AM 16.82 62.276 0.082 7.43 3.78 8.9
9/2/2021 1:30:00 AM 16.75 62.15 0.082 7.44 3.76 8.91
9/2/2021 1:45:00 AM 16.69 62.042 0.082 7.44 3.79 8.92
9/2/2021 2:00:00 AM 16.61 61.898 0.082 7.43 3.76 8.94
9/2/2021 2:15:00 AM 16.54 61.772 0.082 7.45 3.72 8.96
9/2/2021 2:30:00 AM 16.46 61.628 0.082 7.44 3.78 8.97
9/2/2021 2:45:00 AM 16.39 61.502 0.082 7.45 3.66 9
9/2/2021 3:00:00 AM 16.32 61.376 0.082 7.43 3.7 9.01
9/2/2021 3:15:00 AM 16.26 61.268 0.082 7.44 3.63 9.02
9/2/2021 3:30:00 AM 16.2 61.16 0.082 7.43 3.6 9.03
9/2/2021 3:45:00 AM 16.14 61.052 0.082 7.43 3.64 9.05
9/2/2021 4:00:00 AM 16.09 60.962 0.082 7.43 3.6 9.06
9/2/2021 4:15:00 AM 16.05 60.89 0.082 7.43 3.58 9.07
9/2/2021 4:30:00 AM 16 60.8 0.082 7.43 3.63 9.08
9/2/2021 4:45:00 AM 15.96 60.728 0.082 7.43 3.52 9.09
9/2/2021 5:00:00 AM 15.91 60.638 0.082 7.43 3.54 9.1
9/2/2021 5:15:00 AM 15.87 60.566 0.082 7.43 3.7 9.11
9/2/2021 5:30:00 AM 15.83 60.494 0.082 7.44 3.59 9.12
9/2/2021 5:45:00 AM 15.78 60.404 0.082 7.42 3.57 9.13
9/2/2021 6:00:00 AM 15.73 60.314 0.082 7.44 3.58 9.14
9/2/2021 6:15:00 AM 15.68 60.224 0.082 7.43 3.56 9.15
9/2/2021 6:30:00 AM 15.63 60.134 0.082 7.45 3.47 9.17
9/2/2021 6:45:00 AM 15.58 60.044 0.082 7.44 3.39 9.19
9/2/2021 7:00:00 AM 15.53 59.954 0.082 7.45 3.59 9.21
9/2/2021 7:15:00 AM 15.48 59.864 0.082 7.44 3.37 9.27
9/2/2021 7:30:00 AM 15.44 59.792 0.082 7.44 3.32 9.33
9/2/2021 7:45:00 AM 15.41 59.738 0.081 7.47 3.35 9.4
9/2/2021 8:00:00 AM 15.38 59.684 0.081 7.5 3.33 9.49
9/2/2021 8:15:00 AM 15.35 59.63 0.081 7.53 3.44 9.59
9/2/2021 8:30:00 AM 15.32 59.576 0.081 7.55 3.27 9.68
9/2/2021 8:45:00 AM 15.31 59.558 0.081 7.6 3.24 9.79
9/2/2021 9:00:00 AM 15.34 59.612 0.081 7.66 3.22 9.92
9/2/2021 9:15:00 AM 15.35 59.63 0.081 7.72 3.28 9.99
9/2/2021 9:30:00 AM 15.37 59.666 0.081 7.75 3.2 9.99
9/2/2021 9:45:00 AM 15.42 59.756 0.081 7.73 3.17 9.94
9/2/2021 10:00:00 AM 15.48 59.864 0.081 7.76 3.11 9.93